<?xml version='1.0' encoding='UTF-8'?><gpx version="1.1" creator="JPX - https://github.com/jenetics/jpx" xmlns="http://www.topografix.com/GPX/1/1"><trk><trkseg><trkpt lat="51.5406977" lon="4.535077"><ele>10.0</ele><time>2026-04-27T09:40:19.239Z</time></trkpt><trkpt lat="51.5406488" lon="4.5351685"><ele>10.0</ele><time>2026-04-27T09:41:04.19Z</time></trkpt><trkpt lat="51.5406027" lon="4.5352508"><ele>10.0</ele><time>2026-04-27T09:41:08.246Z</time></trkpt><trkpt lat="51.5405461" lon="4.535329"><ele>10.0</ele><time>2026-04-27T09:41:12.187Z</time></trkpt><trkpt lat="51.5405195" lon="4.5352212"><ele>10.0</ele><time>2026-04-27T09:41:17.189Z</time></trkpt><trkpt lat="51.5405374" lon="4.5353338"><ele>10.0</ele><time>2026-04-27T09:41:45.236Z</time></trkpt><trkpt lat="51.5405446" lon="4.5354603"><ele>10.0</ele><time>2026-04-27T09:41:49.205Z</time></trkpt><trkpt lat="51.5405678" lon="4.5355697"><ele>10.285714285714285</ele><time>2026-04-27T09:41:53.208Z</time></trkpt><trkpt lat="51.540585" lon="4.5356781"><ele>10.571428571428571</ele><time>2026-04-27T09:41:56.207Z</time></trkpt><trkpt lat="51.5406168" lon="4.5357912"><ele>10.857142857142858</ele><time>2026-04-27T09:41:59.254Z</time></trkpt><trkpt lat="51.5406492" lon="4.5358951"><ele>11.142857142857142</ele><time>2026-04-27T09:42:02.254Z</time></trkpt><trkpt lat="51.5406813" lon="4.5359899"><ele>11.428571428571429</ele><time>2026-04-27T09:42:05.226Z</time></trkpt><trkpt lat="51.5407373" lon="4.5360901"><ele>11.714285714285714</ele><time>2026-04-27T09:42:08.235Z</time></trkpt><trkpt lat="51.5407922" lon="4.5361624"><ele>12.0</ele><time>2026-04-27T09:42:10.168Z</time></trkpt><trkpt lat="51.5408484" lon="4.5362362"><ele>12.0</ele><time>2026-04-27T09:42:12.203Z</time></trkpt><trkpt lat="51.5408999" lon="4.5363053"><ele>12.0</ele><time>2026-04-27T09:42:14.208Z</time></trkpt><trkpt lat="51.5409662" lon="4.5363819"><ele>12.0</ele><time>2026-04-27T09:42:16.248Z</time></trkpt><trkpt lat="51.5410341" lon="4.536466"><ele>12.0</ele><time>2026-04-27T09:42:18.177Z</time></trkpt><trkpt lat="51.5411103" lon="4.53655"><ele>12.0</ele><time>2026-04-27T09:42:20.182Z</time></trkpt><trkpt lat="51.5411702" lon="4.5366333"><ele>12.0</ele><time>2026-04-27T09:42:22.237Z</time></trkpt><trkpt lat="51.5412363" lon="4.5367116"><ele>11.833333333333334</ele><time>2026-04-27T09:42:24.24Z</time></trkpt><trkpt lat="51.5413046" lon="4.5367954"><ele>11.666666666666666</ele><time>2026-04-27T09:42:26.275Z</time></trkpt><trkpt lat="51.5413701" lon="4.5368818"><ele>11.5</ele><time>2026-04-27T09:42:28.224Z</time></trkpt><trkpt lat="51.5414241" lon="4.5369659"><ele>11.333333333333332</ele><time>2026-04-27T09:42:30.235Z</time></trkpt><trkpt lat="51.5414744" lon="4.5370453"><ele>11.166666666666666</ele><time>2026-04-27T09:42:32.229Z</time></trkpt><trkpt lat="51.5415253" lon="4.5371242"><ele>11.0</ele><time>2026-04-27T09:42:34.233Z</time></trkpt><trkpt lat="51.5415775" lon="4.5372057"><ele>11.0</ele><time>2026-04-27T09:42:36.232Z</time></trkpt><trkpt lat="51.5416302" lon="4.5372886"><ele>11.0</ele><time>2026-04-27T09:42:38.241Z</time></trkpt><trkpt lat="51.5417049" lon="4.5373719"><ele>11.0</ele><time>2026-04-27T09:42:40.194Z</time></trkpt><trkpt lat="51.5417859" lon="4.5374648"><ele>11.0</ele><time>2026-04-27T09:42:42.249Z</time></trkpt><trkpt lat="51.5418655" lon="4.5375621"><ele>11.0</ele><time>2026-04-27T09:42:44.24Z</time></trkpt><trkpt lat="51.5419404" lon="4.537652"><ele>11.0</ele><time>2026-04-27T09:42:46.211Z</time></trkpt><trkpt lat="51.5420072" lon="4.5377596"><ele>11.0</ele><time>2026-04-27T09:42:48.259Z</time></trkpt><trkpt lat="51.5420676" lon="4.5378682"><ele>11.0</ele><time>2026-04-27T09:42:50.248Z</time></trkpt><trkpt lat="51.5421078" lon="4.5379965"><ele>11.0</ele><time>2026-04-27T09:42:52.242Z</time></trkpt><trkpt lat="51.54215" lon="4.5381308"><ele>11.0</ele><time>2026-04-27T09:42:54.238Z</time></trkpt><trkpt lat="51.5421993" lon="4.538267"><ele>11.200000000000001</ele><time>2026-04-27T09:42:56.241Z</time></trkpt><trkpt lat="51.5422311" lon="4.5384068"><ele>11.4</ele><time>2026-04-27T09:42:58.249Z</time></trkpt><trkpt lat="51.5422597" lon="4.5385418"><ele>11.6</ele><time>2026-04-27T09:43:00.245Z</time></trkpt><trkpt lat="51.5422668" lon="4.5386869"><ele>11.8</ele><time>2026-04-27T09:43:02.243Z</time></trkpt><trkpt lat="51.5422812" lon="4.5388373"><ele>12.0</ele><time>2026-04-27T09:43:04.26Z</time></trkpt><trkpt lat="51.542294" lon="4.5389962"><ele>12.2</ele><time>2026-04-27T09:43:06.237Z</time></trkpt><trkpt lat="51.5423133" lon="4.5391449"><ele>12.399999999999999</ele><time>2026-04-27T09:43:08.25Z</time></trkpt><trkpt lat="51.5423366" lon="4.5392761"><ele>12.600000000000001</ele><time>2026-04-27T09:43:10.258Z</time></trkpt><trkpt lat="51.5423684" lon="4.5394164"><ele>12.8</ele><time>2026-04-27T09:43:12.168Z</time></trkpt><trkpt lat="51.5423957" lon="4.5395623"><ele>13.0</ele><time>2026-04-27T09:43:14.243Z</time></trkpt><trkpt lat="51.5424241" lon="4.5397171"><ele>13.0</ele><time>2026-04-27T09:43:16.251Z</time></trkpt><trkpt lat="51.5424433" lon="4.5398791"><ele>13.0</ele><time>2026-04-27T09:43:18.241Z</time></trkpt><trkpt lat="51.5424588" lon="4.5400394"><ele>13.0</ele><time>2026-04-27T09:43:20.232Z</time></trkpt><trkpt lat="51.5424953" lon="4.5401879"><ele>13.0</ele><time>2026-04-27T09:43:22.241Z</time></trkpt><trkpt lat="51.5425202" lon="4.5403366"><ele>13.0</ele><time>2026-04-27T09:43:24.246Z</time></trkpt><trkpt lat="51.5425576" lon="4.5404766"><ele>13.166666666666666</ele><time>2026-04-27T09:43:26.241Z</time></trkpt><trkpt lat="51.542576" lon="4.5406033"><ele>13.333333333333332</ele><time>2026-04-27T09:43:28.237Z</time></trkpt><trkpt lat="51.5425827" lon="4.5407581"><ele>13.5</ele><time>2026-04-27T09:43:30.243Z</time></trkpt><trkpt lat="51.5425787" lon="4.5409089"><ele>13.666666666666668</ele><time>2026-04-27T09:43:32.243Z</time></trkpt><trkpt lat="51.5425604" lon="4.541061"><ele>13.833333333333334</ele><time>2026-04-27T09:43:34.232Z</time></trkpt><trkpt lat="51.5425604" lon="4.5411869"><ele>14.0</ele><time>2026-04-27T09:43:36.222Z</time></trkpt><trkpt lat="51.5425508" lon="4.5413046"><ele>14.000000000000002</ele><time>2026-04-27T09:43:38.245Z</time></trkpt><trkpt lat="51.5425412" lon="4.5414254"><ele>14.0</ele><time>2026-04-27T09:43:40.254Z</time></trkpt><trkpt lat="51.5425338" lon="4.5415449"><ele>14.0</ele><time>2026-04-27T09:43:42.249Z</time></trkpt><trkpt lat="51.5425259" lon="4.5416672"><ele>14.0</ele><time>2026-04-27T09:43:44.243Z</time></trkpt><trkpt lat="51.5425159" lon="4.5417966"><ele>14.000000000000002</ele><time>2026-04-27T09:43:46.224Z</time></trkpt><trkpt lat="51.5425074" lon="4.5419708"><ele>14.0</ele><time>2026-04-27T09:43:48.185Z</time></trkpt><trkpt lat="51.5424919" lon="4.5421821"><ele>14.0</ele><time>2026-04-27T09:43:50.26Z</time></trkpt><trkpt lat="51.5424831" lon="4.5422857"><ele>13.999999999999998</ele><time>2026-04-27T09:43:51.249Z</time></trkpt><trkpt lat="51.5424819" lon="4.5424822"><ele>13.999999999999998</ele><time>2026-04-27T09:43:53.249Z</time></trkpt><trkpt lat="51.5424872" lon="4.5426536"><ele>14.0</ele><time>2026-04-27T09:43:55.267Z</time></trkpt><trkpt lat="51.542492" lon="4.5428218"><ele>14.0</ele><time>2026-04-27T09:43:57.247Z</time></trkpt><trkpt lat="51.5425027" lon="4.5429847"><ele>14.0</ele><time>2026-04-27T09:43:59.236Z</time></trkpt><trkpt lat="51.5425133" lon="4.5431524"><ele>13.999999999999998</ele><time>2026-04-27T09:44:01.223Z</time></trkpt><trkpt lat="51.5425136" lon="4.543328"><ele>13.999999999999998</ele><time>2026-04-27T09:44:03.243Z</time></trkpt><trkpt lat="51.5425184" lon="4.5434828"><ele>14.0</ele><time>2026-04-27T09:44:05.218Z</time></trkpt><trkpt lat="51.5425459" lon="4.5436487"><ele>14.0</ele><time>2026-04-27T09:44:07.236Z</time></trkpt><trkpt lat="51.5425735" lon="4.5437881"><ele>13.799999999999999</ele><time>2026-04-27T09:44:09.235Z</time></trkpt><trkpt lat="51.542599" lon="4.5439449"><ele>13.599999999999998</ele><time>2026-04-27T09:44:11.217Z</time></trkpt><trkpt lat="51.5426308" lon="4.5440918"><ele>13.4</ele><time>2026-04-27T09:44:13.221Z</time></trkpt><trkpt lat="51.5426753" lon="4.5442415"><ele>13.2</ele><time>2026-04-27T09:44:15.234Z</time></trkpt><trkpt lat="51.5427123" lon="4.5443843"><ele>13.0</ele><time>2026-04-27T09:44:17.235Z</time></trkpt><trkpt lat="51.5427324" lon="4.5445143"><ele>12.666666666666666</ele><time>2026-04-27T09:44:19.174Z</time></trkpt><trkpt lat="51.542732" lon="4.5446538"><ele>12.333333333333332</ele><time>2026-04-27T09:44:21.245Z</time></trkpt><trkpt lat="51.542687" lon="4.5447663"><ele>12.0</ele><time>2026-04-27T09:44:23.234Z</time></trkpt><trkpt lat="51.5426437" lon="4.5448654"><ele>11.666666666666666</ele><time>2026-04-27T09:44:25.241Z</time></trkpt><trkpt lat="51.5425861" lon="4.5449779"><ele>11.333333333333332</ele><time>2026-04-27T09:44:27.246Z</time></trkpt><trkpt lat="51.5425292" lon="4.5451013"><ele>11.0</ele><time>2026-04-27T09:44:29.243Z</time></trkpt><trkpt lat="51.5424821" lon="4.5452406"><ele>11.0</ele><time>2026-04-27T09:44:31.233Z</time></trkpt><trkpt lat="51.5424502" lon="4.5453572"><ele>11.0</ele><time>2026-04-27T09:44:33.234Z</time></trkpt><trkpt lat="51.5424349" lon="4.5455181"><ele>11.0</ele><time>2026-04-27T09:44:35.237Z</time></trkpt><trkpt lat="51.5424201" lon="4.5456917"><ele>11.0</ele><time>2026-04-27T09:44:37.236Z</time></trkpt><trkpt lat="51.5424135" lon="4.5458645"><ele>11.0</ele><time>2026-04-27T09:44:39.215Z</time></trkpt><trkpt lat="51.5424153" lon="4.5460363"><ele>10.8</ele><time>2026-04-27T09:44:41.245Z</time></trkpt><trkpt lat="51.5424294" lon="4.5461875"><ele>10.600000000000001</ele><time>2026-04-27T09:44:43.245Z</time></trkpt><trkpt lat="51.5424407" lon="4.5463538"><ele>10.4</ele><time>2026-04-27T09:44:45.236Z</time></trkpt><trkpt lat="51.5424534" lon="4.5465238"><ele>10.2</ele><time>2026-04-27T09:44:47.234Z</time></trkpt><trkpt lat="51.5424573" lon="4.5466915"><ele>10.0</ele><time>2026-04-27T09:44:49.211Z</time></trkpt><trkpt lat="51.5424643" lon="4.5468536"><ele>9.8</ele><time>2026-04-27T09:44:51.26Z</time></trkpt><trkpt lat="51.5424788" lon="4.5470201"><ele>9.6</ele><time>2026-04-27T09:44:53.262Z</time></trkpt><trkpt lat="51.5424879" lon="4.5471743"><ele>9.4</ele><time>2026-04-27T09:44:55.249Z</time></trkpt><trkpt lat="51.5424944" lon="4.5473292"><ele>9.2</ele><time>2026-04-27T09:44:57.21Z</time></trkpt><trkpt lat="51.5425076" lon="4.5474949"><ele>9.0</ele><time>2026-04-27T09:44:59.233Z</time></trkpt><trkpt lat="51.5425138" lon="4.547653"><ele>8.833333333333334</ele><time>2026-04-27T09:45:01.248Z</time></trkpt><trkpt lat="51.5425148" lon="4.5477902"><ele>8.666666666666666</ele><time>2026-04-27T09:45:03.252Z</time></trkpt><trkpt lat="51.5425163" lon="4.5479068"><ele>8.5</ele><time>2026-04-27T09:45:05.21Z</time></trkpt><trkpt lat="51.5424597" lon="4.5479678"><ele>8.333333333333332</ele><time>2026-04-27T09:45:07.23Z</time></trkpt><trkpt lat="51.5423886" lon="4.5480005"><ele>8.166666666666666</ele><time>2026-04-27T09:45:09.22Z</time></trkpt><trkpt lat="51.542313" lon="4.5480477"><ele>8.0</ele><time>2026-04-27T09:45:11.217Z</time></trkpt><trkpt lat="51.542234" lon="4.5480844"><ele>7.999999999999999</ele><time>2026-04-27T09:45:13.233Z</time></trkpt><trkpt lat="51.5421614" lon="4.5481476"><ele>8.0</ele><time>2026-04-27T09:45:15.238Z</time></trkpt><trkpt lat="51.5421452" lon="4.5482592"><ele>8.0</ele><time>2026-04-27T09:45:17.22Z</time></trkpt><trkpt lat="51.5421755" lon="4.5483602"><ele>8.0</ele><time>2026-04-27T09:45:19.235Z</time></trkpt><trkpt lat="51.5422121" lon="4.548484"><ele>7.999999999999999</ele><time>2026-04-27T09:45:21.25Z</time></trkpt><trkpt lat="51.5422568" lon="4.5486172"><ele>8.0</ele><time>2026-04-27T09:45:23.226Z</time></trkpt><trkpt lat="51.5422979" lon="4.5487365"><ele>7.499999999999999</ele><time>2026-04-27T09:45:25.229Z</time></trkpt><trkpt lat="51.5423403" lon="4.5488553"><ele>7.0</ele><time>2026-04-27T09:45:27.229Z</time></trkpt><trkpt lat="51.5423833" lon="4.548967"><ele>6.5</ele><time>2026-04-27T09:45:29.231Z</time></trkpt><trkpt lat="51.5424238" lon="4.5490903"><ele>6.0</ele><time>2026-04-27T09:45:31.231Z</time></trkpt><trkpt lat="51.5424652" lon="4.5492135"><ele>5.5</ele><time>2026-04-27T09:45:33.207Z</time></trkpt><trkpt lat="51.5425093" lon="4.5493582"><ele>5.0</ele><time>2026-04-27T09:45:35.247Z</time></trkpt><trkpt lat="51.5425543" lon="4.5494895"><ele>5.0</ele><time>2026-04-27T09:45:37.198Z</time></trkpt><trkpt lat="51.5426039" lon="4.5496265"><ele>5.0</ele><time>2026-04-27T09:45:39.241Z</time></trkpt><trkpt lat="51.5426491" lon="4.549765"><ele>5.0</ele><time>2026-04-27T09:45:41.237Z</time></trkpt><trkpt lat="51.5427055" lon="4.5499021"><ele>5.0</ele><time>2026-04-27T09:45:43.251Z</time></trkpt><trkpt lat="51.5427542" lon="4.5500425"><ele>5.0</ele><time>2026-04-27T09:45:45.227Z</time></trkpt><trkpt lat="51.542802" lon="4.5501923"><ele>5.0</ele><time>2026-04-27T09:45:47.234Z</time></trkpt><trkpt lat="51.5428497" lon="4.5503347"><ele>5.0</ele><time>2026-04-27T09:45:49.251Z</time></trkpt><trkpt lat="51.5429033" lon="4.5504738"><ele>5.0</ele><time>2026-04-27T09:45:51.223Z</time></trkpt><trkpt lat="51.5429575" lon="4.5506057"><ele>5.0</ele><time>2026-04-27T09:45:53.241Z</time></trkpt><trkpt lat="51.5430079" lon="4.5507553"><ele>5.0</ele><time>2026-04-27T09:45:55.271Z</time></trkpt><trkpt lat="51.5430556" lon="4.5509064"><ele>4.8</ele><time>2026-04-27T09:45:57.257Z</time></trkpt><trkpt lat="51.5431005" lon="4.5510531"><ele>4.6</ele><time>2026-04-27T09:45:59.191Z</time></trkpt><trkpt lat="51.5431563" lon="4.5512071"><ele>4.4</ele><time>2026-04-27T09:46:01.245Z</time></trkpt><trkpt lat="51.543214" lon="4.5513567"><ele>4.2</ele><time>2026-04-27T09:46:03.193Z</time></trkpt><trkpt lat="51.5432689" lon="4.55151"><ele>4.0</ele><time>2026-04-27T09:46:05.237Z</time></trkpt><trkpt lat="51.5433206" lon="4.551665"><ele>4.6</ele><time>2026-04-27T09:46:07.237Z</time></trkpt><trkpt lat="51.5433728" lon="4.551826"><ele>5.2</ele><time>2026-04-27T09:46:09.238Z</time></trkpt><trkpt lat="51.5434289" lon="4.5519726"><ele>5.799999999999999</ele><time>2026-04-27T09:46:11.229Z</time></trkpt><trkpt lat="51.5434853" lon="4.5521222"><ele>6.3999999999999995</ele><time>2026-04-27T09:46:13.233Z</time></trkpt><trkpt lat="51.5435385" lon="4.552265"><ele>7.0</ele><time>2026-04-27T09:46:15.228Z</time></trkpt><trkpt lat="51.5435916" lon="4.5523765"><ele>7.0</ele><time>2026-04-27T09:46:17.23Z</time></trkpt><trkpt lat="51.5436728" lon="4.5524507"><ele>6.999999999999999</ele><time>2026-04-27T09:46:19.199Z</time></trkpt><trkpt lat="51.5437585" lon="4.5525606"><ele>6.999999999999999</ele><time>2026-04-27T09:46:21.256Z</time></trkpt><trkpt lat="51.5438155" lon="4.5527147"><ele>7.0</ele><time>2026-04-27T09:46:23.239Z</time></trkpt><trkpt lat="51.543858" lon="4.5528703"><ele>7.0</ele><time>2026-04-27T09:46:25.231Z</time></trkpt><trkpt lat="51.5438958" lon="4.5530338"><ele>6.8</ele><time>2026-04-27T09:46:27.234Z</time></trkpt><trkpt lat="51.543933" lon="4.5531875"><ele>6.6</ele><time>2026-04-27T09:46:29.212Z</time></trkpt><trkpt lat="51.5439707" lon="4.5533406"><ele>6.3999999999999995</ele><time>2026-04-27T09:46:31.244Z</time></trkpt><trkpt lat="51.5440161" lon="4.5534886"><ele>6.199999999999999</ele><time>2026-04-27T09:46:33.233Z</time></trkpt><trkpt lat="51.5440571" lon="4.5536345"><ele>6.0</ele><time>2026-04-27T09:46:35.234Z</time></trkpt><trkpt lat="51.5440983" lon="4.5537802"><ele>5.6</ele><time>2026-04-27T09:46:37.222Z</time></trkpt><trkpt lat="51.5441441" lon="4.5539308"><ele>5.199999999999999</ele><time>2026-04-27T09:46:39.222Z</time></trkpt><trkpt lat="51.5441914" lon="4.5540786"><ele>4.800000000000001</ele><time>2026-04-27T09:46:41.25Z</time></trkpt><trkpt lat="51.5442336" lon="4.5542197"><ele>4.4</ele><time>2026-04-27T09:46:43.245Z</time></trkpt><trkpt lat="51.5442711" lon="4.5543712"><ele>4.0</ele><time>2026-04-27T09:46:45.241Z</time></trkpt><trkpt lat="51.5443186" lon="4.55453"><ele>4.2</ele><time>2026-04-27T09:46:47.236Z</time></trkpt><trkpt lat="51.5443492" lon="4.5546839"><ele>4.4</ele><time>2026-04-27T09:46:49.232Z</time></trkpt><trkpt lat="51.5443968" lon="4.5548426"><ele>4.6</ele><time>2026-04-27T09:46:51.221Z</time></trkpt><trkpt lat="51.5444398" lon="4.5549993"><ele>4.8</ele><time>2026-04-27T09:46:53.235Z</time></trkpt><trkpt lat="51.5444878" lon="4.5551456"><ele>5.0</ele><time>2026-04-27T09:46:55.188Z</time></trkpt><trkpt lat="51.5445367" lon="4.5552883"><ele>5.0</ele><time>2026-04-27T09:46:57.255Z</time></trkpt><trkpt lat="51.5445793" lon="4.5554222"><ele>5.0</ele><time>2026-04-27T09:46:59.19Z</time></trkpt><trkpt lat="51.5446384" lon="4.5555564"><ele>5.0</ele><time>2026-04-27T09:47:01.231Z</time></trkpt><trkpt lat="51.5446794" lon="4.5556739"><ele>5.0</ele><time>2026-04-27T09:47:03.162Z</time></trkpt><trkpt lat="51.5446776" lon="4.5557767"><ele>5.0</ele><time>2026-04-27T09:47:05.227Z</time></trkpt><trkpt lat="51.5446185" lon="4.5558354"><ele>5.0</ele><time>2026-04-27T09:47:07.228Z</time></trkpt><trkpt lat="51.5445387" lon="4.555855"><ele>5.166666666666667</ele><time>2026-04-27T09:47:09.202Z</time></trkpt><trkpt lat="51.5444703" lon="4.5558862"><ele>5.333333333333334</ele><time>2026-04-27T09:47:11.222Z</time></trkpt><trkpt lat="51.5443795" lon="4.5559314"><ele>5.5</ele><time>2026-04-27T09:47:14.231Z</time></trkpt><trkpt lat="51.544314" lon="4.5559678"><ele>5.666666666666667</ele><time>2026-04-27T09:47:16.244Z</time></trkpt><trkpt lat="51.5442483" lon="4.5559974"><ele>5.833333333333333</ele><time>2026-04-27T09:47:18.262Z</time></trkpt><trkpt lat="51.5441785" lon="4.5560185"><ele>6.0</ele><time>2026-04-27T09:47:20.236Z</time></trkpt><trkpt lat="51.5440888" lon="4.5560563"><ele>6.0</ele><time>2026-04-27T09:47:22.179Z</time></trkpt><trkpt lat="51.5440061" lon="4.5561137"><ele>6.0</ele><time>2026-04-27T09:47:24.258Z</time></trkpt><trkpt lat="51.5439116" lon="4.5561613"><ele>6.0</ele><time>2026-04-27T09:47:26.249Z</time></trkpt><trkpt lat="51.5438161" lon="4.5561959"><ele>6.0</ele><time>2026-04-27T09:47:28.244Z</time></trkpt><trkpt lat="51.5437289" lon="4.5562217"><ele>6.0</ele><time>2026-04-27T09:47:30.25Z</time></trkpt><trkpt lat="51.5436365" lon="4.5562664"><ele>5.8</ele><time>2026-04-27T09:47:32.235Z</time></trkpt><trkpt lat="51.5435437" lon="4.5563218"><ele>5.6</ele><time>2026-04-27T09:47:34.229Z</time></trkpt><trkpt lat="51.5434569" lon="4.5563561"><ele>5.4</ele><time>2026-04-27T09:47:36.2Z</time></trkpt><trkpt lat="51.5433585" lon="4.556392"><ele>5.2</ele><time>2026-04-27T09:47:38.245Z</time></trkpt><trkpt lat="51.5432676" lon="4.5564386"><ele>5.0</ele><time>2026-04-27T09:47:40.213Z</time></trkpt><trkpt lat="51.5431765" lon="4.5565005"><ele>5.0</ele><time>2026-04-27T09:47:42.228Z</time></trkpt><trkpt lat="51.5430786" lon="4.556551"><ele>5.0</ele><time>2026-04-27T09:47:44.24Z</time></trkpt><trkpt lat="51.542981" lon="4.5566"><ele>5.0</ele><time>2026-04-27T09:47:46.255Z</time></trkpt><trkpt lat="51.5428968" lon="4.556648"><ele>5.0</ele><time>2026-04-27T09:47:48.221Z</time></trkpt><trkpt lat="51.542802" lon="4.5566859"><ele>5.0</ele><time>2026-04-27T09:47:50.234Z</time></trkpt><trkpt lat="51.542706" lon="4.5567225"><ele>5.0</ele><time>2026-04-27T09:47:52.242Z</time></trkpt><trkpt lat="51.5426121" lon="4.5567755"><ele>5.0</ele><time>2026-04-27T09:47:54.251Z</time></trkpt><trkpt lat="51.5425186" lon="4.5568108"><ele>5.0</ele><time>2026-04-27T09:47:56.228Z</time></trkpt><trkpt lat="51.542427" lon="4.556854"><ele>5.0</ele><time>2026-04-27T09:47:58.228Z</time></trkpt><trkpt lat="51.5423307" lon="4.5569061"><ele>5.0</ele><time>2026-04-27T09:48:00.253Z</time></trkpt><trkpt lat="51.5422393" lon="4.5569375"><ele>5.0</ele><time>2026-04-27T09:48:02.237Z</time></trkpt><trkpt lat="51.5421511" lon="4.5569782"><ele>5.0</ele><time>2026-04-27T09:48:04.246Z</time></trkpt><trkpt lat="51.5420647" lon="4.5570225"><ele>5.0</ele><time>2026-04-27T09:48:06.246Z</time></trkpt><trkpt lat="51.5419761" lon="4.5570591"><ele>5.0</ele><time>2026-04-27T09:48:08.238Z</time></trkpt><trkpt lat="51.5418893" lon="4.5570939"><ele>5.0</ele><time>2026-04-27T09:48:10.244Z</time></trkpt><trkpt lat="51.5417941" lon="4.5571478"><ele>5.4</ele><time>2026-04-27T09:48:12.227Z</time></trkpt><trkpt lat="51.5417026" lon="4.5571997"><ele>5.8</ele><time>2026-04-27T09:48:14.232Z</time></trkpt><trkpt lat="51.5416184" lon="4.5572308"><ele>6.199999999999999</ele><time>2026-04-27T09:48:16.255Z</time></trkpt><trkpt lat="51.541529" lon="4.5572807"><ele>6.6</ele><time>2026-04-27T09:48:18.251Z</time></trkpt><trkpt lat="51.541441" lon="4.5573223"><ele>7.0</ele><time>2026-04-27T09:48:20.196Z</time></trkpt><trkpt lat="51.5413497" lon="4.5573582"><ele>7.0</ele><time>2026-04-27T09:48:22.232Z</time></trkpt><trkpt lat="51.541255" lon="4.5574082"><ele>6.999999999999999</ele><time>2026-04-27T09:48:24.244Z</time></trkpt><trkpt lat="51.54116" lon="4.5574596"><ele>6.999999999999999</ele><time>2026-04-27T09:48:26.234Z</time></trkpt><trkpt lat="51.5410713" lon="4.5575026"><ele>7.0</ele><time>2026-04-27T09:48:28.235Z</time></trkpt><trkpt lat="51.540979" lon="4.5575389"><ele>7.0</ele><time>2026-04-27T09:48:30.244Z</time></trkpt><trkpt lat="51.5408924" lon="4.5575816"><ele>7.199999999999999</ele><time>2026-04-27T09:48:32.23Z</time></trkpt><trkpt lat="51.5407992" lon="4.5576236"><ele>7.3999999999999995</ele><time>2026-04-27T09:48:34.257Z</time></trkpt><trkpt lat="51.5406994" lon="4.5576666"><ele>7.6000000000000005</ele><time>2026-04-27T09:48:36.229Z</time></trkpt><trkpt lat="51.5406017" lon="4.5577044"><ele>7.800000000000001</ele><time>2026-04-27T09:48:38.203Z</time></trkpt><trkpt lat="51.5405119" lon="4.557749"><ele>8.0</ele><time>2026-04-27T09:48:40.224Z</time></trkpt><trkpt lat="51.5404224" lon="4.5577855"><ele>8.200000000000001</ele><time>2026-04-27T09:48:42.239Z</time></trkpt><trkpt lat="51.5403252" lon="4.5578236"><ele>8.4</ele><time>2026-04-27T09:48:44.232Z</time></trkpt><trkpt lat="51.5402312" lon="4.5578689"><ele>8.600000000000001</ele><time>2026-04-27T09:48:46.236Z</time></trkpt><trkpt lat="51.5401369" lon="4.5579144"><ele>8.8</ele><time>2026-04-27T09:48:48.23Z</time></trkpt><trkpt lat="51.540044" lon="4.5579544"><ele>9.0</ele><time>2026-04-27T09:48:50.238Z</time></trkpt><trkpt lat="51.539948" lon="4.5579992"><ele>9.0</ele><time>2026-04-27T09:48:52.204Z</time></trkpt><trkpt lat="51.5398535" lon="4.5580515"><ele>9.0</ele><time>2026-04-27T09:48:54.241Z</time></trkpt><trkpt lat="51.5397608" lon="4.5580981"><ele>9.0</ele><time>2026-04-27T09:48:56.229Z</time></trkpt><trkpt lat="51.5396672" lon="4.5581372"><ele>9.0</ele><time>2026-04-27T09:48:58.25Z</time></trkpt><trkpt lat="51.5395788" lon="4.55819"><ele>9.0</ele><time>2026-04-27T09:49:00.221Z</time></trkpt><trkpt lat="51.5394922" lon="4.5582349"><ele>9.0</ele><time>2026-04-27T09:49:02.266Z</time></trkpt><trkpt lat="51.5394119" lon="4.5582799"><ele>9.0</ele><time>2026-04-27T09:49:04.233Z</time></trkpt><trkpt lat="51.5393424" lon="4.5583116"><ele>9.0</ele><time>2026-04-27T09:49:06.252Z</time></trkpt><trkpt lat="51.539286" lon="4.5583861"><ele>9.0</ele><time>2026-04-27T09:49:10.231Z</time></trkpt><trkpt lat="51.5393036" lon="4.5585043"><ele>9.0</ele><time>2026-04-27T09:49:13.252Z</time></trkpt><trkpt lat="51.5393316" lon="4.558611"><ele>9.0</ele><time>2026-04-27T09:49:15.235Z</time></trkpt><trkpt lat="51.5393594" lon="4.5587531"><ele>9.2</ele><time>2026-04-27T09:49:17.244Z</time></trkpt><trkpt lat="51.5393964" lon="4.5588802"><ele>9.4</ele><time>2026-04-27T09:49:19.246Z</time></trkpt><trkpt lat="51.539434" lon="4.5589961"><ele>9.6</ele><time>2026-04-27T09:49:21.242Z</time></trkpt><trkpt lat="51.539479" lon="4.5591255"><ele>9.8</ele><time>2026-04-27T09:49:23.26Z</time></trkpt><trkpt lat="51.5395139" lon="4.559267"><ele>10.0</ele><time>2026-04-27T09:49:25.227Z</time></trkpt><trkpt lat="51.539546" lon="4.5594142"><ele>9.6</ele><time>2026-04-27T09:49:27.262Z</time></trkpt><trkpt lat="51.5395875" lon="4.5595464"><ele>9.2</ele><time>2026-04-27T09:49:29.198Z</time></trkpt><trkpt lat="51.5396293" lon="4.5596861"><ele>8.8</ele><time>2026-04-27T09:49:31.234Z</time></trkpt><trkpt lat="51.5396657" lon="4.559829"><ele>8.4</ele><time>2026-04-27T09:49:33.232Z</time></trkpt><trkpt lat="51.5397107" lon="4.5599799"><ele>8.0</ele><time>2026-04-27T09:49:35.222Z</time></trkpt><trkpt lat="51.5397581" lon="4.5601391"><ele>8.0</ele><time>2026-04-27T09:49:37.23Z</time></trkpt><trkpt lat="51.5398041" lon="4.5602903"><ele>8.0</ele><time>2026-04-27T09:49:39.236Z</time></trkpt><trkpt lat="51.5398459" lon="4.5604524"><ele>8.0</ele><time>2026-04-27T09:49:41.231Z</time></trkpt><trkpt lat="51.5398799" lon="4.5606078"><ele>8.0</ele><time>2026-04-27T09:49:43.245Z</time></trkpt><trkpt lat="51.5399142" lon="4.5607566"><ele>8.0</ele><time>2026-04-27T09:49:45.226Z</time></trkpt><trkpt lat="51.5399577" lon="4.5608985"><ele>8.0</ele><time>2026-04-27T09:49:47.23Z</time></trkpt><trkpt lat="51.539998" lon="4.561058"><ele>8.0</ele><time>2026-04-27T09:49:49.227Z</time></trkpt><trkpt lat="51.5400333" lon="4.5612079"><ele>8.0</ele><time>2026-04-27T09:49:51.239Z</time></trkpt><trkpt lat="51.540076" lon="4.5613614"><ele>8.0</ele><time>2026-04-27T09:49:53.251Z</time></trkpt><trkpt lat="51.5401188" lon="4.5614985"><ele>8.0</ele><time>2026-04-27T09:49:55.241Z</time></trkpt><trkpt lat="51.5401627" lon="4.5616421"><ele>8.0</ele><time>2026-04-27T09:49:57.226Z</time></trkpt><trkpt lat="51.5402002" lon="4.5617859"><ele>8.0</ele><time>2026-04-27T09:49:59.214Z</time></trkpt><trkpt lat="51.5402455" lon="4.5619304"><ele>8.0</ele><time>2026-04-27T09:50:01.226Z</time></trkpt><trkpt lat="51.5402946" lon="4.5620666"><ele>8.0</ele><time>2026-04-27T09:50:03.244Z</time></trkpt><trkpt lat="51.540344" lon="4.5622049"><ele>8.0</ele><time>2026-04-27T09:50:05.242Z</time></trkpt><trkpt lat="51.5403886" lon="4.5623473"><ele>8.0</ele><time>2026-04-27T09:50:07.235Z</time></trkpt><trkpt lat="51.5404363" lon="4.5624893"><ele>8.0</ele><time>2026-04-27T09:50:09.227Z</time></trkpt><trkpt lat="51.5404855" lon="4.5626276"><ele>8.0</ele><time>2026-04-27T09:50:11.212Z</time></trkpt><trkpt lat="51.5405296" lon="4.5627645"><ele>8.0</ele><time>2026-04-27T09:50:13.224Z</time></trkpt><trkpt lat="51.5405729" lon="4.5629094"><ele>8.0</ele><time>2026-04-27T09:50:15.227Z</time></trkpt><trkpt lat="51.5406132" lon="4.5630523"><ele>8.0</ele><time>2026-04-27T09:50:17.223Z</time></trkpt><trkpt lat="51.5406638" lon="4.5631946"><ele>8.0</ele><time>2026-04-27T09:50:19.234Z</time></trkpt><trkpt lat="51.540701" lon="4.5633405"><ele>8.0</ele><time>2026-04-27T09:50:21.189Z</time></trkpt><trkpt lat="51.5407551" lon="4.5634798"><ele>8.0</ele><time>2026-04-27T09:50:23.244Z</time></trkpt><trkpt lat="51.5408191" lon="4.5636109"><ele>8.0</ele><time>2026-04-27T09:50:25.235Z</time></trkpt><trkpt lat="51.5408721" lon="4.5637584"><ele>7.800000000000001</ele><time>2026-04-27T09:50:27.242Z</time></trkpt><trkpt lat="51.5409106" lon="4.5639136"><ele>7.6000000000000005</ele><time>2026-04-27T09:50:29.239Z</time></trkpt><trkpt lat="51.5409518" lon="4.5640594"><ele>7.3999999999999995</ele><time>2026-04-27T09:50:31.229Z</time></trkpt><trkpt lat="51.5409997" lon="4.5641924"><ele>7.199999999999999</ele><time>2026-04-27T09:50:33.24Z</time></trkpt><trkpt lat="51.5410491" lon="4.56433"><ele>7.0</ele><time>2026-04-27T09:50:35.233Z</time></trkpt><trkpt lat="51.5410919" lon="4.5644764"><ele>7.199999999999999</ele><time>2026-04-27T09:50:37.224Z</time></trkpt><trkpt lat="51.5411371" lon="4.5646163"><ele>7.3999999999999995</ele><time>2026-04-27T09:50:39.199Z</time></trkpt><trkpt lat="51.5411837" lon="4.5647644"><ele>7.6000000000000005</ele><time>2026-04-27T09:50:41.226Z</time></trkpt><trkpt lat="51.5412234" lon="4.5649269"><ele>7.800000000000001</ele><time>2026-04-27T09:50:43.237Z</time></trkpt><trkpt lat="51.5412597" lon="4.5650789"><ele>8.0</ele><time>2026-04-27T09:50:45.253Z</time></trkpt><trkpt lat="51.5412884" lon="4.5652474"><ele>8.600000000000001</ele><time>2026-04-27T09:50:47.24Z</time></trkpt><trkpt lat="51.5413084" lon="4.565402"><ele>9.200000000000001</ele><time>2026-04-27T09:50:49.246Z</time></trkpt><trkpt lat="51.5413331" lon="4.5655691"><ele>9.8</ele><time>2026-04-27T09:50:51.234Z</time></trkpt><trkpt lat="51.5413498" lon="4.5657279"><ele>10.4</ele><time>2026-04-27T09:50:53.241Z</time></trkpt><trkpt lat="51.5413619" lon="4.5658755"><ele>11.0</ele><time>2026-04-27T09:50:55.245Z</time></trkpt><trkpt lat="51.5413589" lon="4.5660288"><ele>11.0</ele><time>2026-04-27T09:50:57.247Z</time></trkpt><trkpt lat="51.5413641" lon="4.5661746"><ele>11.0</ele><time>2026-04-27T09:50:59.236Z</time></trkpt><trkpt lat="51.5413904" lon="4.5663264"><ele>11.0</ele><time>2026-04-27T09:51:01.22Z</time></trkpt><trkpt lat="51.5414197" lon="4.5664827"><ele>11.0</ele><time>2026-04-27T09:51:03.231Z</time></trkpt><trkpt lat="51.5414508" lon="4.5666439"><ele>11.0</ele><time>2026-04-27T09:51:05.231Z</time></trkpt><trkpt lat="51.5414754" lon="4.5668049"><ele>10.8</ele><time>2026-04-27T09:51:07.223Z</time></trkpt><trkpt lat="51.5415004" lon="4.5669745"><ele>10.600000000000001</ele><time>2026-04-27T09:51:09.238Z</time></trkpt><trkpt lat="51.5415295" lon="4.567143"><ele>10.4</ele><time>2026-04-27T09:51:11.203Z</time></trkpt><trkpt lat="51.5415487" lon="4.5673125"><ele>10.2</ele><time>2026-04-27T09:51:13.218Z</time></trkpt><trkpt lat="51.5415871" lon="4.5674779"><ele>10.0</ele><time>2026-04-27T09:51:15.23Z</time></trkpt><trkpt lat="51.541634" lon="4.5676375"><ele>9.6</ele><time>2026-04-27T09:51:17.253Z</time></trkpt><trkpt lat="51.5416798" lon="4.5677859"><ele>9.2</ele><time>2026-04-27T09:51:19.227Z</time></trkpt><trkpt lat="51.5417399" lon="4.567937"><ele>8.8</ele><time>2026-04-27T09:51:21.238Z</time></trkpt><trkpt lat="51.5417924" lon="4.5680736"><ele>8.4</ele><time>2026-04-27T09:51:23.243Z</time></trkpt><trkpt lat="51.5418523" lon="4.5681934"><ele>8.0</ele><time>2026-04-27T09:51:25.247Z</time></trkpt><trkpt lat="51.5419165" lon="4.5683007"><ele>8.0</ele><time>2026-04-27T09:51:27.245Z</time></trkpt><trkpt lat="51.5419937" lon="4.5684039"><ele>8.0</ele><time>2026-04-27T09:51:29.237Z</time></trkpt><trkpt lat="51.5420577" lon="4.5685215"><ele>8.0</ele><time>2026-04-27T09:51:31.248Z</time></trkpt><trkpt lat="51.5421372" lon="4.5686307"><ele>8.0</ele><time>2026-04-27T09:51:33.199Z</time></trkpt><trkpt lat="51.5422238" lon="4.5687332"><ele>8.0</ele><time>2026-04-27T09:51:35.237Z</time></trkpt><trkpt lat="51.5422996" lon="4.568853"><ele>7.800000000000001</ele><time>2026-04-27T09:51:37.22Z</time></trkpt><trkpt lat="51.5423656" lon="4.5689737"><ele>7.6000000000000005</ele><time>2026-04-27T09:51:39.224Z</time></trkpt><trkpt lat="51.5424331" lon="4.5690944"><ele>7.3999999999999995</ele><time>2026-04-27T09:51:41.226Z</time></trkpt><trkpt lat="51.5425075" lon="4.569227"><ele>7.199999999999999</ele><time>2026-04-27T09:51:43.219Z</time></trkpt><trkpt lat="51.542569" lon="4.5693549"><ele>7.0</ele><time>2026-04-27T09:51:45.242Z</time></trkpt><trkpt lat="51.5426206" lon="4.5694925"><ele>7.0</ele><time>2026-04-27T09:51:47.183Z</time></trkpt><trkpt lat="51.5426807" lon="4.5696388"><ele>6.999999999999999</ele><time>2026-04-27T09:51:49.226Z</time></trkpt><trkpt lat="51.5427329" lon="4.5697839"><ele>6.999999999999999</ele><time>2026-04-27T09:51:51.241Z</time></trkpt><trkpt lat="51.5427887" lon="4.569925"><ele>7.0</ele><time>2026-04-27T09:51:53.245Z</time></trkpt><trkpt lat="51.5428497" lon="4.5700725"><ele>7.0</ele><time>2026-04-27T09:51:55.23Z</time></trkpt><trkpt lat="51.5429022" lon="4.5702257"><ele>7.199999999999999</ele><time>2026-04-27T09:51:57.23Z</time></trkpt><trkpt lat="51.5429478" lon="4.5703677"><ele>7.3999999999999995</ele><time>2026-04-27T09:51:59.244Z</time></trkpt><trkpt lat="51.5429998" lon="4.5705042"><ele>7.6000000000000005</ele><time>2026-04-27T09:52:01.23Z</time></trkpt><trkpt lat="51.5430504" lon="4.5706379"><ele>7.800000000000001</ele><time>2026-04-27T09:52:03.236Z</time></trkpt><trkpt lat="51.5431016" lon="4.5707831"><ele>8.0</ele><time>2026-04-27T09:52:05.244Z</time></trkpt><trkpt lat="51.5431465" lon="4.5709217"><ele>8.0</ele><time>2026-04-27T09:52:07.208Z</time></trkpt><trkpt lat="51.5431919" lon="4.5710556"><ele>8.0</ele><time>2026-04-27T09:52:09.242Z</time></trkpt><trkpt lat="51.5432462" lon="4.5711866"><ele>8.0</ele><time>2026-04-27T09:52:11.224Z</time></trkpt><trkpt lat="51.5432947" lon="4.5713185"><ele>8.0</ele><time>2026-04-27T09:52:13.23Z</time></trkpt><trkpt lat="51.5433541" lon="4.5714563"><ele>8.0</ele><time>2026-04-27T09:52:15.205Z</time></trkpt><trkpt lat="51.5434193" lon="4.5715881"><ele>7.6000000000000005</ele><time>2026-04-27T09:52:17.235Z</time></trkpt><trkpt lat="51.5434816" lon="4.5717234"><ele>7.200000000000001</ele><time>2026-04-27T09:52:19.245Z</time></trkpt><trkpt lat="51.5435443" lon="4.5718497"><ele>6.8</ele><time>2026-04-27T09:52:21.231Z</time></trkpt><trkpt lat="51.5436055" lon="4.5719801"><ele>6.4</ele><time>2026-04-27T09:52:23.212Z</time></trkpt><trkpt lat="51.5436665" lon="4.572123"><ele>6.0</ele><time>2026-04-27T09:52:25.234Z</time></trkpt><trkpt lat="51.54372" lon="4.5722769"><ele>5.8</ele><time>2026-04-27T09:52:27.201Z</time></trkpt><trkpt lat="51.543771" lon="4.5724216"><ele>5.6</ele><time>2026-04-27T09:52:29.232Z</time></trkpt><trkpt lat="51.5438234" lon="4.5725539"><ele>5.4</ele><time>2026-04-27T09:52:31.236Z</time></trkpt><trkpt lat="51.5438723" lon="4.5726841"><ele>5.2</ele><time>2026-04-27T09:52:33.231Z</time></trkpt><trkpt lat="51.5439216" lon="4.5728179"><ele>5.0</ele><time>2026-04-27T09:52:35.244Z</time></trkpt><trkpt lat="51.5439824" lon="4.5729552"><ele>5.0</ele><time>2026-04-27T09:52:37.229Z</time></trkpt><trkpt lat="51.5440416" lon="4.5730932"><ele>5.0</ele><time>2026-04-27T09:52:39.222Z</time></trkpt><trkpt lat="51.5440975" lon="4.5732322"><ele>5.0</ele><time>2026-04-27T09:52:41.207Z</time></trkpt><trkpt lat="51.5441512" lon="4.5733655"><ele>5.0</ele><time>2026-04-27T09:52:43.25Z</time></trkpt><trkpt lat="51.5442078" lon="4.5734925"><ele>5.0</ele><time>2026-04-27T09:52:45.233Z</time></trkpt><trkpt lat="51.5442646" lon="4.573625"><ele>5.2</ele><time>2026-04-27T09:52:47.232Z</time></trkpt><trkpt lat="51.54432" lon="4.5737567"><ele>5.4</ele><time>2026-04-27T09:52:49.222Z</time></trkpt><trkpt lat="51.544375" lon="4.5738813"><ele>5.6</ele><time>2026-04-27T09:52:51.209Z</time></trkpt><trkpt lat="51.5444267" lon="4.5739956"><ele>5.8</ele><time>2026-04-27T09:52:53.235Z</time></trkpt><trkpt lat="51.5444873" lon="4.5741038"><ele>6.0</ele><time>2026-04-27T09:52:55.235Z</time></trkpt><trkpt lat="51.5445522" lon="4.5742149"><ele>6.4</ele><time>2026-04-27T09:52:57.252Z</time></trkpt><trkpt lat="51.544622" lon="4.5743266"><ele>6.8</ele><time>2026-04-27T09:52:59.245Z</time></trkpt><trkpt lat="51.544691" lon="4.5744396"><ele>7.200000000000001</ele><time>2026-04-27T09:53:01.225Z</time></trkpt><trkpt lat="51.5447661" lon="4.5745509"><ele>7.6000000000000005</ele><time>2026-04-27T09:53:03.241Z</time></trkpt><trkpt lat="51.5448371" lon="4.5746718"><ele>8.0</ele><time>2026-04-27T09:53:05.231Z</time></trkpt><trkpt lat="51.5449114" lon="4.5747833"><ele>8.0</ele><time>2026-04-27T09:53:07.234Z</time></trkpt><trkpt lat="51.5449844" lon="4.5749102"><ele>8.0</ele><time>2026-04-27T09:53:09.255Z</time></trkpt><trkpt lat="51.5450421" lon="4.5750263"><ele>8.0</ele><time>2026-04-27T09:53:11.223Z</time></trkpt><trkpt lat="51.5451188" lon="4.5751341"><ele>8.0</ele><time>2026-04-27T09:53:13.237Z</time></trkpt><trkpt lat="51.5451995" lon="4.5752442"><ele>8.0</ele><time>2026-04-27T09:53:15.244Z</time></trkpt><trkpt lat="51.5452695" lon="4.5753595"><ele>8.0</ele><time>2026-04-27T09:53:17.216Z</time></trkpt><trkpt lat="51.5453363" lon="4.5754772"><ele>8.0</ele><time>2026-04-27T09:53:19.235Z</time></trkpt><trkpt lat="51.5453985" lon="4.5755975"><ele>8.0</ele><time>2026-04-27T09:53:21.228Z</time></trkpt><trkpt lat="51.545453" lon="4.5757227"><ele>8.0</ele><time>2026-04-27T09:53:23.227Z</time></trkpt><trkpt lat="51.5455121" lon="4.5758481"><ele>8.0</ele><time>2026-04-27T09:53:25.249Z</time></trkpt><trkpt lat="51.5455659" lon="4.5759668"><ele>8.200000000000001</ele><time>2026-04-27T09:53:27.223Z</time></trkpt><trkpt lat="51.5456223" lon="4.5760903"><ele>8.4</ele><time>2026-04-27T09:53:29.269Z</time></trkpt><trkpt lat="51.5456746" lon="4.5762257"><ele>8.600000000000001</ele><time>2026-04-27T09:53:31.258Z</time></trkpt><trkpt lat="51.5457307" lon="4.5763493"><ele>8.8</ele><time>2026-04-27T09:53:33.245Z</time></trkpt><trkpt lat="51.5457769" lon="4.576479"><ele>9.0</ele><time>2026-04-27T09:53:35.242Z</time></trkpt><trkpt lat="51.5458342" lon="4.5766038"><ele>9.0</ele><time>2026-04-27T09:53:37.193Z</time></trkpt><trkpt lat="51.5458936" lon="4.5767366"><ele>9.0</ele><time>2026-04-27T09:53:39.241Z</time></trkpt><trkpt lat="51.5459503" lon="4.5768604"><ele>9.0</ele><time>2026-04-27T09:53:41.247Z</time></trkpt><trkpt lat="51.5460096" lon="4.5769945"><ele>9.0</ele><time>2026-04-27T09:53:43.236Z</time></trkpt><trkpt lat="51.546071" lon="4.5771174"><ele>9.0</ele><time>2026-04-27T09:53:45.24Z</time></trkpt><trkpt lat="51.5461274" lon="4.577236"><ele>9.0</ele><time>2026-04-27T09:53:47.233Z</time></trkpt><trkpt lat="51.5461752" lon="4.5773649"><ele>9.0</ele><time>2026-04-27T09:53:49.225Z</time></trkpt><trkpt lat="51.5462346" lon="4.5774867"><ele>9.0</ele><time>2026-04-27T09:53:51.234Z</time></trkpt><trkpt lat="51.5462907" lon="4.5776086"><ele>9.0</ele><time>2026-04-27T09:53:53.229Z</time></trkpt><trkpt lat="51.5463398" lon="4.577731"><ele>9.0</ele><time>2026-04-27T09:53:55.229Z</time></trkpt><trkpt lat="51.5463966" lon="4.5778501"><ele>9.0</ele><time>2026-04-27T09:53:57.243Z</time></trkpt><trkpt lat="51.5464458" lon="4.5779805"><ele>9.0</ele><time>2026-04-27T09:53:59.232Z</time></trkpt><trkpt lat="51.5464926" lon="4.5781095"><ele>9.0</ele><time>2026-04-27T09:54:01.258Z</time></trkpt><trkpt lat="51.5465391" lon="4.5782401"><ele>9.0</ele><time>2026-04-27T09:54:03.257Z</time></trkpt><trkpt lat="51.5465913" lon="4.5783727"><ele>9.0</ele><time>2026-04-27T09:54:05.246Z</time></trkpt><trkpt lat="51.5466466" lon="4.5785065"><ele>9.0</ele><time>2026-04-27T09:54:07.239Z</time></trkpt><trkpt lat="51.5467036" lon="4.5786434"><ele>9.0</ele><time>2026-04-27T09:54:09.23Z</time></trkpt><trkpt lat="51.5467554" lon="4.5787801"><ele>9.0</ele><time>2026-04-27T09:54:11.241Z</time></trkpt><trkpt lat="51.5468015" lon="4.5789138"><ele>9.0</ele><time>2026-04-27T09:54:13.231Z</time></trkpt><trkpt lat="51.5468427" lon="4.579049"><ele>9.0</ele><time>2026-04-27T09:54:15.236Z</time></trkpt><trkpt lat="51.5468911" lon="4.579178"><ele>9.0</ele><time>2026-04-27T09:54:17.241Z</time></trkpt><trkpt lat="51.546923" lon="4.579314"><ele>9.0</ele><time>2026-04-27T09:54:19.22Z</time></trkpt><trkpt lat="51.546957" lon="4.5794407"><ele>9.0</ele><time>2026-04-27T09:54:21.171Z</time></trkpt><trkpt lat="51.5470083" lon="4.5795686"><ele>9.0</ele><time>2026-04-27T09:54:23.223Z</time></trkpt><trkpt lat="51.5470718" lon="4.5796856"><ele>9.0</ele><time>2026-04-27T09:54:25.228Z</time></trkpt><trkpt lat="51.5471196" lon="4.5798018"><ele>9.0</ele><time>2026-04-27T09:54:27.233Z</time></trkpt><trkpt lat="51.5471677" lon="4.5799126"><ele>9.0</ele><time>2026-04-27T09:54:29.232Z</time></trkpt><trkpt lat="51.5472049" lon="4.5800323"><ele>9.0</ele><time>2026-04-27T09:54:31.189Z</time></trkpt><trkpt lat="51.5472437" lon="4.5801607"><ele>9.0</ele><time>2026-04-27T09:54:33.234Z</time></trkpt><trkpt lat="51.5472746" lon="4.5802661"><ele>9.0</ele><time>2026-04-27T09:54:35.235Z</time></trkpt><trkpt lat="51.5473166" lon="4.580386"><ele>9.0</ele><time>2026-04-27T09:54:38.214Z</time></trkpt><trkpt lat="51.5473745" lon="4.5804284"><ele>9.0</ele><time>2026-04-27T09:54:42.247Z</time></trkpt><trkpt lat="51.5474357" lon="4.5804903"><ele>9.0</ele><time>2026-04-27T09:56:34.182Z</time></trkpt><trkpt lat="51.5475249" lon="4.5805352"><ele>9.0</ele><time>2026-04-27T09:56:38.22Z</time></trkpt><trkpt lat="51.5475907" lon="4.5805356"><ele>9.0</ele><time>2026-04-27T09:56:40.224Z</time></trkpt><trkpt lat="51.5476776" lon="4.5805413"><ele>9.0</ele><time>2026-04-27T09:56:43.17Z</time></trkpt><trkpt lat="51.5477771" lon="4.5805507"><ele>9.0</ele><time>2026-04-27T09:56:46.224Z</time></trkpt><trkpt lat="51.5478576" lon="4.5805548"><ele>8.833333333333334</ele><time>2026-04-27T09:56:48.246Z</time></trkpt><trkpt lat="51.5479243" lon="4.5805827"><ele>8.666666666666666</ele><time>2026-04-27T09:56:50.222Z</time></trkpt><trkpt lat="51.5480064" lon="4.5806068"><ele>8.5</ele><time>2026-04-27T09:56:52.193Z</time></trkpt><trkpt lat="51.5480805" lon="4.5806284"><ele>8.333333333333332</ele><time>2026-04-27T09:56:54.216Z</time></trkpt><trkpt lat="51.5481637" lon="4.5806418"><ele>8.166666666666666</ele><time>2026-04-27T09:56:56.226Z</time></trkpt><trkpt lat="51.548246" lon="4.58067"><ele>8.0</ele><time>2026-04-27T09:56:58.218Z</time></trkpt><trkpt lat="51.5483314" lon="4.5807103"><ele>7.999999999999999</ele><time>2026-04-27T09:57:00.176Z</time></trkpt><trkpt lat="51.5484256" lon="4.5807349"><ele>8.0</ele><time>2026-04-27T09:57:02.184Z</time></trkpt><trkpt lat="51.5485115" lon="4.5807462"><ele>8.0</ele><time>2026-04-27T09:57:04.229Z</time></trkpt><trkpt lat="51.5486025" lon="4.5807649"><ele>8.0</ele><time>2026-04-27T09:57:06.22Z</time></trkpt><trkpt lat="51.5486824" lon="4.5807697"><ele>7.999999999999999</ele><time>2026-04-27T09:57:08.226Z</time></trkpt><trkpt lat="51.5487483" lon="4.5807717"><ele>8.0</ele><time>2026-04-27T09:57:10.23Z</time></trkpt><trkpt lat="51.5488141" lon="4.580766"><ele>7.999999999999999</ele><time>2026-04-27T09:57:12.22Z</time></trkpt><trkpt lat="51.548886" lon="4.5807514"><ele>8.0</ele><time>2026-04-27T09:57:14.248Z</time></trkpt><trkpt lat="51.5489626" lon="4.5807409"><ele>8.0</ele><time>2026-04-27T09:57:16.233Z</time></trkpt><trkpt lat="51.5490394" lon="4.5807254"><ele>8.0</ele><time>2026-04-27T09:57:18.219Z</time></trkpt><trkpt lat="51.549113" lon="4.5807078"><ele>7.999999999999999</ele><time>2026-04-27T09:57:20.226Z</time></trkpt><trkpt lat="51.549203" lon="4.580696"><ele>8.0</ele><time>2026-04-27T09:57:22.225Z</time></trkpt><trkpt lat="51.5492913" lon="4.580666"><ele>8.0</ele><time>2026-04-27T09:57:24.221Z</time></trkpt><trkpt lat="51.5493828" lon="4.5806626"><ele>8.0</ele><time>2026-04-27T09:57:26.231Z</time></trkpt><trkpt lat="51.5494819" lon="4.5806519"><ele>8.0</ele><time>2026-04-27T09:57:28.234Z</time></trkpt><trkpt lat="51.5495792" lon="4.5806506"><ele>8.0</ele><time>2026-04-27T09:57:30.223Z</time></trkpt><trkpt lat="51.5496716" lon="4.5806541"><ele>8.0</ele><time>2026-04-27T09:57:32.228Z</time></trkpt><trkpt lat="51.5497649" lon="4.5806642"><ele>8.0</ele><time>2026-04-27T09:57:34.236Z</time></trkpt><trkpt lat="51.5498618" lon="4.5806674"><ele>8.0</ele><time>2026-04-27T09:57:36.246Z</time></trkpt><trkpt lat="51.5499472" lon="4.5806961"><ele>8.0</ele><time>2026-04-27T09:57:38.206Z</time></trkpt><trkpt lat="51.5500372" lon="4.5807031"><ele>8.0</ele><time>2026-04-27T09:57:40.232Z</time></trkpt><trkpt lat="51.5501365" lon="4.5807022"><ele>8.0</ele><time>2026-04-27T09:57:42.2Z</time></trkpt><trkpt lat="51.550229" lon="4.5807017"><ele>8.0</ele><time>2026-04-27T09:57:44.231Z</time></trkpt><trkpt lat="51.5503223" lon="4.5807123"><ele>8.0</ele><time>2026-04-27T09:57:46.238Z</time></trkpt><trkpt lat="51.5504145" lon="4.580717"><ele>8.0</ele><time>2026-04-27T09:57:48.216Z</time></trkpt><trkpt lat="51.5505037" lon="4.5807244"><ele>8.0</ele><time>2026-04-27T09:57:50.208Z</time></trkpt><trkpt lat="51.5505963" lon="4.5807356"><ele>8.0</ele><time>2026-04-27T09:57:52.218Z</time></trkpt><trkpt lat="51.5506927" lon="4.5807367"><ele>7.800000000000001</ele><time>2026-04-27T09:57:54.242Z</time></trkpt><trkpt lat="51.5507874" lon="4.5807349"><ele>7.6000000000000005</ele><time>2026-04-27T09:57:56.235Z</time></trkpt><trkpt lat="51.5508842" lon="4.5807362"><ele>7.3999999999999995</ele><time>2026-04-27T09:57:58.214Z</time></trkpt><trkpt lat="51.5509795" lon="4.5807516"><ele>7.199999999999999</ele><time>2026-04-27T09:58:00.254Z</time></trkpt><trkpt lat="51.5510747" lon="4.5807702"><ele>7.0</ele><time>2026-04-27T09:58:02.167Z</time></trkpt><trkpt lat="51.5511682" lon="4.5807738"><ele>7.3999999999999995</ele><time>2026-04-27T09:58:04.239Z</time></trkpt><trkpt lat="51.5512656" lon="4.5807652"><ele>7.799999999999999</ele><time>2026-04-27T09:58:06.238Z</time></trkpt><trkpt lat="51.5513671" lon="4.580772"><ele>8.2</ele><time>2026-04-27T09:58:08.223Z</time></trkpt><trkpt lat="51.5514554" lon="4.5807818"><ele>8.6</ele><time>2026-04-27T09:58:10.226Z</time></trkpt><trkpt lat="51.551551" lon="4.5807791"><ele>9.0</ele><time>2026-04-27T09:58:12.245Z</time></trkpt><trkpt lat="51.5516489" lon="4.5807762"><ele>9.0</ele><time>2026-04-27T09:58:14.229Z</time></trkpt><trkpt lat="51.551751" lon="4.58078"><ele>9.0</ele><time>2026-04-27T09:58:16.234Z</time></trkpt><trkpt lat="51.5518438" lon="4.5807862"><ele>9.0</ele><time>2026-04-27T09:58:18.233Z</time></trkpt><trkpt lat="51.5519431" lon="4.5807973"><ele>9.0</ele><time>2026-04-27T09:58:20.236Z</time></trkpt><trkpt lat="51.5520399" lon="4.5807954"><ele>9.0</ele><time>2026-04-27T09:58:22.185Z</time></trkpt><trkpt lat="51.5521405" lon="4.5808005"><ele>9.2</ele><time>2026-04-27T09:58:24.194Z</time></trkpt><trkpt lat="51.5522415" lon="4.5808176"><ele>9.4</ele><time>2026-04-27T09:58:26.237Z</time></trkpt><trkpt lat="51.5523367" lon="4.5808278"><ele>9.6</ele><time>2026-04-27T09:58:28.236Z</time></trkpt><trkpt lat="51.5524351" lon="4.5808341"><ele>9.8</ele><time>2026-04-27T09:58:30.237Z</time></trkpt><trkpt lat="51.5525322" lon="4.5808283"><ele>10.0</ele><time>2026-04-27T09:58:32.234Z</time></trkpt><trkpt lat="51.5526325" lon="4.5808306"><ele>10.0</ele><time>2026-04-27T09:58:34.231Z</time></trkpt><trkpt lat="51.5527295" lon="4.5808385"><ele>10.0</ele><time>2026-04-27T09:58:36.216Z</time></trkpt><trkpt lat="51.5528265" lon="4.5808461"><ele>10.0</ele><time>2026-04-27T09:58:38.2Z</time></trkpt><trkpt lat="51.5529222" lon="4.580853"><ele>10.0</ele><time>2026-04-27T09:58:40.236Z</time></trkpt><trkpt lat="51.5530179" lon="4.580861"><ele>10.0</ele><time>2026-04-27T09:58:42.237Z</time></trkpt><trkpt lat="51.5531121" lon="4.5808587"><ele>9.6</ele><time>2026-04-27T09:58:44.231Z</time></trkpt><trkpt lat="51.5532101" lon="4.5808604"><ele>9.2</ele><time>2026-04-27T09:58:46.24Z</time></trkpt><trkpt lat="51.553313" lon="4.5808644"><ele>8.8</ele><time>2026-04-27T09:58:48.229Z</time></trkpt><trkpt lat="51.5534092" lon="4.5808693"><ele>8.4</ele><time>2026-04-27T09:58:50.251Z</time></trkpt><trkpt lat="51.5535103" lon="4.5808688"><ele>8.0</ele><time>2026-04-27T09:58:52.259Z</time></trkpt><trkpt lat="51.5536046" lon="4.5808692"><ele>7.999999999999999</ele><time>2026-04-27T09:58:54.231Z</time></trkpt><trkpt lat="51.5537037" lon="4.5808603"><ele>8.0</ele><time>2026-04-27T09:58:56.237Z</time></trkpt><trkpt lat="51.5537959" lon="4.5808681"><ele>8.0</ele><time>2026-04-27T09:58:58.252Z</time></trkpt><trkpt lat="51.5538726" lon="4.5808606"><ele>8.0</ele><time>2026-04-27T09:59:00.241Z</time></trkpt><trkpt lat="51.5539624" lon="4.5808799"><ele>7.999999999999999</ele><time>2026-04-27T09:59:02.199Z</time></trkpt><trkpt lat="51.5540391" lon="4.5809494"><ele>8.0</ele><time>2026-04-27T09:59:04.223Z</time></trkpt><trkpt lat="51.5540981" lon="4.5810631"><ele>7.6000000000000005</ele><time>2026-04-27T09:59:06.225Z</time></trkpt><trkpt lat="51.5541452" lon="4.5811875"><ele>7.200000000000001</ele><time>2026-04-27T09:59:08.221Z</time></trkpt><trkpt lat="51.5541897" lon="4.5813227"><ele>6.8</ele><time>2026-04-27T09:59:10.221Z</time></trkpt><trkpt lat="51.5542437" lon="4.5814504"><ele>6.4</ele><time>2026-04-27T09:59:12.23Z</time></trkpt><trkpt lat="51.5542872" lon="4.5815797"><ele>6.0</ele><time>2026-04-27T09:59:14.231Z</time></trkpt><trkpt lat="51.5543354" lon="4.5817074"><ele>6.0</ele><time>2026-04-27T09:59:16.239Z</time></trkpt><trkpt lat="51.554387" lon="4.581832"><ele>6.0</ele><time>2026-04-27T09:59:18.263Z</time></trkpt><trkpt lat="51.5544407" lon="4.5819682"><ele>6.0</ele><time>2026-04-27T09:59:20.232Z</time></trkpt><trkpt lat="51.5544925" lon="4.5820932"><ele>6.0</ele><time>2026-04-27T09:59:22.203Z</time></trkpt><trkpt lat="51.5545368" lon="4.5822206"><ele>6.0</ele><time>2026-04-27T09:59:24.259Z</time></trkpt><trkpt lat="51.5545825" lon="4.5823425"><ele>6.0</ele><time>2026-04-27T09:59:26.235Z</time></trkpt><trkpt lat="51.554637" lon="4.582471"><ele>6.0</ele><time>2026-04-27T09:59:28.23Z</time></trkpt><trkpt lat="51.5546943" lon="4.5826051"><ele>6.0</ele><time>2026-04-27T09:59:30.21Z</time></trkpt><trkpt lat="51.554743" lon="4.5827226"><ele>6.0</ele><time>2026-04-27T09:59:32.245Z</time></trkpt><trkpt lat="51.5547982" lon="4.5828378"><ele>6.0</ele><time>2026-04-27T09:59:34.229Z</time></trkpt><trkpt lat="51.5548528" lon="4.5829693"><ele>6.199999999999999</ele><time>2026-04-27T09:59:36.238Z</time></trkpt><trkpt lat="51.5549054" lon="4.5830994"><ele>6.3999999999999995</ele><time>2026-04-27T09:59:38.225Z</time></trkpt><trkpt lat="51.5549549" lon="4.583226"><ele>6.6</ele><time>2026-04-27T09:59:40.216Z</time></trkpt><trkpt lat="51.5550081" lon="4.5833546"><ele>6.8</ele><time>2026-04-27T09:59:42.227Z</time></trkpt><trkpt lat="51.555055" lon="4.5834739"><ele>7.0</ele><time>2026-04-27T09:59:44.241Z</time></trkpt><trkpt lat="51.5550997" lon="4.5835914"><ele>7.166666666666667</ele><time>2026-04-27T09:59:46.219Z</time></trkpt><trkpt lat="51.5551461" lon="4.5837047"><ele>7.333333333333334</ele><time>2026-04-27T09:59:48.227Z</time></trkpt><trkpt lat="51.5551553" lon="4.5838456"><ele>7.5</ele><time>2026-04-27T09:59:50.231Z</time></trkpt><trkpt lat="51.5551554" lon="4.5839734"><ele>7.666666666666666</ele><time>2026-04-27T09:59:52.227Z</time></trkpt><trkpt lat="51.5551273" lon="4.5840793"><ele>7.833333333333333</ele><time>2026-04-27T09:59:54.229Z</time></trkpt><trkpt lat="51.5551558" lon="4.5842292"><ele>8.0</ele><time>2026-04-27T09:59:57.23Z</time></trkpt><trkpt lat="51.5552006" lon="4.5843006"><ele>8.0</ele><time>2026-04-27T09:59:59.203Z</time></trkpt><trkpt lat="51.5553201" lon="4.5842892"><ele>8.0</ele><time>2026-04-27T10:00:02.235Z</time></trkpt><trkpt lat="51.5554138" lon="4.5843222"><ele>8.0</ele><time>2026-04-27T10:00:04.237Z</time></trkpt><trkpt lat="51.5554665" lon="4.5844354"><ele>8.0</ele><time>2026-04-27T10:00:06.238Z</time></trkpt><trkpt lat="51.5555112" lon="4.5845576"><ele>8.0</ele><time>2026-04-27T10:00:08.26Z</time></trkpt><trkpt lat="51.5555549" lon="4.5846964"><ele>8.0</ele><time>2026-04-27T10:00:10.227Z</time></trkpt><trkpt lat="51.5555933" lon="4.5848191"><ele>8.0</ele><time>2026-04-27T10:00:12.233Z</time></trkpt><trkpt lat="51.5556388" lon="4.5849574"><ele>8.0</ele><time>2026-04-27T10:00:14.215Z</time></trkpt><trkpt lat="51.555688" lon="4.5850835"><ele>8.0</ele><time>2026-04-27T10:00:16.241Z</time></trkpt><trkpt lat="51.5557381" lon="4.5852238"><ele>8.0</ele><time>2026-04-27T10:00:18.244Z</time></trkpt><trkpt lat="51.5557922" lon="4.585349"><ele>8.0</ele><time>2026-04-27T10:00:20.18Z</time></trkpt><trkpt lat="51.5558544" lon="4.5854723"><ele>8.0</ele><time>2026-04-27T10:00:22.225Z</time></trkpt><trkpt lat="51.555906" lon="4.5856051"><ele>8.0</ele><time>2026-04-27T10:00:24.186Z</time></trkpt><trkpt lat="51.5559549" lon="4.5857398"><ele>8.0</ele><time>2026-04-27T10:00:26.24Z</time></trkpt><trkpt lat="51.5560047" lon="4.5858707"><ele>8.0</ele><time>2026-04-27T10:00:28.247Z</time></trkpt><trkpt lat="51.5560637" lon="4.5859821"><ele>8.0</ele><time>2026-04-27T10:00:30.242Z</time></trkpt><trkpt lat="51.5561134" lon="4.5861032"><ele>8.0</ele><time>2026-04-27T10:00:32.253Z</time></trkpt><trkpt lat="51.5561754" lon="4.5862278"><ele>8.0</ele><time>2026-04-27T10:00:34.245Z</time></trkpt><trkpt lat="51.5562248" lon="4.5863573"><ele>8.0</ele><time>2026-04-27T10:00:36.226Z</time></trkpt><trkpt lat="51.5562677" lon="4.586488"><ele>8.0</ele><time>2026-04-27T10:00:38.23Z</time></trkpt><trkpt lat="51.5563157" lon="4.5866168"><ele>7.800000000000001</ele><time>2026-04-27T10:00:40.239Z</time></trkpt><trkpt lat="51.5563673" lon="4.586747"><ele>7.6000000000000005</ele><time>2026-04-27T10:00:42.244Z</time></trkpt><trkpt lat="51.5564268" lon="4.5868722"><ele>7.3999999999999995</ele><time>2026-04-27T10:00:44.241Z</time></trkpt><trkpt lat="51.5564752" lon="4.5869952"><ele>7.199999999999999</ele><time>2026-04-27T10:00:46.222Z</time></trkpt><trkpt lat="51.5565282" lon="4.5871125"><ele>7.0</ele><time>2026-04-27T10:00:48.238Z</time></trkpt><trkpt lat="51.5565814" lon="4.5872402"><ele>7.000000000000001</ele><time>2026-04-27T10:00:50.218Z</time></trkpt><trkpt lat="51.5566224" lon="4.5873475"><ele>7.0</ele><time>2026-04-27T10:00:52.216Z</time></trkpt><trkpt lat="51.5566651" lon="4.5874745"><ele>7.0</ele><time>2026-04-27T10:00:54.241Z</time></trkpt><trkpt lat="51.5567073" lon="4.5875949"><ele>7.0</ele><time>2026-04-27T10:00:56.235Z</time></trkpt><trkpt lat="51.5567517" lon="4.5877222"><ele>7.000000000000001</ele><time>2026-04-27T10:00:58.234Z</time></trkpt><trkpt lat="51.5568044" lon="4.5878496"><ele>7.0</ele><time>2026-04-27T10:01:00.24Z</time></trkpt><trkpt lat="51.5568607" lon="4.5879779"><ele>7.0</ele><time>2026-04-27T10:01:02.238Z</time></trkpt><trkpt lat="51.5569131" lon="4.5880988"><ele>6.999999999999999</ele><time>2026-04-27T10:01:04.239Z</time></trkpt><trkpt lat="51.5569622" lon="4.5882116"><ele>6.999999999999999</ele><time>2026-04-27T10:01:06.194Z</time></trkpt><trkpt lat="51.5570066" lon="4.5883385"><ele>7.0</ele><time>2026-04-27T10:01:08.263Z</time></trkpt><trkpt lat="51.5570508" lon="4.5884705"><ele>7.0</ele><time>2026-04-27T10:01:10.232Z</time></trkpt><trkpt lat="51.5570982" lon="4.5886024"><ele>7.199999999999999</ele><time>2026-04-27T10:01:12.247Z</time></trkpt><trkpt lat="51.5571496" lon="4.5887486"><ele>7.3999999999999995</ele><time>2026-04-27T10:01:14.225Z</time></trkpt><trkpt lat="51.5571959" lon="4.588883"><ele>7.6000000000000005</ele><time>2026-04-27T10:01:16.208Z</time></trkpt><trkpt lat="51.5572518" lon="4.5890075"><ele>7.800000000000001</ele><time>2026-04-27T10:01:18.23Z</time></trkpt><trkpt lat="51.557304" lon="4.5891393"><ele>8.0</ele><time>2026-04-27T10:01:20.181Z</time></trkpt><trkpt lat="51.5573558" lon="4.5892763"><ele>8.0</ele><time>2026-04-27T10:01:22.232Z</time></trkpt><trkpt lat="51.5574068" lon="4.5894075"><ele>8.0</ele><time>2026-04-27T10:01:24.239Z</time></trkpt><trkpt lat="51.5574521" lon="4.5895287"><ele>8.0</ele><time>2026-04-27T10:01:26.259Z</time></trkpt><trkpt lat="51.5574897" lon="4.5896566"><ele>8.0</ele><time>2026-04-27T10:01:28.213Z</time></trkpt><trkpt lat="51.5575355" lon="4.5897756"><ele>8.0</ele><time>2026-04-27T10:01:30.22Z</time></trkpt><trkpt lat="51.5575803" lon="4.589903"><ele>7.999999999999999</ele><time>2026-04-27T10:01:32.254Z</time></trkpt><trkpt lat="51.5576212" lon="4.5900308"><ele>8.0</ele><time>2026-04-27T10:01:34.219Z</time></trkpt><trkpt lat="51.5576651" lon="4.5901419"><ele>8.0</ele><time>2026-04-27T10:01:36.231Z</time></trkpt><trkpt lat="51.5577093" lon="4.5902629"><ele>8.0</ele><time>2026-04-27T10:01:38.251Z</time></trkpt><trkpt lat="51.5577336" lon="4.5903809"><ele>7.999999999999999</ele><time>2026-04-27T10:01:40.196Z</time></trkpt><trkpt lat="51.5577509" lon="4.5905141"><ele>8.0</ele><time>2026-04-27T10:01:42.235Z</time></trkpt><trkpt lat="51.5577734" lon="4.5906247"><ele>8.0</ele><time>2026-04-27T10:01:44.223Z</time></trkpt><trkpt lat="51.5578168" lon="4.5907591"><ele>8.0</ele><time>2026-04-27T10:01:46.224Z</time></trkpt><trkpt lat="51.5578672" lon="4.5908907"><ele>8.0</ele><time>2026-04-27T10:01:48.236Z</time></trkpt><trkpt lat="51.5579163" lon="4.5910337"><ele>8.0</ele><time>2026-04-27T10:01:50.236Z</time></trkpt><trkpt lat="51.5579756" lon="4.5911696"><ele>8.0</ele><time>2026-04-27T10:01:52.226Z</time></trkpt><trkpt lat="51.5580321" lon="4.5912929"><ele>7.800000000000001</ele><time>2026-04-27T10:01:54.236Z</time></trkpt><trkpt lat="51.558079" lon="4.5914265"><ele>7.6000000000000005</ele><time>2026-04-27T10:01:56.237Z</time></trkpt><trkpt lat="51.5581245" lon="4.5915594"><ele>7.3999999999999995</ele><time>2026-04-27T10:01:58.225Z</time></trkpt><trkpt lat="51.5581806" lon="4.5916919"><ele>7.199999999999999</ele><time>2026-04-27T10:02:00.241Z</time></trkpt><trkpt lat="51.5582332" lon="4.5918267"><ele>7.0</ele><time>2026-04-27T10:02:02.235Z</time></trkpt><trkpt lat="51.5582795" lon="4.591952"><ele>7.0</ele><time>2026-04-27T10:02:04.232Z</time></trkpt><trkpt lat="51.558328" lon="4.5920806"><ele>6.999999999999999</ele><time>2026-04-27T10:02:06.243Z</time></trkpt><trkpt lat="51.5583781" lon="4.5922211"><ele>6.999999999999999</ele><time>2026-04-27T10:02:08.215Z</time></trkpt><trkpt lat="51.5584332" lon="4.5923546"><ele>7.0</ele><time>2026-04-27T10:02:10.232Z</time></trkpt><trkpt lat="51.5584815" lon="4.5924789"><ele>7.0</ele><time>2026-04-27T10:02:12.247Z</time></trkpt><trkpt lat="51.5585196" lon="4.5926074"><ele>7.0</ele><time>2026-04-27T10:02:14.235Z</time></trkpt><trkpt lat="51.5585768" lon="4.5927338"><ele>6.999999999999999</ele><time>2026-04-27T10:02:16.239Z</time></trkpt><trkpt lat="51.5586286" lon="4.5928677"><ele>6.999999999999999</ele><time>2026-04-27T10:02:18.209Z</time></trkpt><trkpt lat="51.5586805" lon="4.5929985"><ele>7.0</ele><time>2026-04-27T10:02:20.238Z</time></trkpt><trkpt lat="51.5587322" lon="4.5931332"><ele>7.0</ele><time>2026-04-27T10:02:22.24Z</time></trkpt><trkpt lat="51.558783" lon="4.5932721"><ele>7.0</ele><time>2026-04-27T10:02:24.213Z</time></trkpt><trkpt lat="51.5588321" lon="4.5934126"><ele>6.999999999999999</ele><time>2026-04-27T10:02:26.21Z</time></trkpt><trkpt lat="51.5588839" lon="4.5935482"><ele>6.999999999999999</ele><time>2026-04-27T10:02:28.227Z</time></trkpt><trkpt lat="51.558931" lon="4.5936862"><ele>7.0</ele><time>2026-04-27T10:02:30.238Z</time></trkpt><trkpt lat="51.5589857" lon="4.5938175"><ele>7.0</ele><time>2026-04-27T10:02:32.239Z</time></trkpt><trkpt lat="51.5590397" lon="4.593955"><ele>7.0</ele><time>2026-04-27T10:02:34.237Z</time></trkpt><trkpt lat="51.5590832" lon="4.5941009"><ele>6.999999999999999</ele><time>2026-04-27T10:02:36.258Z</time></trkpt><trkpt lat="51.5591484" lon="4.5942452"><ele>6.999999999999999</ele><time>2026-04-27T10:02:38.229Z</time></trkpt><trkpt lat="51.5592057" lon="4.5943934"><ele>7.0</ele><time>2026-04-27T10:02:40.256Z</time></trkpt><trkpt lat="51.559258" lon="4.5945323"><ele>7.0</ele><time>2026-04-27T10:02:42.241Z</time></trkpt><trkpt lat="51.5593077" lon="4.5946778"><ele>7.000000000000001</ele><time>2026-04-27T10:02:44.222Z</time></trkpt><trkpt lat="51.5593531" lon="4.5947991"><ele>7.0</ele><time>2026-04-27T10:02:46.246Z</time></trkpt><trkpt lat="51.5593972" lon="4.5949123"><ele>7.0</ele><time>2026-04-27T10:02:48.234Z</time></trkpt><trkpt lat="51.5594355" lon="4.5950187"><ele>7.0</ele><time>2026-04-27T10:02:50.236Z</time></trkpt><trkpt lat="51.5594804" lon="4.5951253"><ele>7.000000000000001</ele><time>2026-04-27T10:02:52.247Z</time></trkpt><trkpt lat="51.559535" lon="4.5951893"><ele>7.0</ele><time>2026-04-27T10:02:54.245Z</time></trkpt><trkpt lat="51.5596334" lon="4.5951853"><ele>7.000000000000001</ele><time>2026-04-27T10:02:56.232Z</time></trkpt><trkpt lat="51.5597185" lon="4.5952472"><ele>7.0</ele><time>2026-04-27T10:02:58.198Z</time></trkpt><trkpt lat="51.5597597" lon="4.5953409"><ele>7.0</ele><time>2026-04-27T10:03:00.232Z</time></trkpt><trkpt lat="51.5598131" lon="4.5954248"><ele>7.0</ele><time>2026-04-27T10:03:02.235Z</time></trkpt><trkpt lat="51.5598674" lon="4.5955195"><ele>7.000000000000001</ele><time>2026-04-27T10:03:04.228Z</time></trkpt><trkpt lat="51.5599122" lon="4.5956137"><ele>7.0</ele><time>2026-04-27T10:03:06.241Z</time></trkpt><trkpt lat="51.5599606" lon="4.5957003"><ele>7.166666666666667</ele><time>2026-04-27T10:03:08.236Z</time></trkpt><trkpt lat="51.5600095" lon="4.5958118"><ele>7.333333333333334</ele><time>2026-04-27T10:03:10.229Z</time></trkpt><trkpt lat="51.5600536" lon="4.5959154"><ele>7.5</ele><time>2026-04-27T10:03:12.232Z</time></trkpt><trkpt lat="51.5601073" lon="4.5960143"><ele>7.666666666666666</ele><time>2026-04-27T10:03:14.225Z</time></trkpt><trkpt lat="51.5601659" lon="4.5960911"><ele>7.833333333333333</ele><time>2026-04-27T10:03:16.225Z</time></trkpt><trkpt lat="51.5602418" lon="4.596111"><ele>8.0</ele><time>2026-04-27T10:03:18.24Z</time></trkpt><trkpt lat="51.5603074" lon="4.5961227"><ele>7.833333333333333</ele><time>2026-04-27T10:03:20.238Z</time></trkpt><trkpt lat="51.5603978" lon="4.5961398"><ele>7.666666666666666</ele><time>2026-04-27T10:03:23.192Z</time></trkpt><trkpt lat="51.560485" lon="4.5961616"><ele>7.5</ele><time>2026-04-27T10:03:26.238Z</time></trkpt><trkpt lat="51.560573" lon="4.596184"><ele>7.333333333333334</ele><time>2026-04-27T10:03:29.216Z</time></trkpt><trkpt lat="51.5606473" lon="4.5962037"><ele>7.166666666666667</ele><time>2026-04-27T10:03:31.261Z</time></trkpt><trkpt lat="51.5607235" lon="4.5962281"><ele>7.0</ele><time>2026-04-27T10:03:33.27Z</time></trkpt><trkpt lat="51.5608097" lon="4.5962496"><ele>7.0</ele><time>2026-04-27T10:03:35.242Z</time></trkpt><trkpt lat="51.5608576" lon="4.5963407"><ele>6.999999999999999</ele><time>2026-04-27T10:03:37.233Z</time></trkpt><trkpt lat="51.5608425" lon="4.5964929"><ele>6.999999999999999</ele><time>2026-04-27T10:03:39.221Z</time></trkpt><trkpt lat="51.5608335" lon="4.5966373"><ele>7.0</ele><time>2026-04-27T10:03:41.255Z</time></trkpt><trkpt lat="51.5608145" lon="4.5967858"><ele>7.0</ele><time>2026-04-27T10:03:43.237Z</time></trkpt><trkpt lat="51.5607938" lon="4.5969424"><ele>7.25</ele><time>2026-04-27T10:03:45.216Z</time></trkpt><trkpt lat="51.5607701" lon="4.5971365"><ele>7.5</ele><time>2026-04-27T10:03:47.222Z</time></trkpt><trkpt lat="51.560742" lon="4.5973234"><ele>7.75</ele><time>2026-04-27T10:03:49.236Z</time></trkpt><trkpt lat="51.5607244" lon="4.5975036"><ele>8.0</ele><time>2026-04-27T10:03:51.243Z</time></trkpt><trkpt lat="51.560703" lon="4.5976957"><ele>8.0</ele><time>2026-04-27T10:03:53.238Z</time></trkpt><trkpt lat="51.5606674" lon="4.5978971"><ele>8.0</ele><time>2026-04-27T10:03:55.238Z</time></trkpt><trkpt lat="51.5606475" lon="4.5979972"><ele>8.0</ele><time>2026-04-27T10:03:56.232Z</time></trkpt><trkpt lat="51.5606184" lon="4.5981699"><ele>8.0</ele><time>2026-04-27T10:03:58.239Z</time></trkpt><trkpt lat="51.5605859" lon="4.5983423"><ele>8.0</ele><time>2026-04-27T10:04:00.242Z</time></trkpt><trkpt lat="51.5605536" lon="4.5984988"><ele>8.0</ele><time>2026-04-27T10:04:02.218Z</time></trkpt><trkpt lat="51.5605253" lon="4.5986546"><ele>8.0</ele><time>2026-04-27T10:04:04.246Z</time></trkpt><trkpt lat="51.5604975" lon="4.5987994"><ele>8.0</ele><time>2026-04-27T10:04:06.25Z</time></trkpt><trkpt lat="51.5604699" lon="4.5989521"><ele>8.0</ele><time>2026-04-27T10:04:08.241Z</time></trkpt><trkpt lat="51.5604333" lon="4.5990725"><ele>8.0</ele><time>2026-04-27T10:04:10.222Z</time></trkpt><trkpt lat="51.5604063" lon="4.5992244"><ele>7.6000000000000005</ele><time>2026-04-27T10:04:12.249Z</time></trkpt><trkpt lat="51.5603647" lon="4.5993706"><ele>7.200000000000001</ele><time>2026-04-27T10:04:14.236Z</time></trkpt><trkpt lat="51.5603208" lon="4.5995"><ele>6.8</ele><time>2026-04-27T10:04:16.235Z</time></trkpt><trkpt lat="51.5602759" lon="4.5996459"><ele>6.4</ele><time>2026-04-27T10:04:18.236Z</time></trkpt><trkpt lat="51.5602344" lon="4.5997902"><ele>6.0</ele><time>2026-04-27T10:04:20.248Z</time></trkpt><trkpt lat="51.5601962" lon="4.5999357"><ele>5.8</ele><time>2026-04-27T10:04:22.24Z</time></trkpt><trkpt lat="51.5601524" lon="4.600102"><ele>5.6</ele><time>2026-04-27T10:04:24.186Z</time></trkpt><trkpt lat="51.5601027" lon="4.6002581"><ele>5.4</ele><time>2026-04-27T10:04:26.248Z</time></trkpt><trkpt lat="51.5600528" lon="4.6004174"><ele>5.2</ele><time>2026-04-27T10:04:28.233Z</time></trkpt><trkpt lat="51.5600005" lon="4.6005747"><ele>5.0</ele><time>2026-04-27T10:04:30.233Z</time></trkpt><trkpt lat="51.5599506" lon="4.6007533"><ele>5.4</ele><time>2026-04-27T10:04:32.256Z</time></trkpt><trkpt lat="51.5599219" lon="4.6008486"><ele>5.8</ele><time>2026-04-27T10:04:33.218Z</time></trkpt><trkpt lat="51.5598608" lon="4.6010064"><ele>6.199999999999999</ele><time>2026-04-27T10:04:35.235Z</time></trkpt><trkpt lat="51.5598057" lon="4.6011742"><ele>6.6</ele><time>2026-04-27T10:04:37.244Z</time></trkpt><trkpt lat="51.5597748" lon="4.6012711"><ele>7.0</ele><time>2026-04-27T10:04:38.237Z</time></trkpt><trkpt lat="51.55972" lon="4.6014214"><ele>7.0</ele><time>2026-04-27T10:04:40.245Z</time></trkpt><trkpt lat="51.5596614" lon="4.6015814"><ele>6.999999999999999</ele><time>2026-04-27T10:04:42.24Z</time></trkpt><trkpt lat="51.5596047" lon="4.6017458"><ele>6.999999999999999</ele><time>2026-04-27T10:04:44.246Z</time></trkpt><trkpt lat="51.5595423" lon="4.6019066"><ele>7.0</ele><time>2026-04-27T10:04:46.238Z</time></trkpt><trkpt lat="51.5594923" lon="4.6020336"><ele>7.0</ele><time>2026-04-27T10:04:48.23Z</time></trkpt><trkpt lat="51.5594405" lon="4.6021768"><ele>6.3999999999999995</ele><time>2026-04-27T10:04:50.188Z</time></trkpt><trkpt lat="51.559379" lon="4.6023162"><ele>5.799999999999999</ele><time>2026-04-27T10:04:52.223Z</time></trkpt><trkpt lat="51.5593202" lon="4.6024456"><ele>5.2</ele><time>2026-04-27T10:04:54.239Z</time></trkpt><trkpt lat="51.5592535" lon="4.6025872"><ele>4.6</ele><time>2026-04-27T10:04:56.232Z</time></trkpt><trkpt lat="51.5592027" lon="4.6027153"><ele>4.0</ele><time>2026-04-27T10:04:58.24Z</time></trkpt><trkpt lat="51.5591468" lon="4.6028125"><ele>4.2</ele><time>2026-04-27T10:05:00.239Z</time></trkpt><trkpt lat="51.5590976" lon="4.6029282"><ele>4.4</ele><time>2026-04-27T10:05:02.22Z</time></trkpt><trkpt lat="51.5590317" lon="4.603051"><ele>4.6</ele><time>2026-04-27T10:05:04.234Z</time></trkpt><trkpt lat="51.5589686" lon="4.6031732"><ele>4.8</ele><time>2026-04-27T10:05:06.248Z</time></trkpt><trkpt lat="51.5589074" lon="4.6033013"><ele>5.0</ele><time>2026-04-27T10:05:08.21Z</time></trkpt><trkpt lat="51.5588384" lon="4.6034231"><ele>5.0</ele><time>2026-04-27T10:05:10.21Z</time></trkpt><trkpt lat="51.5587695" lon="4.603551"><ele>5.0</ele><time>2026-04-27T10:05:12.241Z</time></trkpt><trkpt lat="51.5586949" lon="4.6036902"><ele>5.0</ele><time>2026-04-27T10:05:14.24Z</time></trkpt><trkpt lat="51.5586264" lon="4.6038275"><ele>5.0</ele><time>2026-04-27T10:05:16.238Z</time></trkpt><trkpt lat="51.5585535" lon="4.6039602"><ele>5.0</ele><time>2026-04-27T10:05:18.239Z</time></trkpt><trkpt lat="51.5584862" lon="4.6041096"><ele>5.0</ele><time>2026-04-27T10:05:20.241Z</time></trkpt><trkpt lat="51.558411" lon="4.604258"><ele>5.0</ele><time>2026-04-27T10:05:22.21Z</time></trkpt><trkpt lat="51.5583282" lon="4.6044078"><ele>5.0</ele><time>2026-04-27T10:05:24.248Z</time></trkpt><trkpt lat="51.5582426" lon="4.6045535"><ele>5.0</ele><time>2026-04-27T10:05:26.246Z</time></trkpt><trkpt lat="51.55816" lon="4.6046959"><ele>5.0</ele><time>2026-04-27T10:05:28.218Z</time></trkpt><trkpt lat="51.5581106" lon="4.6047705"><ele>5.0</ele><time>2026-04-27T10:05:29.227Z</time></trkpt><trkpt lat="51.5580316" lon="4.6049102"><ele>5.0</ele><time>2026-04-27T10:05:31.232Z</time></trkpt><trkpt lat="51.557956" lon="4.6050475"><ele>5.0</ele><time>2026-04-27T10:05:33.234Z</time></trkpt><trkpt lat="51.5578881" lon="4.6051656"><ele>5.0</ele><time>2026-04-27T10:05:35.23Z</time></trkpt><trkpt lat="51.5578215" lon="4.605285"><ele>5.0</ele><time>2026-04-27T10:05:37.232Z</time></trkpt><trkpt lat="51.5577557" lon="4.6054083"><ele>5.0</ele><time>2026-04-27T10:05:39.232Z</time></trkpt><trkpt lat="51.5576849" lon="4.6055323"><ele>5.0</ele><time>2026-04-27T10:05:41.248Z</time></trkpt><trkpt lat="51.5576182" lon="4.6056648"><ele>5.0</ele><time>2026-04-27T10:05:43.241Z</time></trkpt><trkpt lat="51.5575459" lon="4.6057911"><ele>5.0</ele><time>2026-04-27T10:05:45.26Z</time></trkpt><trkpt lat="51.5574817" lon="4.6059169"><ele>5.0</ele><time>2026-04-27T10:05:47.247Z</time></trkpt><trkpt lat="51.5574247" lon="4.6060501"><ele>5.0</ele><time>2026-04-27T10:05:49.248Z</time></trkpt><trkpt lat="51.5573682" lon="4.6061882"><ele>5.0</ele><time>2026-04-27T10:05:51.215Z</time></trkpt><trkpt lat="51.5573126" lon="4.6063087"><ele>5.0</ele><time>2026-04-27T10:05:53.237Z</time></trkpt><trkpt lat="51.5572514" lon="4.6064285"><ele>5.0</ele><time>2026-04-27T10:05:55.252Z</time></trkpt><trkpt lat="51.5571915" lon="4.6065455"><ele>5.2</ele><time>2026-04-27T10:05:57.237Z</time></trkpt><trkpt lat="51.5571286" lon="4.6066731"><ele>5.4</ele><time>2026-04-27T10:05:59.238Z</time></trkpt><trkpt lat="51.5570611" lon="4.6067977"><ele>5.6</ele><time>2026-04-27T10:06:01.247Z</time></trkpt><trkpt lat="51.5569964" lon="4.6069293"><ele>5.8</ele><time>2026-04-27T10:06:03.192Z</time></trkpt><trkpt lat="51.556937" lon="4.6070589"><ele>6.0</ele><time>2026-04-27T10:06:05.247Z</time></trkpt><trkpt lat="51.5568818" lon="4.6071914"><ele>6.0</ele><time>2026-04-27T10:06:07.24Z</time></trkpt><trkpt lat="51.5568289" lon="4.6073279"><ele>6.0</ele><time>2026-04-27T10:06:09.235Z</time></trkpt><trkpt lat="51.5567816" lon="4.6074686"><ele>6.0</ele><time>2026-04-27T10:06:11.231Z</time></trkpt><trkpt lat="51.5567314" lon="4.6076087"><ele>6.0</ele><time>2026-04-27T10:06:13.245Z</time></trkpt><trkpt lat="51.5566768" lon="4.6077568"><ele>6.0</ele><time>2026-04-27T10:06:15.24Z</time></trkpt><trkpt lat="51.5566252" lon="4.6079219"><ele>5.8</ele><time>2026-04-27T10:06:17.216Z</time></trkpt><trkpt lat="51.5565796" lon="4.6080678"><ele>5.6</ele><time>2026-04-27T10:06:19.242Z</time></trkpt><trkpt lat="51.5565379" lon="4.6082347"><ele>5.4</ele><time>2026-04-27T10:06:21.241Z</time></trkpt><trkpt lat="51.5564946" lon="4.608405"><ele>5.2</ele><time>2026-04-27T10:06:23.24Z</time></trkpt><trkpt lat="51.5564591" lon="4.6085673"><ele>5.0</ele><time>2026-04-27T10:06:25.233Z</time></trkpt><trkpt lat="51.5564327" lon="4.6087344"><ele>4.6</ele><time>2026-04-27T10:06:27.22Z</time></trkpt><trkpt lat="51.5564036" lon="4.6089074"><ele>4.2</ele><time>2026-04-27T10:06:29.233Z</time></trkpt><trkpt lat="51.5563696" lon="4.6090679"><ele>3.8</ele><time>2026-04-27T10:06:31.24Z</time></trkpt><trkpt lat="51.5563355" lon="4.6092322"><ele>3.4</ele><time>2026-04-27T10:06:33.224Z</time></trkpt><trkpt lat="51.5563074" lon="4.609404"><ele>3.0</ele><time>2026-04-27T10:06:35.239Z</time></trkpt><trkpt lat="51.5562861" lon="4.6095598"><ele>2.8</ele><time>2026-04-27T10:06:37.213Z</time></trkpt><trkpt lat="51.556268" lon="4.609728"><ele>2.5999999999999996</ele><time>2026-04-27T10:06:39.23Z</time></trkpt><trkpt lat="51.5562492" lon="4.6098941"><ele>2.4000000000000004</ele><time>2026-04-27T10:06:41.229Z</time></trkpt><trkpt lat="51.5562258" lon="4.6100515"><ele>2.2</ele><time>2026-04-27T10:06:43.241Z</time></trkpt><trkpt lat="51.5561977" lon="4.6102079"><ele>2.0</ele><time>2026-04-27T10:06:45.247Z</time></trkpt><trkpt lat="51.556176" lon="4.6103411"><ele>2.4000000000000004</ele><time>2026-04-27T10:06:47.24Z</time></trkpt><trkpt lat="51.5561531" lon="4.6104914"><ele>2.8000000000000003</ele><time>2026-04-27T10:06:49.191Z</time></trkpt><trkpt lat="51.5561251" lon="4.6106426"><ele>3.2</ele><time>2026-04-27T10:06:51.237Z</time></trkpt><trkpt lat="51.5560916" lon="4.6107852"><ele>3.6</ele><time>2026-04-27T10:06:53.224Z</time></trkpt><trkpt lat="51.5560597" lon="4.6109106"><ele>4.0</ele><time>2026-04-27T10:06:55.24Z</time></trkpt><trkpt lat="51.5560225" lon="4.6110626"><ele>3.6</ele><time>2026-04-27T10:06:57.2Z</time></trkpt><trkpt lat="51.5559763" lon="4.6112298"><ele>3.2</ele><time>2026-04-27T10:06:59.22Z</time></trkpt><trkpt lat="51.5559303" lon="4.6113936"><ele>2.8000000000000003</ele><time>2026-04-27T10:07:01.228Z</time></trkpt><trkpt lat="51.5558938" lon="4.6115593"><ele>2.4000000000000004</ele><time>2026-04-27T10:07:03.239Z</time></trkpt><trkpt lat="51.5558617" lon="4.6117194"><ele>2.0</ele><time>2026-04-27T10:07:05.232Z</time></trkpt><trkpt lat="51.5558387" lon="4.6118915"><ele>2.4000000000000004</ele><time>2026-04-27T10:07:07.24Z</time></trkpt><trkpt lat="51.555816" lon="4.6120508"><ele>2.8000000000000003</ele><time>2026-04-27T10:07:09.23Z</time></trkpt><trkpt lat="51.555783" lon="4.6122144"><ele>3.2</ele><time>2026-04-27T10:07:11.253Z</time></trkpt><trkpt lat="51.555738" lon="4.6123684"><ele>3.6</ele><time>2026-04-27T10:07:13.241Z</time></trkpt><trkpt lat="51.5556974" lon="4.6125076"><ele>4.0</ele><time>2026-04-27T10:07:15.229Z</time></trkpt><trkpt lat="51.5556448" lon="4.6126484"><ele>4.0</ele><time>2026-04-27T10:07:17.225Z</time></trkpt><trkpt lat="51.5555915" lon="4.6127948"><ele>4.0</ele><time>2026-04-27T10:07:19.224Z</time></trkpt><trkpt lat="51.5555369" lon="4.6129332"><ele>4.0</ele><time>2026-04-27T10:07:21.232Z</time></trkpt><trkpt lat="51.5554844" lon="4.6130716"><ele>4.0</ele><time>2026-04-27T10:07:23.224Z</time></trkpt><trkpt lat="51.5554257" lon="4.6131945"><ele>4.0</ele><time>2026-04-27T10:07:25.234Z</time></trkpt><trkpt lat="51.5553602" lon="4.6133119"><ele>4.800000000000001</ele><time>2026-04-27T10:07:27.216Z</time></trkpt><trkpt lat="51.5552983" lon="4.6134287"><ele>5.6000000000000005</ele><time>2026-04-27T10:07:29.21Z</time></trkpt><trkpt lat="51.5552312" lon="4.6135499"><ele>6.4</ele><time>2026-04-27T10:07:31.202Z</time></trkpt><trkpt lat="51.5551591" lon="4.6136626"><ele>7.2</ele><time>2026-04-27T10:07:33.222Z</time></trkpt><trkpt lat="51.5550867" lon="4.6137691"><ele>8.0</ele><time>2026-04-27T10:07:35.242Z</time></trkpt><trkpt lat="51.5550204" lon="4.6138761"><ele>8.0</ele><time>2026-04-27T10:07:37.232Z</time></trkpt><trkpt lat="51.5549504" lon="4.6139839"><ele>8.0</ele><time>2026-04-27T10:07:39.234Z</time></trkpt><trkpt lat="51.55488" lon="4.6140838"><ele>8.0</ele><time>2026-04-27T10:07:41.231Z</time></trkpt><trkpt lat="51.5548101" lon="4.6142022"><ele>8.0</ele><time>2026-04-27T10:07:43.186Z</time></trkpt><trkpt lat="51.5547397" lon="4.6143155"><ele>8.0</ele><time>2026-04-27T10:07:45.231Z</time></trkpt><trkpt lat="51.5546721" lon="4.6144432"><ele>8.0</ele><time>2026-04-27T10:07:47.232Z</time></trkpt><trkpt lat="51.5546082" lon="4.6145716"><ele>8.0</ele><time>2026-04-27T10:07:49.236Z</time></trkpt><trkpt lat="51.5545498" lon="4.614715"><ele>8.0</ele><time>2026-04-27T10:07:51.222Z</time></trkpt><trkpt lat="51.5544926" lon="4.6148774"><ele>8.0</ele><time>2026-04-27T10:07:53.245Z</time></trkpt><trkpt lat="51.5544391" lon="4.6150157"><ele>8.0</ele><time>2026-04-27T10:07:55.233Z</time></trkpt><trkpt lat="51.5543932" lon="4.6151739"><ele>7.4</ele><time>2026-04-27T10:07:57.241Z</time></trkpt><trkpt lat="51.5543387" lon="4.6153172"><ele>6.800000000000001</ele><time>2026-04-27T10:07:59.229Z</time></trkpt><trkpt lat="51.5542986" lon="4.61546"><ele>6.2</ele><time>2026-04-27T10:08:01.236Z</time></trkpt><trkpt lat="51.5542495" lon="4.6156319"><ele>5.6</ele><time>2026-04-27T10:08:03.202Z</time></trkpt><trkpt lat="51.5541967" lon="4.615801"><ele>5.0</ele><time>2026-04-27T10:08:05.181Z</time></trkpt><trkpt lat="51.5541484" lon="4.6159761"><ele>5.0</ele><time>2026-04-27T10:08:07.238Z</time></trkpt><trkpt lat="51.5541113" lon="4.6161523"><ele>5.0</ele><time>2026-04-27T10:08:09.223Z</time></trkpt><trkpt lat="51.5540764" lon="4.6163325"><ele>5.0</ele><time>2026-04-27T10:08:11.196Z</time></trkpt><trkpt lat="51.5540469" lon="4.6165136"><ele>5.0</ele><time>2026-04-27T10:08:13.237Z</time></trkpt><trkpt lat="51.5540113" lon="4.6166945"><ele>5.0</ele><time>2026-04-27T10:08:15.227Z</time></trkpt><trkpt lat="51.5539751" lon="4.6168657"><ele>5.0</ele><time>2026-04-27T10:08:17.245Z</time></trkpt><trkpt lat="51.5539409" lon="4.6170363"><ele>5.0</ele><time>2026-04-27T10:08:19.242Z</time></trkpt><trkpt lat="51.5539043" lon="4.6172112"><ele>5.0</ele><time>2026-04-27T10:08:21.226Z</time></trkpt><trkpt lat="51.5538626" lon="4.6173869"><ele>5.0</ele><time>2026-04-27T10:08:23.209Z</time></trkpt><trkpt lat="51.55383" lon="4.617554"><ele>5.0</ele><time>2026-04-27T10:08:25.204Z</time></trkpt><trkpt lat="51.5537932" lon="4.6177079"><ele>5.0</ele><time>2026-04-27T10:08:27.237Z</time></trkpt><trkpt lat="51.5537618" lon="4.6178646"><ele>5.0</ele><time>2026-04-27T10:08:29.232Z</time></trkpt><trkpt lat="51.5537259" lon="4.6180311"><ele>5.0</ele><time>2026-04-27T10:08:31.217Z</time></trkpt><trkpt lat="51.5536958" lon="4.6181928"><ele>5.0</ele><time>2026-04-27T10:08:33.245Z</time></trkpt><trkpt lat="51.553666" lon="4.6183665"><ele>5.0</ele><time>2026-04-27T10:08:35.22Z</time></trkpt><trkpt lat="51.5536382" lon="4.6185341"><ele>5.0</ele><time>2026-04-27T10:08:37.23Z</time></trkpt><trkpt lat="51.5536139" lon="4.6186954"><ele>5.0</ele><time>2026-04-27T10:08:39.234Z</time></trkpt><trkpt lat="51.5535898" lon="4.6188715"><ele>5.0</ele><time>2026-04-27T10:08:41.215Z</time></trkpt><trkpt lat="51.5535624" lon="4.619041"><ele>5.2</ele><time>2026-04-27T10:08:43.242Z</time></trkpt><trkpt lat="51.5535395" lon="4.6191954"><ele>5.4</ele><time>2026-04-27T10:08:45.259Z</time></trkpt><trkpt lat="51.5535177" lon="4.6193545"><ele>5.6</ele><time>2026-04-27T10:08:47.261Z</time></trkpt><trkpt lat="51.5535023" lon="4.6195211"><ele>5.8</ele><time>2026-04-27T10:08:49.22Z</time></trkpt><trkpt lat="51.5534803" lon="4.6196817"><ele>6.0</ele><time>2026-04-27T10:08:51.205Z</time></trkpt><trkpt lat="51.5534614" lon="4.6198369"><ele>6.0</ele><time>2026-04-27T10:08:53.219Z</time></trkpt><trkpt lat="51.553434" lon="4.6200059"><ele>6.0</ele><time>2026-04-27T10:08:55.212Z</time></trkpt><trkpt lat="51.5534216" lon="4.6201783"><ele>6.0</ele><time>2026-04-27T10:08:57.224Z</time></trkpt><trkpt lat="51.5533969" lon="4.6203489"><ele>6.0</ele><time>2026-04-27T10:08:59.226Z</time></trkpt><trkpt lat="51.5533807" lon="4.6205075"><ele>6.0</ele><time>2026-04-27T10:09:01.215Z</time></trkpt><trkpt lat="51.5533661" lon="4.6206608"><ele>5.8</ele><time>2026-04-27T10:09:03.244Z</time></trkpt><trkpt lat="51.5533532" lon="4.6208223"><ele>5.6</ele><time>2026-04-27T10:09:05.232Z</time></trkpt><trkpt lat="51.5533498" lon="4.6209922"><ele>5.4</ele><time>2026-04-27T10:09:07.23Z</time></trkpt><trkpt lat="51.5533374" lon="4.6211483"><ele>5.2</ele><time>2026-04-27T10:09:09.217Z</time></trkpt><trkpt lat="51.5533216" lon="4.6213018"><ele>5.0</ele><time>2026-04-27T10:09:11.235Z</time></trkpt><trkpt lat="51.5533119" lon="4.6214655"><ele>5.0</ele><time>2026-04-27T10:09:13.251Z</time></trkpt><trkpt lat="51.5532957" lon="4.6216347"><ele>5.0</ele><time>2026-04-27T10:09:15.239Z</time></trkpt><trkpt lat="51.5532824" lon="4.6217814"><ele>5.0</ele><time>2026-04-27T10:09:17.225Z</time></trkpt><trkpt lat="51.5532627" lon="4.6219363"><ele>5.0</ele><time>2026-04-27T10:09:19.248Z</time></trkpt><trkpt lat="51.5532572" lon="4.6220809"><ele>5.0</ele><time>2026-04-27T10:09:21.225Z</time></trkpt><trkpt lat="51.5532493" lon="4.6222265"><ele>5.166666666666667</ele><time>2026-04-27T10:09:23.228Z</time></trkpt><trkpt lat="51.5532353" lon="4.6223696"><ele>5.333333333333334</ele><time>2026-04-27T10:09:25.239Z</time></trkpt><trkpt lat="51.5532252" lon="4.6225006"><ele>5.5</ele><time>2026-04-27T10:09:27.237Z</time></trkpt><trkpt lat="51.5532149" lon="4.6226147"><ele>5.666666666666667</ele><time>2026-04-27T10:09:29.221Z</time></trkpt><trkpt lat="51.5532115" lon="4.6227554"><ele>5.833333333333333</ele><time>2026-04-27T10:09:31.216Z</time></trkpt><trkpt lat="51.5532014" lon="4.6229301"><ele>6.0</ele><time>2026-04-27T10:09:33.222Z</time></trkpt><trkpt lat="51.5531978" lon="4.6230912"><ele>6.0</ele><time>2026-04-27T10:09:35.24Z</time></trkpt><trkpt lat="51.5531932" lon="4.6232472"><ele>6.0</ele><time>2026-04-27T10:09:37.241Z</time></trkpt><trkpt lat="51.553185" lon="4.6234083"><ele>6.0</ele><time>2026-04-27T10:09:39.237Z</time></trkpt><trkpt lat="51.55317" lon="4.6235828"><ele>6.0</ele><time>2026-04-27T10:09:41.231Z</time></trkpt><trkpt lat="51.5531709" lon="4.6237334"><ele>6.0</ele><time>2026-04-27T10:09:43.23Z</time></trkpt><trkpt lat="51.5531725" lon="4.6238977"><ele>6.0</ele><time>2026-04-27T10:09:45.249Z</time></trkpt><trkpt lat="51.553172" lon="4.6240572"><ele>6.0</ele><time>2026-04-27T10:09:47.233Z</time></trkpt><trkpt lat="51.5531694" lon="4.6242449"><ele>6.0</ele><time>2026-04-27T10:09:49.231Z</time></trkpt><trkpt lat="51.5531646" lon="4.624427"><ele>6.0</ele><time>2026-04-27T10:09:51.182Z</time></trkpt><trkpt lat="51.553156" lon="4.6246049"><ele>6.0</ele><time>2026-04-27T10:09:53.248Z</time></trkpt><trkpt lat="51.5531517" lon="4.6247584"><ele>5.6</ele><time>2026-04-27T10:09:55.242Z</time></trkpt><trkpt lat="51.5531489" lon="4.624918"><ele>5.199999999999999</ele><time>2026-04-27T10:09:57.242Z</time></trkpt><trkpt lat="51.5531487" lon="4.6250812"><ele>4.800000000000001</ele><time>2026-04-27T10:09:59.252Z</time></trkpt><trkpt lat="51.5531419" lon="4.6252306"><ele>4.4</ele><time>2026-04-27T10:10:01.223Z</time></trkpt><trkpt lat="51.5531418" lon="4.6253999"><ele>4.0</ele><time>2026-04-27T10:10:03.234Z</time></trkpt><trkpt lat="51.5531436" lon="4.6255575"><ele>4.0</ele><time>2026-04-27T10:10:05.231Z</time></trkpt><trkpt lat="51.5531458" lon="4.6257156"><ele>4.0</ele><time>2026-04-27T10:10:07.227Z</time></trkpt><trkpt lat="51.5531444" lon="4.6258678"><ele>4.0</ele><time>2026-04-27T10:10:09.226Z</time></trkpt><trkpt lat="51.553146" lon="4.6260284"><ele>4.0</ele><time>2026-04-27T10:10:11.2Z</time></trkpt><trkpt lat="51.5531578" lon="4.6261895"><ele>4.0</ele><time>2026-04-27T10:10:13.234Z</time></trkpt><trkpt lat="51.5531616" lon="4.6263498"><ele>4.5</ele><time>2026-04-27T10:10:15.233Z</time></trkpt><trkpt lat="51.5531713" lon="4.6265031"><ele>5.0</ele><time>2026-04-27T10:10:17.187Z</time></trkpt><trkpt lat="51.5531872" lon="4.6266562"><ele>5.5</ele><time>2026-04-27T10:10:19.226Z</time></trkpt><trkpt lat="51.5532099" lon="4.6267914"><ele>6.0</ele><time>2026-04-27T10:10:21.237Z</time></trkpt><trkpt lat="51.5532156" lon="4.6269258"><ele>6.500000000000001</ele><time>2026-04-27T10:10:23.203Z</time></trkpt><trkpt lat="51.5532231" lon="4.6270571"><ele>7.0</ele><time>2026-04-27T10:10:25.183Z</time></trkpt><trkpt lat="51.5532409" lon="4.6272416"><ele>7.0</ele><time>2026-04-27T10:10:27.23Z</time></trkpt><trkpt lat="51.5532573" lon="4.6274034"><ele>6.999999999999999</ele><time>2026-04-27T10:10:29.241Z</time></trkpt><trkpt lat="51.5532788" lon="4.6275623"><ele>6.999999999999999</ele><time>2026-04-27T10:10:31.231Z</time></trkpt><trkpt lat="51.5532952" lon="4.6277214"><ele>7.0</ele><time>2026-04-27T10:10:33.234Z</time></trkpt><trkpt lat="51.553313" lon="4.6278651"><ele>7.0</ele><time>2026-04-27T10:10:35.214Z</time></trkpt><trkpt lat="51.5533254" lon="4.6279989"><ele>7.199999999999999</ele><time>2026-04-27T10:10:37.234Z</time></trkpt><trkpt lat="51.5533359" lon="4.6281306"><ele>7.3999999999999995</ele><time>2026-04-27T10:10:39.246Z</time></trkpt><trkpt lat="51.5533399" lon="4.6282649"><ele>7.6000000000000005</ele><time>2026-04-27T10:10:41.233Z</time></trkpt><trkpt lat="51.5533437" lon="4.6284041"><ele>7.800000000000001</ele><time>2026-04-27T10:10:43.246Z</time></trkpt><trkpt lat="51.5533429" lon="4.6285725"><ele>8.0</ele><time>2026-04-27T10:10:45.239Z</time></trkpt><trkpt lat="51.5533489" lon="4.6287686"><ele>8.200000000000001</ele><time>2026-04-27T10:10:47.223Z</time></trkpt><trkpt lat="51.5533527" lon="4.6289383"><ele>8.4</ele><time>2026-04-27T10:10:49.246Z</time></trkpt><trkpt lat="51.5533697" lon="4.6290974"><ele>8.600000000000001</ele><time>2026-04-27T10:10:51.245Z</time></trkpt><trkpt lat="51.5533878" lon="4.629277"><ele>8.8</ele><time>2026-04-27T10:10:53.243Z</time></trkpt><trkpt lat="51.5533993" lon="4.6294538"><ele>9.0</ele><time>2026-04-27T10:10:55.253Z</time></trkpt><trkpt lat="51.5534048" lon="4.6296278"><ele>9.0</ele><time>2026-04-27T10:10:57.229Z</time></trkpt><trkpt lat="51.5534208" lon="4.6297791"><ele>9.0</ele><time>2026-04-27T10:10:59.264Z</time></trkpt><trkpt lat="51.5534363" lon="4.6299256"><ele>9.0</ele><time>2026-04-27T10:11:01.223Z</time></trkpt><trkpt lat="51.5534421" lon="4.6300691"><ele>9.0</ele><time>2026-04-27T10:11:03.244Z</time></trkpt><trkpt lat="51.5534589" lon="4.6302096"><ele>9.0</ele><time>2026-04-27T10:11:05.242Z</time></trkpt><trkpt lat="51.5534753" lon="4.6303439"><ele>8.6</ele><time>2026-04-27T10:11:07.224Z</time></trkpt><trkpt lat="51.5534996" lon="4.6304895"><ele>8.2</ele><time>2026-04-27T10:11:09.231Z</time></trkpt><trkpt lat="51.5535207" lon="4.6306356"><ele>7.799999999999999</ele><time>2026-04-27T10:11:11.231Z</time></trkpt><trkpt lat="51.5535449" lon="4.6307812"><ele>7.3999999999999995</ele><time>2026-04-27T10:11:13.235Z</time></trkpt><trkpt lat="51.5535689" lon="4.6309143"><ele>7.0</ele><time>2026-04-27T10:11:15.23Z</time></trkpt><trkpt lat="51.5535857" lon="4.6310489"><ele>7.166666666666667</ele><time>2026-04-27T10:11:17.236Z</time></trkpt><trkpt lat="51.553609" lon="4.6311856"><ele>7.333333333333334</ele><time>2026-04-27T10:11:19.201Z</time></trkpt><trkpt lat="51.5536299" lon="4.6313186"><ele>7.5</ele><time>2026-04-27T10:11:21.222Z</time></trkpt><trkpt lat="51.5536529" lon="4.6314344"><ele>7.666666666666666</ele><time>2026-04-27T10:11:23.233Z</time></trkpt><trkpt lat="51.5536763" lon="4.6315555"><ele>7.833333333333333</ele><time>2026-04-27T10:11:25.234Z</time></trkpt><trkpt lat="51.5537415" lon="4.6316634"><ele>8.0</ele><time>2026-04-27T10:11:28.218Z</time></trkpt><trkpt lat="51.5538208" lon="4.6317425"><ele>8.166666666666666</ele><time>2026-04-27T10:11:30.235Z</time></trkpt><trkpt lat="51.5538741" lon="4.6318094"><ele>8.333333333333332</ele><time>2026-04-27T10:11:32.239Z</time></trkpt><trkpt lat="51.553898" lon="4.6319108"><ele>8.5</ele><time>2026-04-27T10:11:34.236Z</time></trkpt><trkpt lat="51.5538463" lon="4.6320334"><ele>8.666666666666666</ele><time>2026-04-27T10:11:37.231Z</time></trkpt><trkpt lat="51.5537956" lon="4.6321538"><ele>8.833333333333334</ele><time>2026-04-27T10:11:40.227Z</time></trkpt><trkpt lat="51.5537914" lon="4.6322967"><ele>9.0</ele><time>2026-04-27T10:11:43.212Z</time></trkpt><trkpt lat="51.5538163" lon="4.6324337"><ele>9.0</ele><time>2026-04-27T10:11:45.243Z</time></trkpt><trkpt lat="51.5538333" lon="4.632592"><ele>9.0</ele><time>2026-04-27T10:11:47.241Z</time></trkpt><trkpt lat="51.5538569" lon="4.6327485"><ele>9.0</ele><time>2026-04-27T10:11:49.236Z</time></trkpt><trkpt lat="51.5538763" lon="4.632918"><ele>9.0</ele><time>2026-04-27T10:11:51.229Z</time></trkpt><trkpt lat="51.5538899" lon="4.6330906"><ele>9.0</ele><time>2026-04-27T10:11:53.228Z</time></trkpt><trkpt lat="51.5539155" lon="4.6332589"><ele>9.0</ele><time>2026-04-27T10:11:55.233Z</time></trkpt><trkpt lat="51.5539365" lon="4.6334191"><ele>9.0</ele><time>2026-04-27T10:11:57.24Z</time></trkpt><trkpt lat="51.553963" lon="4.6335748"><ele>9.0</ele><time>2026-04-27T10:11:59.216Z</time></trkpt><trkpt lat="51.5539886" lon="4.6337307"><ele>9.0</ele><time>2026-04-27T10:12:01.244Z</time></trkpt><trkpt lat="51.5540212" lon="4.6338924"><ele>9.0</ele><time>2026-04-27T10:12:03.252Z</time></trkpt><trkpt lat="51.5540509" lon="4.6340509"><ele>9.0</ele><time>2026-04-27T10:12:05.234Z</time></trkpt><trkpt lat="51.5540798" lon="4.6342129"><ele>9.0</ele><time>2026-04-27T10:12:07.219Z</time></trkpt><trkpt lat="51.5541143" lon="4.6343755"><ele>9.0</ele><time>2026-04-27T10:12:09.22Z</time></trkpt><trkpt lat="51.5541451" lon="4.6345414"><ele>9.0</ele><time>2026-04-27T10:12:11.237Z</time></trkpt><trkpt lat="51.5541767" lon="4.6347041"><ele>9.0</ele><time>2026-04-27T10:12:13.231Z</time></trkpt><trkpt lat="51.5542095" lon="4.6348702"><ele>9.0</ele><time>2026-04-27T10:12:15.226Z</time></trkpt><trkpt lat="51.5542397" lon="4.6350334"><ele>9.0</ele><time>2026-04-27T10:12:17.228Z</time></trkpt><trkpt lat="51.5542743" lon="4.635194"><ele>9.0</ele><time>2026-04-27T10:12:19.23Z</time></trkpt><trkpt lat="51.5543089" lon="4.6353571"><ele>9.0</ele><time>2026-04-27T10:12:21.242Z</time></trkpt><trkpt lat="51.5543428" lon="4.6355237"><ele>9.0</ele><time>2026-04-27T10:12:23.253Z</time></trkpt><trkpt lat="51.5543735" lon="4.6356872"><ele>8.6</ele><time>2026-04-27T10:12:25.233Z</time></trkpt><trkpt lat="51.5544111" lon="4.6358562"><ele>8.2</ele><time>2026-04-27T10:12:27.179Z</time></trkpt><trkpt lat="51.5544451" lon="4.6360225"><ele>7.799999999999999</ele><time>2026-04-27T10:12:29.237Z</time></trkpt><trkpt lat="51.5544698" lon="4.6361912"><ele>7.3999999999999995</ele><time>2026-04-27T10:12:31.233Z</time></trkpt><trkpt lat="51.5545029" lon="4.6363487"><ele>7.0</ele><time>2026-04-27T10:12:33.229Z</time></trkpt><trkpt lat="51.5545347" lon="4.636515"><ele>7.3999999999999995</ele><time>2026-04-27T10:12:35.241Z</time></trkpt><trkpt lat="51.5545726" lon="4.6366672"><ele>7.799999999999999</ele><time>2026-04-27T10:12:37.222Z</time></trkpt><trkpt lat="51.5546073" lon="4.6368272"><ele>8.2</ele><time>2026-04-27T10:12:39.23Z</time></trkpt><trkpt lat="51.5546358" lon="4.6369893"><ele>8.6</ele><time>2026-04-27T10:12:41.247Z</time></trkpt><trkpt lat="51.5546672" lon="4.637145"><ele>9.0</ele><time>2026-04-27T10:12:43.248Z</time></trkpt><trkpt lat="51.5546984" lon="4.637292"><ele>9.2</ele><time>2026-04-27T10:12:45.229Z</time></trkpt><trkpt lat="51.5547305" lon="4.637453"><ele>9.4</ele><time>2026-04-27T10:12:47.233Z</time></trkpt><trkpt lat="51.5547633" lon="4.6375989"><ele>9.6</ele><time>2026-04-27T10:12:49.226Z</time></trkpt><trkpt lat="51.5547961" lon="4.6377768"><ele>9.8</ele><time>2026-04-27T10:12:51.23Z</time></trkpt><trkpt lat="51.5548252" lon="4.6379435"><ele>10.0</ele><time>2026-04-27T10:12:53.231Z</time></trkpt><trkpt lat="51.5548533" lon="4.6381233"><ele>10.0</ele><time>2026-04-27T10:12:55.233Z</time></trkpt><trkpt lat="51.5548921" lon="4.6382925"><ele>10.0</ele><time>2026-04-27T10:12:57.217Z</time></trkpt><trkpt lat="51.5549226" lon="4.6384593"><ele>10.0</ele><time>2026-04-27T10:12:59.236Z</time></trkpt><trkpt lat="51.5549492" lon="4.6386194"><ele>10.0</ele><time>2026-04-27T10:13:01.191Z</time></trkpt><trkpt lat="51.5549735" lon="4.6387784"><ele>10.0</ele><time>2026-04-27T10:13:03.221Z</time></trkpt><trkpt lat="51.5550066" lon="4.638948"><ele>9.8</ele><time>2026-04-27T10:13:05.235Z</time></trkpt><trkpt lat="51.5550391" lon="4.6390996"><ele>9.6</ele><time>2026-04-27T10:13:07.228Z</time></trkpt><trkpt lat="51.5550729" lon="4.639256"><ele>9.4</ele><time>2026-04-27T10:13:09.232Z</time></trkpt><trkpt lat="51.5551074" lon="4.6394276"><ele>9.2</ele><time>2026-04-27T10:13:11.235Z</time></trkpt><trkpt lat="51.5551407" lon="4.6395849"><ele>9.0</ele><time>2026-04-27T10:13:13.25Z</time></trkpt><trkpt lat="51.5551777" lon="4.6397547"><ele>8.4</ele><time>2026-04-27T10:13:15.195Z</time></trkpt><trkpt lat="51.5552128" lon="4.6399153"><ele>7.800000000000001</ele><time>2026-04-27T10:13:17.24Z</time></trkpt><trkpt lat="51.5552465" lon="4.640081"><ele>7.199999999999999</ele><time>2026-04-27T10:13:19.248Z</time></trkpt><trkpt lat="51.5552834" lon="4.6402465"><ele>6.6</ele><time>2026-04-27T10:13:21.225Z</time></trkpt><trkpt lat="51.5553146" lon="4.6404077"><ele>6.0</ele><time>2026-04-27T10:13:23.236Z</time></trkpt><trkpt lat="51.555342" lon="4.6405731"><ele>6.6</ele><time>2026-04-27T10:13:25.209Z</time></trkpt><trkpt lat="51.555373" lon="4.6407307"><ele>7.199999999999999</ele><time>2026-04-27T10:13:27.22Z</time></trkpt><trkpt lat="51.5554064" lon="4.6408924"><ele>7.800000000000001</ele><time>2026-04-27T10:13:29.225Z</time></trkpt><trkpt lat="51.5554412" lon="4.6410501"><ele>8.4</ele><time>2026-04-27T10:13:31.23Z</time></trkpt><trkpt lat="51.5554734" lon="4.6412167"><ele>9.0</ele><time>2026-04-27T10:13:33.233Z</time></trkpt><trkpt lat="51.555506" lon="4.6413783"><ele>9.0</ele><time>2026-04-27T10:13:35.207Z</time></trkpt><trkpt lat="51.5555445" lon="4.6415414"><ele>9.0</ele><time>2026-04-27T10:13:37.226Z</time></trkpt><trkpt lat="51.5555713" lon="4.6417152"><ele>9.0</ele><time>2026-04-27T10:13:39.233Z</time></trkpt><trkpt lat="51.5555986" lon="4.6418792"><ele>9.0</ele><time>2026-04-27T10:13:41.232Z</time></trkpt><trkpt lat="51.5556432" lon="4.6420422"><ele>9.0</ele><time>2026-04-27T10:13:43.233Z</time></trkpt><trkpt lat="51.5556777" lon="4.642196"><ele>8.8</ele><time>2026-04-27T10:13:45.224Z</time></trkpt><trkpt lat="51.5557108" lon="4.6423393"><ele>8.600000000000001</ele><time>2026-04-27T10:13:47.217Z</time></trkpt><trkpt lat="51.5557495" lon="4.6424976"><ele>8.4</ele><time>2026-04-27T10:13:49.235Z</time></trkpt><trkpt lat="51.5557763" lon="4.6426615"><ele>8.200000000000001</ele><time>2026-04-27T10:13:51.211Z</time></trkpt><trkpt lat="51.5558127" lon="4.6428154"><ele>8.0</ele><time>2026-04-27T10:13:53.238Z</time></trkpt><trkpt lat="51.5558478" lon="4.6429844"><ele>8.0</ele><time>2026-04-27T10:13:55.237Z</time></trkpt><trkpt lat="51.5558855" lon="4.6431478"><ele>8.0</ele><time>2026-04-27T10:13:57.24Z</time></trkpt><trkpt lat="51.555913" lon="4.6433112"><ele>8.0</ele><time>2026-04-27T10:13:59.246Z</time></trkpt><trkpt lat="51.5559461" lon="4.6434688"><ele>8.0</ele><time>2026-04-27T10:14:01.239Z</time></trkpt><trkpt lat="51.5559772" lon="4.6436224"><ele>8.0</ele><time>2026-04-27T10:14:03.239Z</time></trkpt><trkpt lat="51.5560165" lon="4.64378"><ele>8.0</ele><time>2026-04-27T10:14:05.233Z</time></trkpt><trkpt lat="51.5560446" lon="4.6439496"><ele>8.0</ele><time>2026-04-27T10:14:07.231Z</time></trkpt><trkpt lat="51.5560748" lon="4.6441025"><ele>8.0</ele><time>2026-04-27T10:14:09.194Z</time></trkpt><trkpt lat="51.5561165" lon="4.64425"><ele>8.0</ele><time>2026-04-27T10:14:11.223Z</time></trkpt><trkpt lat="51.5561515" lon="4.644398"><ele>8.0</ele><time>2026-04-27T10:14:13.224Z</time></trkpt><trkpt lat="51.5561959" lon="4.6445555"><ele>8.0</ele><time>2026-04-27T10:14:15.231Z</time></trkpt><trkpt lat="51.556227" lon="4.6447095"><ele>8.0</ele><time>2026-04-27T10:14:17.231Z</time></trkpt><trkpt lat="51.5562592" lon="4.6448724"><ele>8.0</ele><time>2026-04-27T10:14:19.226Z</time></trkpt><trkpt lat="51.556291" lon="4.6450283"><ele>8.0</ele><time>2026-04-27T10:14:21.236Z</time></trkpt><trkpt lat="51.556318" lon="4.645188"><ele>8.0</ele><time>2026-04-27T10:14:23.245Z</time></trkpt><trkpt lat="51.55635" lon="4.6453466"><ele>8.0</ele><time>2026-04-27T10:14:25.228Z</time></trkpt><trkpt lat="51.5563845" lon="4.6455079"><ele>8.0</ele><time>2026-04-27T10:14:27.264Z</time></trkpt><trkpt lat="51.5564189" lon="4.6456667"><ele>8.0</ele><time>2026-04-27T10:14:29.239Z</time></trkpt><trkpt lat="51.5564573" lon="4.6458251"><ele>8.0</ele><time>2026-04-27T10:14:31.233Z</time></trkpt><trkpt lat="51.5564976" lon="4.6459733"><ele>8.0</ele><time>2026-04-27T10:14:33.231Z</time></trkpt><trkpt lat="51.556531" lon="4.6461321"><ele>8.0</ele><time>2026-04-27T10:14:35.212Z</time></trkpt><trkpt lat="51.5565759" lon="4.6462929"><ele>8.0</ele><time>2026-04-27T10:14:37.258Z</time></trkpt><trkpt lat="51.5566166" lon="4.6464401"><ele>8.0</ele><time>2026-04-27T10:14:39.228Z</time></trkpt><trkpt lat="51.5566539" lon="4.6465716"><ele>8.0</ele><time>2026-04-27T10:14:41.218Z</time></trkpt><trkpt lat="51.5566871" lon="4.6466901"><ele>8.0</ele><time>2026-04-27T10:14:43.225Z</time></trkpt><trkpt lat="51.556724" lon="4.64681"><ele>8.0</ele><time>2026-04-27T10:14:45.218Z</time></trkpt><trkpt lat="51.5567475" lon="4.6469406"><ele>8.0</ele><time>2026-04-27T10:14:47.228Z</time></trkpt><trkpt lat="51.5567863" lon="4.6470879"><ele>8.0</ele><time>2026-04-27T10:14:49.194Z</time></trkpt><trkpt lat="51.5568339" lon="4.6472341"><ele>8.0</ele><time>2026-04-27T10:14:51.2Z</time></trkpt><trkpt lat="51.5568705" lon="4.6473764"><ele>8.0</ele><time>2026-04-27T10:14:53.16Z</time></trkpt><trkpt lat="51.5568959" lon="4.647534"><ele>7.800000000000001</ele><time>2026-04-27T10:14:55.173Z</time></trkpt><trkpt lat="51.556927" lon="4.6476921"><ele>7.6000000000000005</ele><time>2026-04-27T10:14:57.194Z</time></trkpt><trkpt lat="51.5569661" lon="4.6478466"><ele>7.3999999999999995</ele><time>2026-04-27T10:14:59.19Z</time></trkpt><trkpt lat="51.5570055" lon="4.6479889"><ele>7.199999999999999</ele><time>2026-04-27T10:15:01.172Z</time></trkpt><trkpt lat="51.557044" lon="4.6481468"><ele>7.0</ele><time>2026-04-27T10:15:03.203Z</time></trkpt><trkpt lat="51.5570846" lon="4.6483034"><ele>7.0</ele><time>2026-04-27T10:15:05.21Z</time></trkpt><trkpt lat="51.5571325" lon="4.6484528"><ele>6.999999999999999</ele><time>2026-04-27T10:15:07.223Z</time></trkpt><trkpt lat="51.5571775" lon="4.6486166"><ele>6.999999999999999</ele><time>2026-04-27T10:15:09.211Z</time></trkpt><trkpt lat="51.5572292" lon="4.648767"><ele>7.0</ele><time>2026-04-27T10:15:11.222Z</time></trkpt><trkpt lat="51.5572765" lon="4.648928"><ele>7.0</ele><time>2026-04-27T10:15:13.23Z</time></trkpt><trkpt lat="51.5573298" lon="4.6490726"><ele>7.0</ele><time>2026-04-27T10:15:15.223Z</time></trkpt><trkpt lat="51.5573732" lon="4.6492179"><ele>6.999999999999999</ele><time>2026-04-27T10:15:17.231Z</time></trkpt><trkpt lat="51.5574215" lon="4.6493469"><ele>6.999999999999999</ele><time>2026-04-27T10:15:19.232Z</time></trkpt><trkpt lat="51.5574615" lon="4.6494824"><ele>7.0</ele><time>2026-04-27T10:15:21.226Z</time></trkpt><trkpt lat="51.5575095" lon="4.6496258"><ele>7.0</ele><time>2026-04-27T10:15:23.234Z</time></trkpt><trkpt lat="51.5575599" lon="4.6497708"><ele>7.0</ele><time>2026-04-27T10:15:25.23Z</time></trkpt><trkpt lat="51.55761" lon="4.6499091"><ele>6.999999999999999</ele><time>2026-04-27T10:15:27.238Z</time></trkpt><trkpt lat="51.5576633" lon="4.650046"><ele>6.999999999999999</ele><time>2026-04-27T10:15:29.228Z</time></trkpt><trkpt lat="51.5577188" lon="4.6501911"><ele>7.0</ele><time>2026-04-27T10:15:31.22Z</time></trkpt><trkpt lat="51.5577784" lon="4.6503323"><ele>7.0</ele><time>2026-04-27T10:15:33.224Z</time></trkpt><trkpt lat="51.5578293" lon="4.650469"><ele>7.0</ele><time>2026-04-27T10:15:35.236Z</time></trkpt><trkpt lat="51.5578793" lon="4.650602"><ele>6.999999999999999</ele><time>2026-04-27T10:15:37.221Z</time></trkpt><trkpt lat="51.5579266" lon="4.6507396"><ele>6.999999999999999</ele><time>2026-04-27T10:15:39.243Z</time></trkpt><trkpt lat="51.5579704" lon="4.65087"><ele>7.0</ele><time>2026-04-27T10:15:41.219Z</time></trkpt><trkpt lat="51.5580295" lon="4.650999"><ele>7.0</ele><time>2026-04-27T10:15:43.22Z</time></trkpt><trkpt lat="51.5580841" lon="4.6511333"><ele>7.0</ele><time>2026-04-27T10:15:45.242Z</time></trkpt><trkpt lat="51.5581512" lon="4.6512594"><ele>6.999999999999999</ele><time>2026-04-27T10:15:47.208Z</time></trkpt><trkpt lat="51.5582031" lon="4.6513906"><ele>6.999999999999999</ele><time>2026-04-27T10:15:49.244Z</time></trkpt><trkpt lat="51.5582623" lon="4.6515211"><ele>7.0</ele><time>2026-04-27T10:15:51.234Z</time></trkpt><trkpt lat="51.5583231" lon="4.6516559"><ele>7.0</ele><time>2026-04-27T10:15:53.237Z</time></trkpt><trkpt lat="51.5583891" lon="4.6517848"><ele>7.0</ele><time>2026-04-27T10:15:55.234Z</time></trkpt><trkpt lat="51.5584561" lon="4.651905"><ele>6.999999999999999</ele><time>2026-04-27T10:15:57.236Z</time></trkpt><trkpt lat="51.5585211" lon="4.6520508"><ele>6.999999999999999</ele><time>2026-04-27T10:15:59.219Z</time></trkpt><trkpt lat="51.5585767" lon="4.6521854"><ele>7.0</ele><time>2026-04-27T10:16:01.195Z</time></trkpt><trkpt lat="51.5586266" lon="4.6523089"><ele>7.0</ele><time>2026-04-27T10:16:03.23Z</time></trkpt><trkpt lat="51.558699" lon="4.6524376"><ele>7.0</ele><time>2026-04-27T10:16:05.193Z</time></trkpt><trkpt lat="51.5587559" lon="4.6525425"><ele>6.999999999999999</ele><time>2026-04-27T10:16:07.207Z</time></trkpt><trkpt lat="51.5588254" lon="4.652667"><ele>6.999999999999999</ele><time>2026-04-27T10:16:09.228Z</time></trkpt><trkpt lat="51.558881" lon="4.652786"><ele>7.0</ele><time>2026-04-27T10:16:11.223Z</time></trkpt><trkpt lat="51.5589531" lon="4.6528968"><ele>7.0</ele><time>2026-04-27T10:16:13.241Z</time></trkpt><trkpt lat="51.559016" lon="4.6530193"><ele>7.0</ele><time>2026-04-27T10:16:15.228Z</time></trkpt><trkpt lat="51.5590874" lon="4.6531308"><ele>6.999999999999999</ele><time>2026-04-27T10:16:17.206Z</time></trkpt><trkpt lat="51.5591616" lon="4.6532461"><ele>6.999999999999999</ele><time>2026-04-27T10:16:19.19Z</time></trkpt><trkpt lat="51.5592375" lon="4.6533669"><ele>7.0</ele><time>2026-04-27T10:16:21.228Z</time></trkpt><trkpt lat="51.5593103" lon="4.6534731"><ele>7.0</ele><time>2026-04-27T10:16:23.216Z</time></trkpt><trkpt lat="51.5593728" lon="4.6535771"><ele>6.8</ele><time>2026-04-27T10:16:25.233Z</time></trkpt><trkpt lat="51.5594377" lon="4.6536797"><ele>6.6</ele><time>2026-04-27T10:16:27.233Z</time></trkpt><trkpt lat="51.5595079" lon="4.6537876"><ele>6.3999999999999995</ele><time>2026-04-27T10:16:29.222Z</time></trkpt><trkpt lat="51.5595764" lon="4.6538897"><ele>6.199999999999999</ele><time>2026-04-27T10:16:31.249Z</time></trkpt><trkpt lat="51.559646" lon="4.6539992"><ele>6.0</ele><time>2026-04-27T10:16:33.246Z</time></trkpt><trkpt lat="51.5597117" lon="4.6540948"><ele>5.8</ele><time>2026-04-27T10:16:35.245Z</time></trkpt><trkpt lat="51.5597788" lon="4.6541912"><ele>5.6</ele><time>2026-04-27T10:16:37.248Z</time></trkpt><trkpt lat="51.5598407" lon="4.6542929"><ele>5.4</ele><time>2026-04-27T10:16:39.217Z</time></trkpt><trkpt lat="51.5599055" lon="4.6543967"><ele>5.2</ele><time>2026-04-27T10:16:41.233Z</time></trkpt><trkpt lat="51.5599838" lon="4.6544903"><ele>5.0</ele><time>2026-04-27T10:16:43.193Z</time></trkpt><trkpt lat="51.5600504" lon="4.6545825"><ele>5.5</ele><time>2026-04-27T10:16:45.23Z</time></trkpt><trkpt lat="51.560104" lon="4.6546594"><ele>6.0</ele><time>2026-04-27T10:16:47.228Z</time></trkpt><trkpt lat="51.5601637" lon="4.6547576"><ele>6.5</ele><time>2026-04-27T10:16:50.21Z</time></trkpt><trkpt lat="51.5602582" lon="4.6547919"><ele>7.0</ele><time>2026-04-27T10:16:53.245Z</time></trkpt><trkpt lat="51.5603374" lon="4.6547941"><ele>7.499999999999999</ele><time>2026-04-27T10:16:55.25Z</time></trkpt><trkpt lat="51.560446" lon="4.6547928"><ele>8.0</ele><time>2026-04-27T10:16:57.181Z</time></trkpt><trkpt lat="51.560541" lon="4.654794"><ele>8.4</ele><time>2026-04-27T10:16:59.232Z</time></trkpt><trkpt lat="51.5606454" lon="4.654817"><ele>8.8</ele><time>2026-04-27T10:17:01.222Z</time></trkpt><trkpt lat="51.5607358" lon="4.6548448"><ele>9.2</ele><time>2026-04-27T10:17:03.228Z</time></trkpt><trkpt lat="51.5608398" lon="4.654876"><ele>9.6</ele><time>2026-04-27T10:17:05.224Z</time></trkpt><trkpt lat="51.5609389" lon="4.6548939"><ele>10.0</ele><time>2026-04-27T10:17:07.242Z</time></trkpt><trkpt lat="51.5610532" lon="4.6549088"><ele>10.0</ele><time>2026-04-27T10:17:09.21Z</time></trkpt><trkpt lat="51.5611676" lon="4.6549255"><ele>10.0</ele><time>2026-04-27T10:17:11.229Z</time></trkpt><trkpt lat="51.5612673" lon="4.6549323"><ele>10.0</ele><time>2026-04-27T10:17:13.213Z</time></trkpt><trkpt lat="51.5613695" lon="4.6549323"><ele>10.0</ele><time>2026-04-27T10:17:15.206Z</time></trkpt><trkpt lat="51.561471" lon="4.6549068"><ele>10.0</ele><time>2026-04-27T10:17:17.233Z</time></trkpt><trkpt lat="51.5615527" lon="4.6548436"><ele>10.0</ele><time>2026-04-27T10:17:19.226Z</time></trkpt><trkpt lat="51.5616106" lon="4.6548033"><ele>10.0</ele><time>2026-04-27T10:17:21.258Z</time></trkpt><trkpt lat="51.561661" lon="4.654889"><ele>10.0</ele><time>2026-04-27T10:17:24.214Z</time></trkpt><trkpt lat="51.5617093" lon="4.6549639"><ele>10.0</ele><time>2026-04-27T10:17:27.232Z</time></trkpt><trkpt lat="51.5618072" lon="4.6549626"><ele>10.0</ele><time>2026-04-27T10:17:30.234Z</time></trkpt><trkpt lat="51.5619197" lon="4.654935"><ele>10.0</ele><time>2026-04-27T10:17:32.231Z</time></trkpt><trkpt lat="51.5620267" lon="4.6549069"><ele>9.6</ele><time>2026-04-27T10:17:34.234Z</time></trkpt><trkpt lat="51.5621274" lon="4.6548696"><ele>9.2</ele><time>2026-04-27T10:17:36.23Z</time></trkpt><trkpt lat="51.5622239" lon="4.6548071"><ele>8.8</ele><time>2026-04-27T10:17:38.232Z</time></trkpt><trkpt lat="51.5623191" lon="4.6547691"><ele>8.4</ele><time>2026-04-27T10:17:40.221Z</time></trkpt><trkpt lat="51.5624062" lon="4.6547308"><ele>8.0</ele><time>2026-04-27T10:17:42.21Z</time></trkpt><trkpt lat="51.5624831" lon="4.6546946"><ele>8.0</ele><time>2026-04-27T10:17:44.221Z</time></trkpt><trkpt lat="51.5625644" lon="4.6546586"><ele>8.0</ele><time>2026-04-27T10:17:46.213Z</time></trkpt><trkpt lat="51.5626692" lon="4.6546224"><ele>8.0</ele><time>2026-04-27T10:17:48.225Z</time></trkpt><trkpt lat="51.5627693" lon="4.6545787"><ele>8.0</ele><time>2026-04-27T10:17:50.226Z</time></trkpt><trkpt lat="51.5628758" lon="4.6545207"><ele>8.0</ele><time>2026-04-27T10:17:52.219Z</time></trkpt><trkpt lat="51.5629935" lon="4.654465"><ele>8.0</ele><time>2026-04-27T10:17:54.209Z</time></trkpt><trkpt lat="51.5630524" lon="4.6544287"><ele>8.0</ele><time>2026-04-27T10:17:55.25Z</time></trkpt><trkpt lat="51.5631619" lon="4.6543579"><ele>8.0</ele><time>2026-04-27T10:17:57.248Z</time></trkpt><trkpt lat="51.5632636" lon="4.6543006"><ele>8.0</ele><time>2026-04-27T10:17:59.228Z</time></trkpt><trkpt lat="51.5633684" lon="4.6542552"><ele>8.0</ele><time>2026-04-27T10:18:01.222Z</time></trkpt><trkpt lat="51.5634713" lon="4.6542019"><ele>8.0</ele><time>2026-04-27T10:18:03.238Z</time></trkpt><trkpt lat="51.563569" lon="4.65414"><ele>8.0</ele><time>2026-04-27T10:18:05.22Z</time></trkpt><trkpt lat="51.5636706" lon="4.6540811"><ele>8.0</ele><time>2026-04-27T10:18:07.244Z</time></trkpt><trkpt lat="51.5637634" lon="4.6540185"><ele>8.0</ele><time>2026-04-27T10:18:09.203Z</time></trkpt><trkpt lat="51.5638771" lon="4.6539625"><ele>8.0</ele><time>2026-04-27T10:18:11.234Z</time></trkpt><trkpt lat="51.5639821" lon="4.653909"><ele>7.6000000000000005</ele><time>2026-04-27T10:18:13.253Z</time></trkpt><trkpt lat="51.5640844" lon="4.6538447"><ele>7.200000000000001</ele><time>2026-04-27T10:18:15.225Z</time></trkpt><trkpt lat="51.5641859" lon="4.6537996"><ele>6.8</ele><time>2026-04-27T10:18:17.227Z</time></trkpt><trkpt lat="51.564278" lon="4.653766"><ele>6.4</ele><time>2026-04-27T10:18:19.226Z</time></trkpt><trkpt lat="51.5643821" lon="4.6537207"><ele>6.0</ele><time>2026-04-27T10:18:21.237Z</time></trkpt><trkpt lat="51.5644772" lon="4.6536678"><ele>6.199999999999999</ele><time>2026-04-27T10:18:23.237Z</time></trkpt><trkpt lat="51.564577" lon="4.6535994"><ele>6.3999999999999995</ele><time>2026-04-27T10:18:25.232Z</time></trkpt><trkpt lat="51.5646779" lon="4.6535371"><ele>6.6</ele><time>2026-04-27T10:18:27.227Z</time></trkpt><trkpt lat="51.5647736" lon="4.6534875"><ele>6.8</ele><time>2026-04-27T10:18:29.238Z</time></trkpt><trkpt lat="51.5648647" lon="4.6534187"><ele>7.0</ele><time>2026-04-27T10:18:31.249Z</time></trkpt><trkpt lat="51.564966" lon="4.653351"><ele>7.0</ele><time>2026-04-27T10:18:33.234Z</time></trkpt><trkpt lat="51.5650596" lon="4.6532964"><ele>6.999999999999999</ele><time>2026-04-27T10:18:35.246Z</time></trkpt><trkpt lat="51.5651634" lon="4.6532298"><ele>6.999999999999999</ele><time>2026-04-27T10:18:37.226Z</time></trkpt><trkpt lat="51.5652571" lon="4.6531622"><ele>7.0</ele><time>2026-04-27T10:18:39.219Z</time></trkpt><trkpt lat="51.5653555" lon="4.6531002"><ele>7.0</ele><time>2026-04-27T10:18:41.245Z</time></trkpt><trkpt lat="51.5654511" lon="4.6530421"><ele>7.0</ele><time>2026-04-27T10:18:43.228Z</time></trkpt><trkpt lat="51.5655397" lon="4.6529769"><ele>6.999999999999999</ele><time>2026-04-27T10:18:45.2Z</time></trkpt><trkpt lat="51.5656248" lon="4.6528918"><ele>6.999999999999999</ele><time>2026-04-27T10:18:47.218Z</time></trkpt><trkpt lat="51.565713" lon="4.6528012"><ele>7.0</ele><time>2026-04-27T10:18:49.234Z</time></trkpt><trkpt lat="51.5658007" lon="4.6527053"><ele>7.0</ele><time>2026-04-27T10:18:51.217Z</time></trkpt><trkpt lat="51.5658908" lon="4.6525921"><ele>7.0</ele><time>2026-04-27T10:18:53.222Z</time></trkpt><trkpt lat="51.5659816" lon="4.6524805"><ele>6.999999999999999</ele><time>2026-04-27T10:18:55.25Z</time></trkpt><trkpt lat="51.5660754" lon="4.6523826"><ele>6.999999999999999</ele><time>2026-04-27T10:18:57.201Z</time></trkpt><trkpt lat="51.5661757" lon="4.6522829"><ele>7.0</ele><time>2026-04-27T10:18:59.25Z</time></trkpt><trkpt lat="51.566261" lon="4.6522065"><ele>7.0</ele><time>2026-04-27T10:19:01.252Z</time></trkpt><trkpt lat="51.5663503" lon="4.6521385"><ele>7.0</ele><time>2026-04-27T10:19:03.201Z</time></trkpt><trkpt lat="51.5664503" lon="4.6520817"><ele>6.999999999999999</ele><time>2026-04-27T10:19:05.227Z</time></trkpt><trkpt lat="51.5665412" lon="4.6520272"><ele>6.999999999999999</ele><time>2026-04-27T10:19:07.217Z</time></trkpt><trkpt lat="51.566636" lon="4.6519888"><ele>7.0</ele><time>2026-04-27T10:19:09.229Z</time></trkpt><trkpt lat="51.5667299" lon="4.6519579"><ele>7.0</ele><time>2026-04-27T10:19:11.229Z</time></trkpt><trkpt lat="51.5668285" lon="4.6519385"><ele>7.0</ele><time>2026-04-27T10:19:13.243Z</time></trkpt><trkpt lat="51.5669145" lon="4.6519016"><ele>6.999999999999999</ele><time>2026-04-27T10:19:15.24Z</time></trkpt><trkpt lat="51.5670064" lon="4.6518812"><ele>6.999999999999999</ele><time>2026-04-27T10:19:17.202Z</time></trkpt><trkpt lat="51.5671009" lon="4.6518542"><ele>7.0</ele><time>2026-04-27T10:19:19.244Z</time></trkpt><trkpt lat="51.567198" lon="4.6518089"><ele>7.0</ele><time>2026-04-27T10:19:21.241Z</time></trkpt><trkpt lat="51.5672896" lon="4.6517393"><ele>6.8</ele><time>2026-04-27T10:19:23.212Z</time></trkpt><trkpt lat="51.5673831" lon="4.6516785"><ele>6.6</ele><time>2026-04-27T10:19:25.224Z</time></trkpt><trkpt lat="51.5674727" lon="4.6516132"><ele>6.3999999999999995</ele><time>2026-04-27T10:19:27.212Z</time></trkpt><trkpt lat="51.5675517" lon="4.6515517"><ele>6.199999999999999</ele><time>2026-04-27T10:19:29.233Z</time></trkpt><trkpt lat="51.5676402" lon="4.6514717"><ele>6.0</ele><time>2026-04-27T10:19:31.225Z</time></trkpt><trkpt lat="51.5677254" lon="4.651407"><ele>6.0</ele><time>2026-04-27T10:19:33.244Z</time></trkpt><trkpt lat="51.5678113" lon="4.6513324"><ele>6.0</ele><time>2026-04-27T10:19:35.218Z</time></trkpt><trkpt lat="51.5678961" lon="4.6512581"><ele>6.0</ele><time>2026-04-27T10:19:37.224Z</time></trkpt><trkpt lat="51.5679804" lon="4.6511917"><ele>6.0</ele><time>2026-04-27T10:19:39.238Z</time></trkpt><trkpt lat="51.5680572" lon="4.6511317"><ele>6.0</ele><time>2026-04-27T10:19:41.236Z</time></trkpt><trkpt lat="51.5681444" lon="4.6510582"><ele>6.0</ele><time>2026-04-27T10:19:43.233Z</time></trkpt><trkpt lat="51.568228" lon="4.6509911"><ele>6.0</ele><time>2026-04-27T10:19:45.219Z</time></trkpt><trkpt lat="51.5683038" lon="4.6509144"><ele>6.0</ele><time>2026-04-27T10:19:47.209Z</time></trkpt><trkpt lat="51.5683864" lon="4.650818"><ele>6.0</ele><time>2026-04-27T10:19:49.226Z</time></trkpt><trkpt lat="51.568454" lon="4.6507453"><ele>6.0</ele><time>2026-04-27T10:19:51.214Z</time></trkpt><trkpt lat="51.5685169" lon="4.6506554"><ele>6.0</ele><time>2026-04-27T10:19:53.227Z</time></trkpt><trkpt lat="51.5685806" lon="4.6506043"><ele>6.0</ele><time>2026-04-27T10:19:55.228Z</time></trkpt><trkpt lat="51.5686562" lon="4.6505251"><ele>6.0</ele><time>2026-04-27T10:19:57.209Z</time></trkpt><trkpt lat="51.5687254" lon="4.6505346"><ele>6.0</ele><time>2026-04-27T10:19:59.218Z</time></trkpt><trkpt lat="51.5687787" lon="4.6506568"><ele>6.0</ele><time>2026-04-27T10:20:01.234Z</time></trkpt><trkpt lat="51.5688274" lon="4.650759"><ele>6.0</ele><time>2026-04-27T10:20:03.231Z</time></trkpt><trkpt lat="51.5688958" lon="4.6508541"><ele>5.8</ele><time>2026-04-27T10:20:05.224Z</time></trkpt><trkpt lat="51.5689681" lon="4.6509511"><ele>5.6</ele><time>2026-04-27T10:20:07.194Z</time></trkpt><trkpt lat="51.5690287" lon="4.6510544"><ele>5.4</ele><time>2026-04-27T10:20:09.222Z</time></trkpt><trkpt lat="51.5690926" lon="4.6511453"><ele>5.2</ele><time>2026-04-27T10:20:11.225Z</time></trkpt><trkpt lat="51.5691808" lon="4.6512156"><ele>5.0</ele><time>2026-04-27T10:20:13.224Z</time></trkpt><trkpt lat="51.5692592" lon="4.6512917"><ele>5.0</ele><time>2026-04-27T10:20:15.244Z</time></trkpt><trkpt lat="51.5693459" lon="4.6513455"><ele>5.0</ele><time>2026-04-27T10:20:17.23Z</time></trkpt><trkpt lat="51.5694337" lon="4.6514116"><ele>5.0</ele><time>2026-04-27T10:20:19.227Z</time></trkpt><trkpt lat="51.5695164" lon="4.6514765"><ele>5.0</ele><time>2026-04-27T10:20:21.214Z</time></trkpt><trkpt lat="51.569603" lon="4.6515506"><ele>5.0</ele><time>2026-04-27T10:20:23.215Z</time></trkpt><trkpt lat="51.5696909" lon="4.6516226"><ele>5.0</ele><time>2026-04-27T10:20:25.247Z</time></trkpt><trkpt lat="51.5697748" lon="4.6517018"><ele>5.0</ele><time>2026-04-27T10:20:27.166Z</time></trkpt><trkpt lat="51.5698481" lon="4.6517893"><ele>5.0</ele><time>2026-04-27T10:20:29.235Z</time></trkpt><trkpt lat="51.5699169" lon="4.651868"><ele>5.0</ele><time>2026-04-27T10:20:31.224Z</time></trkpt><trkpt lat="51.5699818" lon="4.6519693"><ele>5.0</ele><time>2026-04-27T10:20:33.23Z</time></trkpt><trkpt lat="51.5700396" lon="4.6520949"><ele>5.2</ele><time>2026-04-27T10:20:35.233Z</time></trkpt><trkpt lat="51.5700799" lon="4.6522391"><ele>5.4</ele><time>2026-04-27T10:20:37.217Z</time></trkpt><trkpt lat="51.5701227" lon="4.6523754"><ele>5.6</ele><time>2026-04-27T10:20:39.245Z</time></trkpt><trkpt lat="51.5701596" lon="4.6525116"><ele>5.8</ele><time>2026-04-27T10:20:41.222Z</time></trkpt><trkpt lat="51.5702121" lon="4.6526334"><ele>6.0</ele><time>2026-04-27T10:20:43.226Z</time></trkpt><trkpt lat="51.5702635" lon="4.6527624"><ele>6.199999999999999</ele><time>2026-04-27T10:20:45.211Z</time></trkpt><trkpt lat="51.5703184" lon="4.6528826"><ele>6.3999999999999995</ele><time>2026-04-27T10:20:47.2Z</time></trkpt><trkpt lat="51.5703646" lon="4.6530063"><ele>6.6</ele><time>2026-04-27T10:20:49.221Z</time></trkpt><trkpt lat="51.5704034" lon="4.6531339"><ele>6.8</ele><time>2026-04-27T10:20:51.229Z</time></trkpt><trkpt lat="51.5704305" lon="4.6532741"><ele>7.0</ele><time>2026-04-27T10:20:53.235Z</time></trkpt><trkpt lat="51.5704677" lon="4.6534088"><ele>7.166666666666667</ele><time>2026-04-27T10:20:55.223Z</time></trkpt><trkpt lat="51.5704942" lon="4.6535506"><ele>7.333333333333334</ele><time>2026-04-27T10:20:57.226Z</time></trkpt><trkpt lat="51.570514" lon="4.653686"><ele>7.5</ele><time>2026-04-27T10:20:59.22Z</time></trkpt><trkpt lat="51.5705165" lon="4.6538178"><ele>7.666666666666666</ele><time>2026-04-27T10:21:01.221Z</time></trkpt><trkpt lat="51.5705116" lon="4.6539502"><ele>7.833333333333333</ele><time>2026-04-27T10:21:03.22Z</time></trkpt><trkpt lat="51.5704985" lon="4.6540823"><ele>8.0</ele><time>2026-04-27T10:21:05.239Z</time></trkpt><trkpt lat="51.5704729" lon="4.6541891"><ele>8.0</ele><time>2026-04-27T10:21:07.217Z</time></trkpt><trkpt lat="51.5705055" lon="4.6543349"><ele>8.0</ele><time>2026-04-27T10:21:10.235Z</time></trkpt><trkpt lat="51.5705674" lon="4.6544564"><ele>8.0</ele><time>2026-04-27T10:21:12.219Z</time></trkpt><trkpt lat="51.5706343" lon="4.6545566"><ele>8.0</ele><time>2026-04-27T10:21:14.224Z</time></trkpt><trkpt lat="51.5707072" lon="4.6546665"><ele>8.0</ele><time>2026-04-27T10:21:16.238Z</time></trkpt><trkpt lat="51.5707773" lon="4.654762"><ele>8.0</ele><time>2026-04-27T10:21:18.23Z</time></trkpt><trkpt lat="51.5708559" lon="4.6548539"><ele>8.0</ele><time>2026-04-27T10:21:20.208Z</time></trkpt><trkpt lat="51.5709447" lon="4.6549561"><ele>8.0</ele><time>2026-04-27T10:21:22.245Z</time></trkpt><trkpt lat="51.5710473" lon="4.6550603"><ele>8.0</ele><time>2026-04-27T10:21:24.224Z</time></trkpt><trkpt lat="51.5711533" lon="4.6551538"><ele>8.0</ele><time>2026-04-27T10:21:26.194Z</time></trkpt><trkpt lat="51.5712125" lon="4.6552226"><ele>7.75</ele><time>2026-04-27T10:21:27.16Z</time></trkpt><trkpt lat="51.5712797" lon="4.6553019"><ele>7.5</ele><time>2026-04-27T10:21:29.233Z</time></trkpt><trkpt lat="51.5713897" lon="4.6555098"><ele>7.25</ele><time>2026-04-27T10:21:34.236Z</time></trkpt><trkpt lat="51.5715208" lon="4.6555705"><ele>7.0</ele><time>2026-04-27T10:21:36.23Z</time></trkpt><trkpt lat="51.5715886" lon="4.6555931"><ele>7.0</ele><time>2026-04-27T10:21:37.209Z</time></trkpt><trkpt lat="51.5717072" lon="4.6556365"><ele>6.999999999999999</ele><time>2026-04-27T10:21:39.228Z</time></trkpt><trkpt lat="51.5717967" lon="4.6556737"><ele>6.999999999999999</ele><time>2026-04-27T10:21:41.248Z</time></trkpt><trkpt lat="51.5718651" lon="4.6557229"><ele>7.0</ele><time>2026-04-27T10:21:43.239Z</time></trkpt><trkpt lat="51.5719633" lon="4.6557679"><ele>7.0</ele><time>2026-04-27T10:21:45.23Z</time></trkpt><trkpt lat="51.5720553" lon="4.6558064"><ele>7.000000000000001</ele><time>2026-04-27T10:21:47.198Z</time></trkpt><trkpt lat="51.5721492" lon="4.6558413"><ele>7.0</ele><time>2026-04-27T10:21:49.245Z</time></trkpt><trkpt lat="51.5722232" lon="4.6558727"><ele>7.0</ele><time>2026-04-27T10:21:51.184Z</time></trkpt><trkpt lat="51.5722927" lon="4.6559243"><ele>7.0</ele><time>2026-04-27T10:21:53.187Z</time></trkpt><trkpt lat="51.5723685" lon="4.6559662"><ele>7.000000000000001</ele><time>2026-04-27T10:21:55.202Z</time></trkpt><trkpt lat="51.5724439" lon="4.6560118"><ele>7.0</ele><time>2026-04-27T10:21:57.224Z</time></trkpt><trkpt lat="51.5725209" lon="4.6560615"><ele>7.000000000000001</ele><time>2026-04-27T10:21:59.22Z</time></trkpt><trkpt lat="51.5726032" lon="4.6561107"><ele>7.0</ele><time>2026-04-27T10:22:01.254Z</time></trkpt><trkpt lat="51.5726708" lon="4.656164"><ele>7.0</ele><time>2026-04-27T10:22:03.205Z</time></trkpt><trkpt lat="51.5727361" lon="4.6562112"><ele>7.0</ele><time>2026-04-27T10:22:05.227Z</time></trkpt><trkpt lat="51.5728299" lon="4.6562796"><ele>7.000000000000001</ele><time>2026-04-27T10:22:07.231Z</time></trkpt><trkpt lat="51.5729132" lon="4.6563342"><ele>7.0</ele><time>2026-04-27T10:22:09.22Z</time></trkpt><trkpt lat="51.5730133" lon="4.6563917"><ele>7.000000000000001</ele><time>2026-04-27T10:22:11.217Z</time></trkpt><trkpt lat="51.5731088" lon="4.656461"><ele>7.0</ele><time>2026-04-27T10:22:13.234Z</time></trkpt><trkpt lat="51.5731906" lon="4.65652"><ele>7.0</ele><time>2026-04-27T10:22:15.221Z</time></trkpt><trkpt lat="51.5732666" lon="4.6565568"><ele>7.0</ele><time>2026-04-27T10:22:17.225Z</time></trkpt><trkpt lat="51.5733427" lon="4.6565907"><ele>7.000000000000001</ele><time>2026-04-27T10:22:19.207Z</time></trkpt><trkpt lat="51.5734228" lon="4.6566362"><ele>7.0</ele><time>2026-04-27T10:22:21.222Z</time></trkpt><trkpt lat="51.573523" lon="4.6566759"><ele>7.0</ele><time>2026-04-27T10:22:23.219Z</time></trkpt><trkpt lat="51.573627" lon="4.6567205"><ele>6.999999999999999</ele><time>2026-04-27T10:22:25.229Z</time></trkpt><trkpt lat="51.5737221" lon="4.6567661"><ele>6.999999999999999</ele><time>2026-04-27T10:22:27.236Z</time></trkpt><trkpt lat="51.5738147" lon="4.6567852"><ele>7.0</ele><time>2026-04-27T10:22:29.234Z</time></trkpt><trkpt lat="51.5739121" lon="4.656785"><ele>7.0</ele><time>2026-04-27T10:22:31.197Z</time></trkpt><trkpt lat="51.5740017" lon="4.6567842"><ele>7.0</ele><time>2026-04-27T10:22:33.248Z</time></trkpt><trkpt lat="51.5741211" lon="4.6567782"><ele>7.0</ele><time>2026-04-27T10:22:35.249Z</time></trkpt><trkpt lat="51.5742426" lon="4.6567484"><ele>7.0</ele><time>2026-04-27T10:22:37.271Z</time></trkpt><trkpt lat="51.5743529" lon="4.6566899"><ele>7.0</ele><time>2026-04-27T10:22:39.225Z</time></trkpt><trkpt lat="51.5744634" lon="4.6566479"><ele>6.8</ele><time>2026-04-27T10:22:41.237Z</time></trkpt><trkpt lat="51.5745302" lon="4.6566188"><ele>6.6</ele><time>2026-04-27T10:22:42.222Z</time></trkpt><trkpt lat="51.5745959" lon="4.6565977"><ele>6.3999999999999995</ele><time>2026-04-27T10:22:43.235Z</time></trkpt><trkpt lat="51.574697" lon="4.656543"><ele>6.199999999999999</ele><time>2026-04-27T10:22:45.242Z</time></trkpt><trkpt lat="51.5748095" lon="4.6564734"><ele>6.0</ele><time>2026-04-27T10:22:47.245Z</time></trkpt><trkpt lat="51.5749213" lon="4.6564178"><ele>6.0</ele><time>2026-04-27T10:22:49.25Z</time></trkpt><trkpt lat="51.5750148" lon="4.6563416"><ele>6.0</ele><time>2026-04-27T10:22:51.235Z</time></trkpt><trkpt lat="51.57511" lon="4.6562716"><ele>6.0</ele><time>2026-04-27T10:22:53.233Z</time></trkpt><trkpt lat="51.5752032" lon="4.6561985"><ele>6.0</ele><time>2026-04-27T10:22:55.25Z</time></trkpt><trkpt lat="51.5752927" lon="4.6561514"><ele>6.0</ele><time>2026-04-27T10:22:57.232Z</time></trkpt><trkpt lat="51.5753823" lon="4.6560841"><ele>5.6</ele><time>2026-04-27T10:22:59.223Z</time></trkpt><trkpt lat="51.5754651" lon="4.6560134"><ele>5.199999999999999</ele><time>2026-04-27T10:23:01.234Z</time></trkpt><trkpt lat="51.5755499" lon="4.6559258"><ele>4.800000000000001</ele><time>2026-04-27T10:23:03.198Z</time></trkpt><trkpt lat="51.575631" lon="4.6558428"><ele>4.4</ele><time>2026-04-27T10:23:05.232Z</time></trkpt><trkpt lat="51.5757169" lon="4.655743"><ele>4.0</ele><time>2026-04-27T10:23:07.22Z</time></trkpt><trkpt lat="51.5757947" lon="4.6556256"><ele>4.0</ele><time>2026-04-27T10:23:09.228Z</time></trkpt><trkpt lat="51.5758665" lon="4.655518"><ele>4.0</ele><time>2026-04-27T10:23:11.224Z</time></trkpt><trkpt lat="51.5759357" lon="4.6553892"><ele>4.0</ele><time>2026-04-27T10:23:13.227Z</time></trkpt><trkpt lat="51.5759955" lon="4.6552708"><ele>4.0</ele><time>2026-04-27T10:23:15.241Z</time></trkpt><trkpt lat="51.5760489" lon="4.6551526"><ele>4.0</ele><time>2026-04-27T10:23:17.232Z</time></trkpt><trkpt lat="51.5760895" lon="4.655032"><ele>4.166666666666666</ele><time>2026-04-27T10:23:19.219Z</time></trkpt><trkpt lat="51.5761374" lon="4.6549333"><ele>4.333333333333333</ele><time>2026-04-27T10:23:21.24Z</time></trkpt><trkpt lat="51.5762101" lon="4.6549158"><ele>4.5</ele><time>2026-04-27T10:23:24.222Z</time></trkpt><trkpt lat="51.5762906" lon="4.6549921"><ele>4.666666666666667</ele><time>2026-04-27T10:23:27.236Z</time></trkpt><trkpt lat="51.5763413" lon="4.6550732"><ele>4.833333333333334</ele><time>2026-04-27T10:23:29.228Z</time></trkpt><trkpt lat="51.5764007" lon="4.6551638"><ele>5.0</ele><time>2026-04-27T10:23:31.244Z</time></trkpt><trkpt lat="51.5764486" lon="4.6552544"><ele>4.833333333333334</ele><time>2026-04-27T10:23:33.241Z</time></trkpt><trkpt lat="51.5764893" lon="4.6553558"><ele>4.666666666666667</ele><time>2026-04-27T10:23:35.242Z</time></trkpt><trkpt lat="51.5765365" lon="4.6554656"><ele>4.5</ele><time>2026-04-27T10:23:37.265Z</time></trkpt><trkpt lat="51.576603" lon="4.6555648"><ele>4.333333333333333</ele><time>2026-04-27T10:23:39.246Z</time></trkpt><trkpt lat="51.5766657" lon="4.6556725"><ele>4.166666666666666</ele><time>2026-04-27T10:23:41.229Z</time></trkpt><trkpt lat="51.5767394" lon="4.6557792"><ele>4.0</ele><time>2026-04-27T10:23:43.244Z</time></trkpt><trkpt lat="51.5768127" lon="4.6559028"><ele>4.0</ele><time>2026-04-27T10:23:45.244Z</time></trkpt><trkpt lat="51.5768859" lon="4.6560208"><ele>4.0</ele><time>2026-04-27T10:23:47.244Z</time></trkpt><trkpt lat="51.5769482" lon="4.6561579"><ele>4.0</ele><time>2026-04-27T10:23:49.192Z</time></trkpt><trkpt lat="51.577013" lon="4.6562904"><ele>4.0</ele><time>2026-04-27T10:23:51.228Z</time></trkpt><trkpt lat="51.577073" lon="4.6564247"><ele>4.0</ele><time>2026-04-27T10:23:53.256Z</time></trkpt><trkpt lat="51.5771349" lon="4.6565627"><ele>3.8000000000000003</ele><time>2026-04-27T10:23:55.233Z</time></trkpt><trkpt lat="51.5772123" lon="4.6566969"><ele>3.6000000000000005</ele><time>2026-04-27T10:23:57.226Z</time></trkpt><trkpt lat="51.5772728" lon="4.6568451"><ele>3.4</ele><time>2026-04-27T10:23:59.228Z</time></trkpt><trkpt lat="51.5773423" lon="4.6569986"><ele>3.2</ele><time>2026-04-27T10:24:01.236Z</time></trkpt><trkpt lat="51.5773944" lon="4.6571256"><ele>3.0</ele><time>2026-04-27T10:24:03.236Z</time></trkpt><trkpt lat="51.5774596" lon="4.6572467"><ele>3.0</ele><time>2026-04-27T10:24:05.228Z</time></trkpt><trkpt lat="51.5775343" lon="4.6573649"><ele>3.0</ele><time>2026-04-27T10:24:07.228Z</time></trkpt><trkpt lat="51.5776067" lon="4.657481"><ele>3.0</ele><time>2026-04-27T10:24:09.227Z</time></trkpt><trkpt lat="51.577688" lon="4.6575715"><ele>3.0</ele><time>2026-04-27T10:24:11.243Z</time></trkpt><trkpt lat="51.5777919" lon="4.6576342"><ele>3.0</ele><time>2026-04-27T10:24:13.234Z</time></trkpt><trkpt lat="51.5778985" lon="4.6577171"><ele>3.0</ele><time>2026-04-27T10:24:15.227Z</time></trkpt><trkpt lat="51.5779907" lon="4.6577798"><ele>3.0</ele><time>2026-04-27T10:24:17.206Z</time></trkpt><trkpt lat="51.5780943" lon="4.6578233"><ele>3.0</ele><time>2026-04-27T10:24:19.239Z</time></trkpt><trkpt lat="51.5781845" lon="4.65788"><ele>3.0</ele><time>2026-04-27T10:24:21.244Z</time></trkpt><trkpt lat="51.5782799" lon="4.6579348"><ele>3.0</ele><time>2026-04-27T10:24:23.231Z</time></trkpt><trkpt lat="51.5783686" lon="4.6579938"><ele>2.8</ele><time>2026-04-27T10:24:25.246Z</time></trkpt><trkpt lat="51.578458" lon="4.6580616"><ele>2.5999999999999996</ele><time>2026-04-27T10:24:27.216Z</time></trkpt><trkpt lat="51.5785547" lon="4.6581206"><ele>2.4000000000000004</ele><time>2026-04-27T10:24:29.229Z</time></trkpt><trkpt lat="51.5786398" lon="4.658182"><ele>2.2</ele><time>2026-04-27T10:24:31.241Z</time></trkpt><trkpt lat="51.5787338" lon="4.6582478"><ele>2.0</ele><time>2026-04-27T10:24:33.226Z</time></trkpt><trkpt lat="51.5788376" lon="4.6583109"><ele>2.0</ele><time>2026-04-27T10:24:35.229Z</time></trkpt><trkpt lat="51.5789414" lon="4.6583562"><ele>2.0</ele><time>2026-04-27T10:24:37.239Z</time></trkpt><trkpt lat="51.5790526" lon="4.6583921"><ele>2.0</ele><time>2026-04-27T10:24:39.22Z</time></trkpt><trkpt lat="51.5791526" lon="4.6584396"><ele>2.0</ele><time>2026-04-27T10:24:41.247Z</time></trkpt><trkpt lat="51.5792545" lon="4.6584978"><ele>2.0</ele><time>2026-04-27T10:24:43.245Z</time></trkpt><trkpt lat="51.5793451" lon="4.6585568"><ele>2.0</ele><time>2026-04-27T10:24:45.249Z</time></trkpt><trkpt lat="51.5794379" lon="4.65863"><ele>2.0</ele><time>2026-04-27T10:24:47.25Z</time></trkpt><trkpt lat="51.5795269" lon="4.6586839"><ele>2.0</ele><time>2026-04-27T10:24:49.256Z</time></trkpt><trkpt lat="51.5796032" lon="4.6587423"><ele>2.0</ele><time>2026-04-27T10:24:51.233Z</time></trkpt><trkpt lat="51.5796836" lon="4.6588136"><ele>2.0</ele><time>2026-04-27T10:24:53.241Z</time></trkpt><trkpt lat="51.5797676" lon="4.6588798"><ele>2.142857142857143</ele><time>2026-04-27T10:24:55.2Z</time></trkpt><trkpt lat="51.5798455" lon="4.6589265"><ele>2.2857142857142856</ele><time>2026-04-27T10:24:57.237Z</time></trkpt><trkpt lat="51.5799156" lon="4.6589729"><ele>2.4285714285714284</ele><time>2026-04-27T10:24:59.24Z</time></trkpt><trkpt lat="51.5799781" lon="4.6590247"><ele>2.571428571428571</ele><time>2026-04-27T10:25:01.24Z</time></trkpt><trkpt lat="51.5800414" lon="4.6590664"><ele>2.7142857142857144</ele><time>2026-04-27T10:25:03.223Z</time></trkpt><trkpt lat="51.5801024" lon="4.6591021"><ele>2.8571428571428568</ele><time>2026-04-27T10:25:05.234Z</time></trkpt><trkpt lat="51.5801624" lon="4.6591548"><ele>3.0</ele><time>2026-04-27T10:25:07.228Z</time></trkpt><trkpt lat="51.5802443" lon="4.6591985"><ele>3.0</ele><time>2026-04-27T10:25:10.254Z</time></trkpt><trkpt lat="51.5802995" lon="4.6592915"><ele>3.0</ele><time>2026-04-27T10:25:13.217Z</time></trkpt><trkpt lat="51.5803443" lon="4.6593974"><ele>3.0</ele><time>2026-04-27T10:25:16.231Z</time></trkpt><trkpt lat="51.5804174" lon="4.6594951"><ele>3.0</ele><time>2026-04-27T10:25:19.259Z</time></trkpt><trkpt lat="51.5804881" lon="4.6595736"><ele>3.0</ele><time>2026-04-27T10:25:21.239Z</time></trkpt><trkpt lat="51.5805647" lon="4.659679"><ele>3.0</ele><time>2026-04-27T10:25:23.249Z</time></trkpt><trkpt lat="51.5806306" lon="4.6597907"><ele>2.8</ele><time>2026-04-27T10:25:25.246Z</time></trkpt><trkpt lat="51.5807023" lon="4.6599083"><ele>2.5999999999999996</ele><time>2026-04-27T10:25:27.228Z</time></trkpt><trkpt lat="51.5807704" lon="4.6600531"><ele>2.4000000000000004</ele><time>2026-04-27T10:25:29.243Z</time></trkpt><trkpt lat="51.5808294" lon="4.6602013"><ele>2.2</ele><time>2026-04-27T10:25:31.231Z</time></trkpt><trkpt lat="51.580874" lon="4.6603528"><ele>2.0</ele><time>2026-04-27T10:25:33.234Z</time></trkpt><trkpt lat="51.5809235" lon="4.660512"><ele>2.0</ele><time>2026-04-27T10:25:35.236Z</time></trkpt><trkpt lat="51.5809567" lon="4.6606702"><ele>2.0</ele><time>2026-04-27T10:25:37.231Z</time></trkpt><trkpt lat="51.5809967" lon="4.6608247"><ele>2.0</ele><time>2026-04-27T10:25:39.228Z</time></trkpt><trkpt lat="51.5810406" lon="4.6609937"><ele>2.0</ele><time>2026-04-27T10:25:41.229Z</time></trkpt><trkpt lat="51.581082" lon="4.6611501"><ele>2.0</ele><time>2026-04-27T10:25:43.236Z</time></trkpt><trkpt lat="51.5811182" lon="4.6613186"><ele>2.0</ele><time>2026-04-27T10:25:45.225Z</time></trkpt><trkpt lat="51.5811623" lon="4.6614803"><ele>2.0</ele><time>2026-04-27T10:25:47.23Z</time></trkpt><trkpt lat="51.5812057" lon="4.6616394"><ele>2.0</ele><time>2026-04-27T10:25:49.24Z</time></trkpt><trkpt lat="51.581246" lon="4.6617985"><ele>2.0</ele><time>2026-04-27T10:25:51.237Z</time></trkpt><trkpt lat="51.581284" lon="4.6619676"><ele>2.0</ele><time>2026-04-27T10:25:53.237Z</time></trkpt><trkpt lat="51.5813248" lon="4.6621321"><ele>2.2</ele><time>2026-04-27T10:25:55.253Z</time></trkpt><trkpt lat="51.581364" lon="4.6622939"><ele>2.4000000000000004</ele><time>2026-04-27T10:25:57.233Z</time></trkpt><trkpt lat="51.581407" lon="4.6624679"><ele>2.5999999999999996</ele><time>2026-04-27T10:25:59.219Z</time></trkpt><trkpt lat="51.581456" lon="4.6626356"><ele>2.8</ele><time>2026-04-27T10:26:01.226Z</time></trkpt><trkpt lat="51.5814982" lon="4.6627977"><ele>3.0</ele><time>2026-04-27T10:26:03.238Z</time></trkpt><trkpt lat="51.5815431" lon="4.6629693"><ele>3.0</ele><time>2026-04-27T10:26:05.232Z</time></trkpt><trkpt lat="51.5815891" lon="4.6631393"><ele>3.0</ele><time>2026-04-27T10:26:07.218Z</time></trkpt><trkpt lat="51.5816309" lon="4.6633012"><ele>3.0</ele><time>2026-04-27T10:26:09.235Z</time></trkpt><trkpt lat="51.5816673" lon="4.6634627"><ele>3.0</ele><time>2026-04-27T10:26:11.237Z</time></trkpt><trkpt lat="51.5817067" lon="4.6636294"><ele>3.0</ele><time>2026-04-27T10:26:13.238Z</time></trkpt><trkpt lat="51.5817543" lon="4.6637954"><ele>3.0</ele><time>2026-04-27T10:26:15.231Z</time></trkpt><trkpt lat="51.5817993" lon="4.6639647"><ele>3.0</ele><time>2026-04-27T10:26:17.233Z</time></trkpt><trkpt lat="51.5818354" lon="4.6641228"><ele>3.0</ele><time>2026-04-27T10:26:19.254Z</time></trkpt><trkpt lat="51.5818677" lon="4.6642834"><ele>3.0</ele><time>2026-04-27T10:26:21.246Z</time></trkpt><trkpt lat="51.5819047" lon="4.6644482"><ele>3.0</ele><time>2026-04-27T10:26:23.234Z</time></trkpt><trkpt lat="51.5819351" lon="4.6645953"><ele>3.0</ele><time>2026-04-27T10:26:25.188Z</time></trkpt><trkpt lat="51.5819662" lon="4.6647363"><ele>3.0</ele><time>2026-04-27T10:26:27.257Z</time></trkpt><trkpt lat="51.5820135" lon="4.6648589"><ele>3.0</ele><time>2026-04-27T10:26:29.232Z</time></trkpt><trkpt lat="51.5820587" lon="4.6649855"><ele>3.0</ele><time>2026-04-27T10:26:31.236Z</time></trkpt><trkpt lat="51.5821016" lon="4.6651224"><ele>3.0</ele><time>2026-04-27T10:26:33.233Z</time></trkpt><trkpt lat="51.58214" lon="4.6652829"><ele>3.0</ele><time>2026-04-27T10:26:35.231Z</time></trkpt><trkpt lat="51.5821761" lon="4.6654177"><ele>3.0</ele><time>2026-04-27T10:26:37.252Z</time></trkpt><trkpt lat="51.5822115" lon="4.6655468"><ele>3.0</ele><time>2026-04-27T10:26:39.234Z</time></trkpt><trkpt lat="51.5822439" lon="4.6656951"><ele>3.0</ele><time>2026-04-27T10:26:41.241Z</time></trkpt><trkpt lat="51.5822772" lon="4.6658564"><ele>3.0</ele><time>2026-04-27T10:26:43.213Z</time></trkpt><trkpt lat="51.5823213" lon="4.6660173"><ele>3.4</ele><time>2026-04-27T10:26:45.23Z</time></trkpt><trkpt lat="51.5823589" lon="4.6661751"><ele>3.8</ele><time>2026-04-27T10:26:47.234Z</time></trkpt><trkpt lat="51.5824009" lon="4.6663464"><ele>4.2</ele><time>2026-04-27T10:26:49.239Z</time></trkpt><trkpt lat="51.5824373" lon="4.6665166"><ele>4.6</ele><time>2026-04-27T10:26:51.247Z</time></trkpt><trkpt lat="51.5824788" lon="4.6666662"><ele>5.0</ele><time>2026-04-27T10:26:53.252Z</time></trkpt><trkpt lat="51.5825244" lon="4.6668346"><ele>4.8</ele><time>2026-04-27T10:26:55.249Z</time></trkpt><trkpt lat="51.582565" lon="4.6669834"><ele>4.6</ele><time>2026-04-27T10:26:57.251Z</time></trkpt><trkpt lat="51.5826075" lon="4.6671327"><ele>4.4</ele><time>2026-04-27T10:26:59.255Z</time></trkpt><trkpt lat="51.5826496" lon="4.6672818"><ele>4.2</ele><time>2026-04-27T10:27:01.261Z</time></trkpt><trkpt lat="51.5826775" lon="4.6674407"><ele>4.0</ele><time>2026-04-27T10:27:03.223Z</time></trkpt><trkpt lat="51.5827157" lon="4.6675978"><ele>4.0</ele><time>2026-04-27T10:27:05.243Z</time></trkpt><trkpt lat="51.5827569" lon="4.6677611"><ele>4.0</ele><time>2026-04-27T10:27:07.235Z</time></trkpt><trkpt lat="51.5827963" lon="4.6679249"><ele>4.0</ele><time>2026-04-27T10:27:09.241Z</time></trkpt><trkpt lat="51.5828323" lon="4.6680939"><ele>4.0</ele><time>2026-04-27T10:27:11.241Z</time></trkpt><trkpt lat="51.5828654" lon="4.6682624"><ele>4.0</ele><time>2026-04-27T10:27:13.224Z</time></trkpt><trkpt lat="51.5828946" lon="4.6684226"><ele>4.0</ele><time>2026-04-27T10:27:15.235Z</time></trkpt><trkpt lat="51.5829276" lon="4.6685849"><ele>4.0</ele><time>2026-04-27T10:27:17.208Z</time></trkpt><trkpt lat="51.582974" lon="4.6687472"><ele>4.0</ele><time>2026-04-27T10:27:19.232Z</time></trkpt><trkpt lat="51.5830178" lon="4.6689043"><ele>4.0</ele><time>2026-04-27T10:27:21.24Z</time></trkpt><trkpt lat="51.5830686" lon="4.6690696"><ele>4.0</ele><time>2026-04-27T10:27:23.206Z</time></trkpt><trkpt lat="51.5831221" lon="4.6692384"><ele>4.2</ele><time>2026-04-27T10:27:25.236Z</time></trkpt><trkpt lat="51.5831618" lon="4.6694006"><ele>4.4</ele><time>2026-04-27T10:27:27.245Z</time></trkpt><trkpt lat="51.5831971" lon="4.6695656"><ele>4.6</ele><time>2026-04-27T10:27:29.244Z</time></trkpt><trkpt lat="51.583233" lon="4.6697266"><ele>4.8</ele><time>2026-04-27T10:27:31.247Z</time></trkpt><trkpt lat="51.5832685" lon="4.6698946"><ele>5.0</ele><time>2026-04-27T10:27:33.233Z</time></trkpt><trkpt lat="51.5833046" lon="4.6700615"><ele>5.2</ele><time>2026-04-27T10:27:35.244Z</time></trkpt><trkpt lat="51.5833478" lon="4.6702164"><ele>5.4</ele><time>2026-04-27T10:27:37.244Z</time></trkpt><trkpt lat="51.5833893" lon="4.6703824"><ele>5.6</ele><time>2026-04-27T10:27:39.232Z</time></trkpt><trkpt lat="51.5834305" lon="4.6705441"><ele>5.8</ele><time>2026-04-27T10:27:41.225Z</time></trkpt><trkpt lat="51.5834653" lon="4.6707145"><ele>6.0</ele><time>2026-04-27T10:27:43.241Z</time></trkpt><trkpt lat="51.5835134" lon="4.6708838"><ele>5.8</ele><time>2026-04-27T10:27:45.25Z</time></trkpt><trkpt lat="51.5835482" lon="4.6710484"><ele>5.6</ele><time>2026-04-27T10:27:47.241Z</time></trkpt><trkpt lat="51.5835864" lon="4.6712124"><ele>5.4</ele><time>2026-04-27T10:27:49.247Z</time></trkpt><trkpt lat="51.5836251" lon="4.6713758"><ele>5.2</ele><time>2026-04-27T10:27:51.248Z</time></trkpt><trkpt lat="51.5836627" lon="4.6715241"><ele>5.0</ele><time>2026-04-27T10:27:53.247Z</time></trkpt><trkpt lat="51.5837013" lon="4.6716761"><ele>5.0</ele><time>2026-04-27T10:27:55.232Z</time></trkpt><trkpt lat="51.5837475" lon="4.671829"><ele>5.0</ele><time>2026-04-27T10:27:57.243Z</time></trkpt><trkpt lat="51.5837913" lon="4.6719851"><ele>5.0</ele><time>2026-04-27T10:27:59.187Z</time></trkpt><trkpt lat="51.5838304" lon="4.6721587"><ele>5.0</ele><time>2026-04-27T10:28:01.233Z</time></trkpt><trkpt lat="51.5838728" lon="4.6723248"><ele>5.0</ele><time>2026-04-27T10:28:03.25Z</time></trkpt><trkpt lat="51.5839062" lon="4.6724935"><ele>5.0</ele><time>2026-04-27T10:28:05.227Z</time></trkpt><trkpt lat="51.5839455" lon="4.6726583"><ele>5.0</ele><time>2026-04-27T10:28:07.216Z</time></trkpt><trkpt lat="51.5839906" lon="4.6728174"><ele>5.0</ele><time>2026-04-27T10:28:09.235Z</time></trkpt><trkpt lat="51.5840234" lon="4.6729689"><ele>5.0</ele><time>2026-04-27T10:28:11.253Z</time></trkpt><trkpt lat="51.5840661" lon="4.6731245"><ele>5.0</ele><time>2026-04-27T10:28:13.22Z</time></trkpt><trkpt lat="51.5841062" lon="4.6732985"><ele>5.0</ele><time>2026-04-27T10:28:15.227Z</time></trkpt><trkpt lat="51.5841451" lon="4.6734537"><ele>5.0</ele><time>2026-04-27T10:28:17.241Z</time></trkpt><trkpt lat="51.5841811" lon="4.6736168"><ele>5.0</ele><time>2026-04-27T10:28:19.242Z</time></trkpt><trkpt lat="51.5842189" lon="4.6737742"><ele>5.0</ele><time>2026-04-27T10:28:21.229Z</time></trkpt><trkpt lat="51.5842623" lon="4.6739338"><ele>5.0</ele><time>2026-04-27T10:28:23.234Z</time></trkpt><trkpt lat="51.5843037" lon="4.6740775"><ele>5.0</ele><time>2026-04-27T10:28:25.244Z</time></trkpt><trkpt lat="51.5843399" lon="4.6742405"><ele>5.0</ele><time>2026-04-27T10:28:27.253Z</time></trkpt><trkpt lat="51.584376" lon="4.6744053"><ele>5.0</ele><time>2026-04-27T10:28:29.237Z</time></trkpt><trkpt lat="51.5844141" lon="4.6745691"><ele>5.0</ele><time>2026-04-27T10:28:31.23Z</time></trkpt><trkpt lat="51.5844622" lon="4.6747219"><ele>5.0</ele><time>2026-04-27T10:28:33.215Z</time></trkpt><trkpt lat="51.5845" lon="4.6748766"><ele>4.8</ele><time>2026-04-27T10:28:35.237Z</time></trkpt><trkpt lat="51.5845436" lon="4.6750345"><ele>4.6</ele><time>2026-04-27T10:28:37.244Z</time></trkpt><trkpt lat="51.5845832" lon="4.6751963"><ele>4.4</ele><time>2026-04-27T10:28:39.241Z</time></trkpt><trkpt lat="51.5846189" lon="4.6753639"><ele>4.2</ele><time>2026-04-27T10:28:41.236Z</time></trkpt><trkpt lat="51.5846589" lon="4.6755146"><ele>4.0</ele><time>2026-04-27T10:28:43.237Z</time></trkpt><trkpt lat="51.5846982" lon="4.6756831"><ele>4.0</ele><time>2026-04-27T10:28:45.221Z</time></trkpt><trkpt lat="51.5847436" lon="4.6758392"><ele>4.0</ele><time>2026-04-27T10:28:47.246Z</time></trkpt><trkpt lat="51.5847923" lon="4.6759951"><ele>4.0</ele><time>2026-04-27T10:28:49.229Z</time></trkpt><trkpt lat="51.5848365" lon="4.6761548"><ele>4.0</ele><time>2026-04-27T10:28:51.24Z</time></trkpt><trkpt lat="51.584873" lon="4.676319"><ele>4.0</ele><time>2026-04-27T10:28:53.24Z</time></trkpt><trkpt lat="51.5849112" lon="4.6764727"><ele>4.0</ele><time>2026-04-27T10:28:55.241Z</time></trkpt><trkpt lat="51.5849546" lon="4.6766394"><ele>4.0</ele><time>2026-04-27T10:28:57.232Z</time></trkpt><trkpt lat="51.5849998" lon="4.6767988"><ele>4.0</ele><time>2026-04-27T10:28:59.225Z</time></trkpt><trkpt lat="51.5850472" lon="4.6769622"><ele>4.0</ele><time>2026-04-27T10:29:01.253Z</time></trkpt><trkpt lat="51.5850849" lon="4.67712"><ele>4.0</ele><time>2026-04-27T10:29:03.217Z</time></trkpt><trkpt lat="51.5851159" lon="4.6772843"><ele>4.0</ele><time>2026-04-27T10:29:05.221Z</time></trkpt><trkpt lat="51.5851505" lon="4.6774421"><ele>4.0</ele><time>2026-04-27T10:29:07.232Z</time></trkpt><trkpt lat="51.5851955" lon="4.6776"><ele>4.0</ele><time>2026-04-27T10:29:09.235Z</time></trkpt><trkpt lat="51.5852231" lon="4.6777654"><ele>4.0</ele><time>2026-04-27T10:29:11.229Z</time></trkpt><trkpt lat="51.5852608" lon="4.6779243"><ele>4.0</ele><time>2026-04-27T10:29:13.246Z</time></trkpt><trkpt lat="51.585309" lon="4.6780767"><ele>4.0</ele><time>2026-04-27T10:29:15.228Z</time></trkpt><trkpt lat="51.5853505" lon="4.6782281"><ele>4.0</ele><time>2026-04-27T10:29:17.246Z</time></trkpt><trkpt lat="51.5853897" lon="4.6783898"><ele>4.0</ele><time>2026-04-27T10:29:19.232Z</time></trkpt><trkpt lat="51.5854226" lon="4.6785465"><ele>4.0</ele><time>2026-04-27T10:29:21.224Z</time></trkpt><trkpt lat="51.585456" lon="4.6787044"><ele>4.0</ele><time>2026-04-27T10:29:23.24Z</time></trkpt><trkpt lat="51.5854933" lon="4.6788557"><ele>4.0</ele><time>2026-04-27T10:29:25.247Z</time></trkpt><trkpt lat="51.5855293" lon="4.6790267"><ele>4.0</ele><time>2026-04-27T10:29:27.24Z</time></trkpt><trkpt lat="51.5855621" lon="4.6791992"><ele>4.0</ele><time>2026-04-27T10:29:29.196Z</time></trkpt><trkpt lat="51.5855903" lon="4.6793671"><ele>4.0</ele><time>2026-04-27T10:29:31.242Z</time></trkpt><trkpt lat="51.5856192" lon="4.6795346"><ele>4.0</ele><time>2026-04-27T10:29:33.245Z</time></trkpt><trkpt lat="51.5856342" lon="4.679703"><ele>4.2</ele><time>2026-04-27T10:29:35.251Z</time></trkpt><trkpt lat="51.5856609" lon="4.6798791"><ele>4.4</ele><time>2026-04-27T10:29:37.217Z</time></trkpt><trkpt lat="51.5856863" lon="4.6800552"><ele>4.6</ele><time>2026-04-27T10:29:39.221Z</time></trkpt><trkpt lat="51.5857117" lon="4.6802298"><ele>4.8</ele><time>2026-04-27T10:29:41.228Z</time></trkpt><trkpt lat="51.5857207" lon="4.6804074"><ele>5.0</ele><time>2026-04-27T10:29:43.244Z</time></trkpt><trkpt lat="51.5857394" lon="4.6805821"><ele>5.0</ele><time>2026-04-27T10:29:45.207Z</time></trkpt><trkpt lat="51.5857629" lon="4.6807635"><ele>5.0</ele><time>2026-04-27T10:29:47.239Z</time></trkpt><trkpt lat="51.5857793" lon="4.6809379"><ele>5.0</ele><time>2026-04-27T10:29:49.223Z</time></trkpt><trkpt lat="51.5857902" lon="4.6811083"><ele>5.0</ele><time>2026-04-27T10:29:51.234Z</time></trkpt><trkpt lat="51.5857938" lon="4.6812839"><ele>5.0</ele><time>2026-04-27T10:29:53.244Z</time></trkpt><trkpt lat="51.5857941" lon="4.6814625"><ele>5.0</ele><time>2026-04-27T10:29:55.257Z</time></trkpt><trkpt lat="51.5857929" lon="4.6816357"><ele>5.0</ele><time>2026-04-27T10:29:57.258Z</time></trkpt><trkpt lat="51.5857913" lon="4.6818059"><ele>5.0</ele><time>2026-04-27T10:29:59.27Z</time></trkpt><trkpt lat="51.5857922" lon="4.6819881"><ele>5.0</ele><time>2026-04-27T10:30:01.244Z</time></trkpt><trkpt lat="51.5857946" lon="4.6821547"><ele>5.0</ele><time>2026-04-27T10:30:03.196Z</time></trkpt><trkpt lat="51.5858034" lon="4.682319"><ele>5.25</ele><time>2026-04-27T10:30:05.199Z</time></trkpt><trkpt lat="51.5857957" lon="4.6825013"><ele>5.5</ele><time>2026-04-27T10:30:07.237Z</time></trkpt><trkpt lat="51.5857911" lon="4.6826836"><ele>5.75</ele><time>2026-04-27T10:30:09.221Z</time></trkpt><trkpt lat="51.5857822" lon="4.6828657"><ele>6.0</ele><time>2026-04-27T10:30:11.227Z</time></trkpt><trkpt lat="51.5857654" lon="4.6830398"><ele>6.199999999999999</ele><time>2026-04-27T10:30:13.232Z</time></trkpt><trkpt lat="51.5857474" lon="4.6832172"><ele>6.3999999999999995</ele><time>2026-04-27T10:30:15.227Z</time></trkpt><trkpt lat="51.5857246" lon="4.6833886"><ele>6.6</ele><time>2026-04-27T10:30:17.248Z</time></trkpt><trkpt lat="51.5857" lon="4.6835476"><ele>6.8</ele><time>2026-04-27T10:30:19.245Z</time></trkpt><trkpt lat="51.585679" lon="4.6837192"><ele>7.0</ele><time>2026-04-27T10:30:21.228Z</time></trkpt><trkpt lat="51.5856597" lon="4.6838774"><ele>7.199999999999999</ele><time>2026-04-27T10:30:23.234Z</time></trkpt><trkpt lat="51.5856375" lon="4.684043"><ele>7.3999999999999995</ele><time>2026-04-27T10:30:25.236Z</time></trkpt><trkpt lat="51.5856123" lon="4.6842035"><ele>7.6000000000000005</ele><time>2026-04-27T10:30:27.269Z</time></trkpt><trkpt lat="51.5855901" lon="4.6843693"><ele>7.800000000000001</ele><time>2026-04-27T10:30:29.198Z</time></trkpt><trkpt lat="51.5855689" lon="4.6845279"><ele>8.0</ele><time>2026-04-27T10:30:31.235Z</time></trkpt><trkpt lat="51.5855368" lon="4.6846891"><ele>7.6000000000000005</ele><time>2026-04-27T10:30:33.25Z</time></trkpt><trkpt lat="51.5854984" lon="4.6848422"><ele>7.200000000000001</ele><time>2026-04-27T10:30:35.238Z</time></trkpt><trkpt lat="51.5854579" lon="4.6850108"><ele>6.8</ele><time>2026-04-27T10:30:37.246Z</time></trkpt><trkpt lat="51.5854325" lon="4.6851773"><ele>6.4</ele><time>2026-04-27T10:30:39.22Z</time></trkpt><trkpt lat="51.5854104" lon="4.6853436"><ele>6.0</ele><time>2026-04-27T10:30:41.228Z</time></trkpt><trkpt lat="51.5853883" lon="4.6855083"><ele>6.0</ele><time>2026-04-27T10:30:43.213Z</time></trkpt><trkpt lat="51.5853644" lon="4.6856736"><ele>6.0</ele><time>2026-04-27T10:30:45.219Z</time></trkpt><trkpt lat="51.5853495" lon="4.6858312"><ele>6.0</ele><time>2026-04-27T10:30:47.186Z</time></trkpt><trkpt lat="51.5853275" lon="4.6859775"><ele>6.0</ele><time>2026-04-27T10:30:49.237Z</time></trkpt><trkpt lat="51.5853141" lon="4.686132"><ele>6.0</ele><time>2026-04-27T10:30:51.195Z</time></trkpt><trkpt lat="51.585336" lon="4.686286"><ele>6.0</ele><time>2026-04-27T10:30:53.242Z</time></trkpt><trkpt lat="51.5853395" lon="4.6863883"><ele>6.0</ele><time>2026-04-27T10:30:54.258Z</time></trkpt><trkpt lat="51.5853589" lon="4.6865634"><ele>6.0</ele><time>2026-04-27T10:30:56.228Z</time></trkpt><trkpt lat="51.5853631" lon="4.6867339"><ele>6.0</ele><time>2026-04-27T10:30:58.238Z</time></trkpt><trkpt lat="51.585383" lon="4.686907"><ele>6.0</ele><time>2026-04-27T10:31:00.238Z</time></trkpt><trkpt lat="51.5853913" lon="4.6870676"><ele>6.199999999999999</ele><time>2026-04-27T10:31:02.218Z</time></trkpt><trkpt lat="51.5854073" lon="4.6872147"><ele>6.3999999999999995</ele><time>2026-04-27T10:31:04.237Z</time></trkpt><trkpt lat="51.5854336" lon="4.6873768"><ele>6.6</ele><time>2026-04-27T10:31:06.238Z</time></trkpt><trkpt lat="51.5854506" lon="4.6875394"><ele>6.8</ele><time>2026-04-27T10:31:08.226Z</time></trkpt><trkpt lat="51.5854708" lon="4.6877109"><ele>7.0</ele><time>2026-04-27T10:31:10.228Z</time></trkpt><trkpt lat="51.5854848" lon="4.6878842"><ele>7.199999999999999</ele><time>2026-04-27T10:31:12.221Z</time></trkpt><trkpt lat="51.5855078" lon="4.6880544"><ele>7.3999999999999995</ele><time>2026-04-27T10:31:14.248Z</time></trkpt><trkpt lat="51.5855313" lon="4.6882172"><ele>7.6000000000000005</ele><time>2026-04-27T10:31:16.219Z</time></trkpt><trkpt lat="51.5855633" lon="4.6883784"><ele>7.800000000000001</ele><time>2026-04-27T10:31:18.219Z</time></trkpt><trkpt lat="51.585587" lon="4.6885515"><ele>8.0</ele><time>2026-04-27T10:31:20.225Z</time></trkpt><trkpt lat="51.585608" lon="4.6887287"><ele>8.0</ele><time>2026-04-27T10:31:22.232Z</time></trkpt><trkpt lat="51.585637" lon="4.6889"><ele>8.0</ele><time>2026-04-27T10:31:24.244Z</time></trkpt><trkpt lat="51.5856623" lon="4.6890765"><ele>8.0</ele><time>2026-04-27T10:31:26.224Z</time></trkpt><trkpt lat="51.5856884" lon="4.6892543"><ele>8.0</ele><time>2026-04-27T10:31:28.239Z</time></trkpt><trkpt lat="51.5857197" lon="4.6894255"><ele>8.0</ele><time>2026-04-27T10:31:30.232Z</time></trkpt><trkpt lat="51.5857374" lon="4.6895811"><ele>8.0</ele><time>2026-04-27T10:31:32.25Z</time></trkpt><trkpt lat="51.5857588" lon="4.6897504"><ele>8.0</ele><time>2026-04-27T10:31:34.24Z</time></trkpt><trkpt lat="51.585783" lon="4.6899311"><ele>8.0</ele><time>2026-04-27T10:31:36.24Z</time></trkpt><trkpt lat="51.5858018" lon="4.6900989"><ele>8.0</ele><time>2026-04-27T10:31:38.238Z</time></trkpt><trkpt lat="51.585822" lon="4.6902632"><ele>8.0</ele><time>2026-04-27T10:31:40.174Z</time></trkpt><trkpt lat="51.5858486" lon="4.6904315"><ele>8.0</ele><time>2026-04-27T10:31:42.202Z</time></trkpt><trkpt lat="51.585886" lon="4.6905989"><ele>8.0</ele><time>2026-04-27T10:31:44.236Z</time></trkpt><trkpt lat="51.5859269" lon="4.6907652"><ele>8.0</ele><time>2026-04-27T10:31:46.168Z</time></trkpt><trkpt lat="51.5859579" lon="4.6909372"><ele>8.0</ele><time>2026-04-27T10:31:48.188Z</time></trkpt><trkpt lat="51.5859774" lon="4.6910981"><ele>8.0</ele><time>2026-04-27T10:31:50.171Z</time></trkpt><trkpt lat="51.5859979" lon="4.6912619"><ele>8.0</ele><time>2026-04-27T10:31:52.192Z</time></trkpt><trkpt lat="51.5860129" lon="4.6914177"><ele>8.0</ele><time>2026-04-27T10:31:54.23Z</time></trkpt><trkpt lat="51.5860198" lon="4.6915776"><ele>8.0</ele><time>2026-04-27T10:31:56.189Z</time></trkpt><trkpt lat="51.5860409" lon="4.6917407"><ele>8.0</ele><time>2026-04-27T10:31:58.234Z</time></trkpt><trkpt lat="51.5860536" lon="4.6919109"><ele>8.0</ele><time>2026-04-27T10:32:00.235Z</time></trkpt><trkpt lat="51.5860739" lon="4.6920797"><ele>8.0</ele><time>2026-04-27T10:32:02.215Z</time></trkpt><trkpt lat="51.5860978" lon="4.6922495"><ele>8.0</ele><time>2026-04-27T10:32:04.215Z</time></trkpt><trkpt lat="51.586121" lon="4.6924129"><ele>8.0</ele><time>2026-04-27T10:32:06.222Z</time></trkpt><trkpt lat="51.5861461" lon="4.6925711"><ele>8.0</ele><time>2026-04-27T10:32:08.221Z</time></trkpt><trkpt lat="51.5861703" lon="4.6927316"><ele>8.0</ele><time>2026-04-27T10:32:10.232Z</time></trkpt><trkpt lat="51.5861857" lon="4.69289"><ele>8.166666666666666</ele><time>2026-04-27T10:32:12.203Z</time></trkpt><trkpt lat="51.5861954" lon="4.6930471"><ele>8.333333333333332</ele><time>2026-04-27T10:32:14.206Z</time></trkpt><trkpt lat="51.5862013" lon="4.6931913"><ele>8.5</ele><time>2026-04-27T10:32:16.229Z</time></trkpt><trkpt lat="51.5861898" lon="4.6933324"><ele>8.666666666666666</ele><time>2026-04-27T10:32:18.213Z</time></trkpt><trkpt lat="51.5861882" lon="4.6934383"><ele>8.833333333333334</ele><time>2026-04-27T10:32:20.2Z</time></trkpt><trkpt lat="51.5862281" lon="4.6935476"><ele>9.0</ele><time>2026-04-27T10:32:23.198Z</time></trkpt><trkpt lat="51.5863217" lon="4.6935589"><ele>9.0</ele><time>2026-04-27T10:32:26.228Z</time></trkpt><trkpt lat="51.586402" lon="4.6935561"><ele>9.0</ele><time>2026-04-27T10:32:28.214Z</time></trkpt><trkpt lat="51.586483" lon="4.6935482"><ele>9.0</ele><time>2026-04-27T10:32:30.231Z</time></trkpt><trkpt lat="51.5865457" lon="4.693563"><ele>9.0</ele><time>2026-04-27T10:32:31.245Z</time></trkpt><trkpt lat="51.5866459" lon="4.6935701"><ele>9.0</ele><time>2026-04-27T10:32:33.24Z</time></trkpt><trkpt lat="51.5867559" lon="4.6935618"><ele>9.0</ele><time>2026-04-27T10:32:35.213Z</time></trkpt><trkpt lat="51.5868557" lon="4.6935482"><ele>9.0</ele><time>2026-04-27T10:32:37.233Z</time></trkpt><trkpt lat="51.5869536" lon="4.6935617"><ele>9.0</ele><time>2026-04-27T10:32:39.229Z</time></trkpt><trkpt lat="51.5870595" lon="4.6935782"><ele>9.0</ele><time>2026-04-27T10:32:41.217Z</time></trkpt><trkpt lat="51.5871582" lon="4.6935869"><ele>9.0</ele><time>2026-04-27T10:32:43.229Z</time></trkpt><trkpt lat="51.5872638" lon="4.6935858"><ele>9.0</ele><time>2026-04-27T10:32:45.225Z</time></trkpt><trkpt lat="51.5873722" lon="4.6935918"><ele>8.6</ele><time>2026-04-27T10:32:47.246Z</time></trkpt><trkpt lat="51.5874793" lon="4.6935928"><ele>8.2</ele><time>2026-04-27T10:32:49.23Z</time></trkpt><trkpt lat="51.5875894" lon="4.6936029"><ele>7.799999999999999</ele><time>2026-04-27T10:32:51.22Z</time></trkpt><trkpt lat="51.5877015" lon="4.6936138"><ele>7.3999999999999995</ele><time>2026-04-27T10:32:53.214Z</time></trkpt><trkpt lat="51.5878039" lon="4.6936233"><ele>7.0</ele><time>2026-04-27T10:32:55.233Z</time></trkpt><trkpt lat="51.5879081" lon="4.6936403"><ele>6.8</ele><time>2026-04-27T10:32:57.241Z</time></trkpt><trkpt lat="51.5880123" lon="4.6936499"><ele>6.6</ele><time>2026-04-27T10:32:59.233Z</time></trkpt><trkpt lat="51.5881132" lon="4.6936465"><ele>6.3999999999999995</ele><time>2026-04-27T10:33:01.235Z</time></trkpt><trkpt lat="51.5882167" lon="4.6936361"><ele>6.199999999999999</ele><time>2026-04-27T10:33:03.242Z</time></trkpt><trkpt lat="51.5883199" lon="4.693641"><ele>6.0</ele><time>2026-04-27T10:33:05.19Z</time></trkpt><trkpt lat="51.5884167" lon="4.6936487"><ele>6.0</ele><time>2026-04-27T10:33:07.249Z</time></trkpt><trkpt lat="51.5885189" lon="4.6936457"><ele>6.0</ele><time>2026-04-27T10:33:09.236Z</time></trkpt><trkpt lat="51.5886188" lon="4.6936505"><ele>6.0</ele><time>2026-04-27T10:33:11.212Z</time></trkpt><trkpt lat="51.5887132" lon="4.6936509"><ele>6.0</ele><time>2026-04-27T10:33:13.237Z</time></trkpt><trkpt lat="51.5888134" lon="4.6936567"><ele>6.0</ele><time>2026-04-27T10:33:15.224Z</time></trkpt><trkpt lat="51.5889119" lon="4.6936869"><ele>5.666666666666667</ele><time>2026-04-27T10:33:17.216Z</time></trkpt><trkpt lat="51.5889993" lon="4.6937307"><ele>5.333333333333333</ele><time>2026-04-27T10:33:19.178Z</time></trkpt><trkpt lat="51.5890934" lon="4.6937618"><ele>5.0</ele><time>2026-04-27T10:33:21.177Z</time></trkpt><trkpt lat="51.5891785" lon="4.6937646"><ele>4.666666666666666</ele><time>2026-04-27T10:33:23.225Z</time></trkpt><trkpt lat="51.5892522" lon="4.6937729"><ele>4.333333333333333</ele><time>2026-04-27T10:33:25.257Z</time></trkpt><trkpt lat="51.5893363" lon="4.6937588"><ele>4.0</ele><time>2026-04-27T10:33:27.232Z</time></trkpt><trkpt lat="51.5894285" lon="4.6937454"><ele>4.333333333333333</ele><time>2026-04-27T10:33:29.248Z</time></trkpt><trkpt lat="51.5895096" lon="4.6937238"><ele>4.666666666666666</ele><time>2026-04-27T10:33:31.19Z</time></trkpt><trkpt lat="51.5895971" lon="4.6937139"><ele>5.0</ele><time>2026-04-27T10:33:33.249Z</time></trkpt><trkpt lat="51.5896856" lon="4.6937129"><ele>5.333333333333333</ele><time>2026-04-27T10:33:35.25Z</time></trkpt><trkpt lat="51.5897735" lon="4.6937032"><ele>5.666666666666667</ele><time>2026-04-27T10:33:37.233Z</time></trkpt><trkpt lat="51.5898386" lon="4.6937864"><ele>6.0</ele><time>2026-04-27T10:33:40.209Z</time></trkpt><trkpt lat="51.589855" lon="4.6939005"><ele>6.0</ele><time>2026-04-27T10:33:43.227Z</time></trkpt><trkpt lat="51.5899188" lon="4.6939358"><ele>6.0</ele><time>2026-04-27T10:33:45.231Z</time></trkpt><trkpt lat="51.5899913" lon="4.693953"><ele>6.0</ele><time>2026-04-27T10:33:47.229Z</time></trkpt><trkpt lat="51.5900838" lon="4.6939503"><ele>6.0</ele><time>2026-04-27T10:33:49.221Z</time></trkpt><trkpt lat="51.5901768" lon="4.6939516"><ele>6.0</ele><time>2026-04-27T10:33:51.226Z</time></trkpt><trkpt lat="51.5902661" lon="4.6939578"><ele>6.0</ele><time>2026-04-27T10:33:53.229Z</time></trkpt><trkpt lat="51.5903712" lon="4.6939521"><ele>5.6</ele><time>2026-04-27T10:33:55.239Z</time></trkpt><trkpt lat="51.5904732" lon="4.6939531"><ele>5.199999999999999</ele><time>2026-04-27T10:33:57.228Z</time></trkpt><trkpt lat="51.5905745" lon="4.6939571"><ele>4.800000000000001</ele><time>2026-04-27T10:33:59.228Z</time></trkpt><trkpt lat="51.5906701" lon="4.6939588"><ele>4.4</ele><time>2026-04-27T10:34:01.236Z</time></trkpt><trkpt lat="51.5907752" lon="4.6939598"><ele>4.0</ele><time>2026-04-27T10:34:03.235Z</time></trkpt><trkpt lat="51.5908746" lon="4.6939658"><ele>4.0</ele><time>2026-04-27T10:34:05.184Z</time></trkpt><trkpt lat="51.590973" lon="4.6939756"><ele>4.0</ele><time>2026-04-27T10:34:07.234Z</time></trkpt><trkpt lat="51.591069" lon="4.6939872"><ele>4.0</ele><time>2026-04-27T10:34:09.256Z</time></trkpt><trkpt lat="51.5911663" lon="4.6939804"><ele>4.0</ele><time>2026-04-27T10:34:11.239Z</time></trkpt><trkpt lat="51.591265" lon="4.6939857"><ele>4.0</ele><time>2026-04-27T10:34:13.225Z</time></trkpt><trkpt lat="51.5913623" lon="4.693984"><ele>4.0</ele><time>2026-04-27T10:34:15.208Z</time></trkpt><trkpt lat="51.5914603" lon="4.6939887"><ele>4.0</ele><time>2026-04-27T10:34:17.231Z</time></trkpt><trkpt lat="51.5915616" lon="4.6940043"><ele>4.0</ele><time>2026-04-27T10:34:19.224Z</time></trkpt><trkpt lat="51.5916645" lon="4.6940129"><ele>4.0</ele><time>2026-04-27T10:34:21.215Z</time></trkpt><trkpt lat="51.5917745" lon="4.6940186"><ele>4.0</ele><time>2026-04-27T10:34:23.219Z</time></trkpt><trkpt lat="51.5918776" lon="4.6940135"><ele>4.0</ele><time>2026-04-27T10:34:25.197Z</time></trkpt><trkpt lat="51.5919776" lon="4.6940094"><ele>4.0</ele><time>2026-04-27T10:34:27.25Z</time></trkpt><trkpt lat="51.5920826" lon="4.6940123"><ele>4.0</ele><time>2026-04-27T10:34:29.194Z</time></trkpt><trkpt lat="51.59219" lon="4.6940227"><ele>4.0</ele><time>2026-04-27T10:34:31.198Z</time></trkpt><trkpt lat="51.5922965" lon="4.6940129"><ele>4.0</ele><time>2026-04-27T10:34:33.228Z</time></trkpt><trkpt lat="51.5923976" lon="4.6940307"><ele>4.0</ele><time>2026-04-27T10:34:35.238Z</time></trkpt><trkpt lat="51.5924998" lon="4.6940256"><ele>4.0</ele><time>2026-04-27T10:34:37.212Z</time></trkpt><trkpt lat="51.5926085" lon="4.6940244"><ele>4.0</ele><time>2026-04-27T10:34:39.217Z</time></trkpt><trkpt lat="51.592722" lon="4.6940122"><ele>4.0</ele><time>2026-04-27T10:34:41.252Z</time></trkpt><trkpt lat="51.5928193" lon="4.6940131"><ele>4.0</ele><time>2026-04-27T10:34:43.237Z</time></trkpt><trkpt lat="51.5929236" lon="4.6940169"><ele>4.0</ele><time>2026-04-27T10:34:45.238Z</time></trkpt><trkpt lat="51.593027" lon="4.6940148"><ele>4.0</ele><time>2026-04-27T10:34:47.246Z</time></trkpt><trkpt lat="51.5931312" lon="4.6940145"><ele>4.0</ele><time>2026-04-27T10:34:49.21Z</time></trkpt><trkpt lat="51.5932314" lon="4.6940014"><ele>4.0</ele><time>2026-04-27T10:34:51.22Z</time></trkpt><trkpt lat="51.593327" lon="4.6940094"><ele>4.0</ele><time>2026-04-27T10:34:53.223Z</time></trkpt><trkpt lat="51.5934355" lon="4.6940144"><ele>4.0</ele><time>2026-04-27T10:34:55.221Z</time></trkpt><trkpt lat="51.5935401" lon="4.6940281"><ele>4.0</ele><time>2026-04-27T10:34:57.216Z</time></trkpt><trkpt lat="51.5936468" lon="4.694027"><ele>4.0</ele><time>2026-04-27T10:34:59.219Z</time></trkpt><trkpt lat="51.5937591" lon="4.6940301"><ele>4.0</ele><time>2026-04-27T10:35:01.221Z</time></trkpt><trkpt lat="51.5938715" lon="4.6940212"><ele>4.0</ele><time>2026-04-27T10:35:03.236Z</time></trkpt><trkpt lat="51.5939742" lon="4.6940249"><ele>4.2</ele><time>2026-04-27T10:35:05.229Z</time></trkpt><trkpt lat="51.5940711" lon="4.6940274"><ele>4.4</ele><time>2026-04-27T10:35:07.227Z</time></trkpt><trkpt lat="51.5941702" lon="4.6940277"><ele>4.6</ele><time>2026-04-27T10:35:09.217Z</time></trkpt><trkpt lat="51.5942673" lon="4.6940379"><ele>4.8</ele><time>2026-04-27T10:35:11.207Z</time></trkpt><trkpt lat="51.594366" lon="4.6940325"><ele>5.0</ele><time>2026-04-27T10:35:13.238Z</time></trkpt><trkpt lat="51.5944562" lon="4.6940366"><ele>5.0</ele><time>2026-04-27T10:35:15.247Z</time></trkpt><trkpt lat="51.5945421" lon="4.6940402"><ele>5.0</ele><time>2026-04-27T10:35:17.226Z</time></trkpt><trkpt lat="51.5946367" lon="4.6940439"><ele>5.0</ele><time>2026-04-27T10:35:19.231Z</time></trkpt><trkpt lat="51.5947269" lon="4.694051"><ele>5.0</ele><time>2026-04-27T10:35:21.217Z</time></trkpt><trkpt lat="51.5948225" lon="4.6940549"><ele>5.0</ele><time>2026-04-27T10:35:23.242Z</time></trkpt><trkpt lat="51.5949173" lon="4.6940505"><ele>5.0</ele><time>2026-04-27T10:35:25.234Z</time></trkpt><trkpt lat="51.5950162" lon="4.6940451"><ele>5.0</ele><time>2026-04-27T10:35:27.246Z</time></trkpt><trkpt lat="51.5951224" lon="4.6940443"><ele>5.0</ele><time>2026-04-27T10:35:29.242Z</time></trkpt><trkpt lat="51.5952286" lon="4.6940503"><ele>5.0</ele><time>2026-04-27T10:35:31.24Z</time></trkpt><trkpt lat="51.5953283" lon="4.694056"><ele>5.0</ele><time>2026-04-27T10:35:33.254Z</time></trkpt><trkpt lat="51.5954189" lon="4.6940571"><ele>4.4</ele><time>2026-04-27T10:35:35.247Z</time></trkpt><trkpt lat="51.5955262" lon="4.6940556"><ele>3.8</ele><time>2026-04-27T10:35:37.257Z</time></trkpt><trkpt lat="51.5956292" lon="4.6940657"><ele>3.2</ele><time>2026-04-27T10:35:39.25Z</time></trkpt><trkpt lat="51.5957343" lon="4.6940642"><ele>2.6</ele><time>2026-04-27T10:35:41.25Z</time></trkpt><trkpt lat="51.5958296" lon="4.6940653"><ele>2.0</ele><time>2026-04-27T10:35:43.246Z</time></trkpt><trkpt lat="51.5959302" lon="4.694069"><ele>2.0</ele><time>2026-04-27T10:35:45.234Z</time></trkpt><trkpt lat="51.5960345" lon="4.6940743"><ele>2.0</ele><time>2026-04-27T10:35:47.252Z</time></trkpt><trkpt lat="51.5961334" lon="4.6940689"><ele>2.0</ele><time>2026-04-27T10:35:49.235Z</time></trkpt><trkpt lat="51.5962388" lon="4.6940588"><ele>2.0</ele><time>2026-04-27T10:35:51.246Z</time></trkpt><trkpt lat="51.5963357" lon="4.6940563"><ele>2.0</ele><time>2026-04-27T10:35:53.229Z</time></trkpt><trkpt lat="51.5964298" lon="4.6940697"><ele>2.2</ele><time>2026-04-27T10:35:55.217Z</time></trkpt><trkpt lat="51.5965369" lon="4.6940703"><ele>2.4000000000000004</ele><time>2026-04-27T10:35:57.205Z</time></trkpt><trkpt lat="51.59663" lon="4.694087"><ele>2.5999999999999996</ele><time>2026-04-27T10:35:59.222Z</time></trkpt><trkpt lat="51.5967274" lon="4.694081"><ele>2.8</ele><time>2026-04-27T10:36:01.197Z</time></trkpt><trkpt lat="51.5968266" lon="4.6940722"><ele>3.0</ele><time>2026-04-27T10:36:03.237Z</time></trkpt><trkpt lat="51.5969235" lon="4.6940747"><ele>3.2</ele><time>2026-04-27T10:36:05.242Z</time></trkpt><trkpt lat="51.5970324" lon="4.6940779"><ele>3.4</ele><time>2026-04-27T10:36:07.234Z</time></trkpt><trkpt lat="51.5971362" lon="4.6940952"><ele>3.6000000000000005</ele><time>2026-04-27T10:36:09.233Z</time></trkpt><trkpt lat="51.5972362" lon="4.6940931"><ele>3.8000000000000003</ele><time>2026-04-27T10:36:11.228Z</time></trkpt><trkpt lat="51.5973187" lon="4.6941036"><ele>4.0</ele><time>2026-04-27T10:36:13.225Z</time></trkpt><trkpt lat="51.59742" lon="4.6941087"><ele>3.9999999999999996</ele><time>2026-04-27T10:36:15.24Z</time></trkpt><trkpt lat="51.5975167" lon="4.6941203"><ele>4.0</ele><time>2026-04-27T10:36:17.226Z</time></trkpt><trkpt lat="51.5976067" lon="4.694107"><ele>4.0</ele><time>2026-04-27T10:36:19.217Z</time></trkpt><trkpt lat="51.5976952" lon="4.6941187"><ele>4.0</ele><time>2026-04-27T10:36:21.223Z</time></trkpt><trkpt lat="51.5977601" lon="4.6941208"><ele>3.9999999999999996</ele><time>2026-04-27T10:36:23.209Z</time></trkpt><trkpt lat="51.5978535" lon="4.6941311"><ele>4.0</ele><time>2026-04-27T10:36:26.251Z</time></trkpt><trkpt lat="51.5979353" lon="4.6941353"><ele>3.9999999999999996</ele><time>2026-04-27T10:36:28.221Z</time></trkpt><trkpt lat="51.5980024" lon="4.6940979"><ele>4.0</ele><time>2026-04-27T10:36:30.262Z</time></trkpt><trkpt lat="51.5980676" lon="4.6940226"><ele>4.0</ele><time>2026-04-27T10:36:32.221Z</time></trkpt><trkpt lat="51.5981206" lon="4.6939633"><ele>4.0</ele><time>2026-04-27T10:36:34.251Z</time></trkpt><trkpt lat="51.5981914" lon="4.6939313"><ele>3.9999999999999996</ele><time>2026-04-27T10:36:37.25Z</time></trkpt><trkpt lat="51.5982795" lon="4.6939209"><ele>4.0</ele><time>2026-04-27T10:36:40.25Z</time></trkpt><trkpt lat="51.5983654" lon="4.6939143"><ele>4.0</ele><time>2026-04-27T10:36:43.195Z</time></trkpt><trkpt lat="51.5984469" lon="4.6939107"><ele>4.0</ele><time>2026-04-27T10:36:46.249Z</time></trkpt><trkpt lat="51.5985024" lon="4.693853"><ele>4.0</ele><time>2026-04-27T10:36:48.213Z</time></trkpt><trkpt lat="51.5985355" lon="4.6937667"><ele>4.0</ele><time>2026-04-27T10:36:50.201Z</time></trkpt><trkpt lat="51.5985619" lon="4.6936468"><ele>4.0</ele><time>2026-04-27T10:36:53.221Z</time></trkpt><trkpt lat="51.5985922" lon="4.6935501"><ele>4.0</ele><time>2026-04-27T10:36:56.246Z</time></trkpt></trkseg></trk></gpx>